Time,TemperatureF,DewpointF,PressureIn,WindDirection,WindDirectionDegrees,WindSpeedMPH,WindSpeedGustMPH,Humidity,HourlyPrecipIn,Conditions,Clouds,dailyrainin,SolarRadiationWatts/m^2,SoftwareType,DateUTC
2013-04-26 00:00:00,35.2,33.7,30.18,WSW,237,0.0,0.0,93,0.00,,,-99.99,1.0,HOBO +U30 +Weather +,2013-04-26 04:00:00,
2013-04-26 00:01:00,35.1,33.5,30.18,WSW,237,0.0,0.0,93,0.00,,,-99.99,1.0,HOBO +U30 +Weather +,2013-04-26 04:01:00,
2013-04-26 00:02:00,35.0,33.3,30.18,WSW,237,0.0,0.0,93,0.00,,,-99.99,1.0,HOBO +U30 +Weather +,2013-04-26 04:02:00,
2013-04-26 00:03:00,34.8,33.2,30.18,WSW,237,0.0,0.0,93,0.00,,,-99.99,1.0,HOBO +U30 +Weather +,2013-04-26 04:03:00,
2013-04-26 00:04:00,34.7,33.1,30.18,WSW,237,0.0,0.0,93,0.00,,,-99.99,1.0,HOBO +U30 +Weather +,2013-04-26 04:04:00,
2013-04-26 00:05:00,34.6,33.0,30.18,WSW,237,0.0,0.0,93,0.00,,,-99.99,1.0,HOBO +U30 +Weather +,2013-04-26 04:05:00,
2013-04-26 00:06:00,34.5,32.9,30.18,WSW,237,0.0,0.0,93,0.00,,,-99.99,1.0,HOBO +U30 +Weather +,2013-04-26 04:06:00,
2013-04-26 00:07:00,34.4,32.9,30.18,WSW,237,0.0,0.0,94,0.00,,,-99.99,1.0,HOBO +U30 +Weather +,2013-04-26 04:07:00,
2013-04-26 00:08:00,34.5,32.9,30.18,WSW,237,0.0,0.0,94,0.00,,,-99.99,1.0,HOBO +U30 +Weather +,2013-04-26 04:08:00,
2013-04-26 00:09:00,34.5,33.0,30.18,WSW,237,0.0,0.0,94,0.00,,,-99.99,1.0,HOBO +U30 +Weather +,2013-04-26 04:09:00,
2013-04-26 00:10:00,34.5,33.0,30.18,WSW,237,0.0,0.0,94,0.00,,,-99.99,1.0,HOBO +U30 +Weather +,2013-04-26 04:10:00,
2013-04-26 00:11:00,34.4,32.9,30.18,WSW,237,0.0,0.0,94,0.00,,,-99.99,1.0,HOBO +U30 +Weather +,2013-04-26 04:11:00,
2013-04-26 00:12:00,34.3,32.8,30.19,WSW,237,0.0,0.0,94,0.00,,,-99.99,1.0,HOBO +U30 +Weather +,2013-04-26 04:12:00,
2013-04-26 00:13:00,34.2,32.7,30.18,WSW,237,0.0,0.0,94,0.00,,,-99.99,1.0,HOBO +U30 +Weather +,2013-04-26 04:13:00,
2013-04-26 00:14:00,34.1,32.6,30.18,WSW,237,0.0,0.0,94,0.00,,,-99.99,1.0,HOBO +U30 +Weather +,2013-04-26 04:14:00,
2013-04-26 00:15:00,34.0,32.6,30.19,WSW,237,0.0,0.0,94,0.00,,,-99.99,1.0,HOBO +U30 +Weather +,2013-04-26 04:15:00,
2013-04-26 00:16:00,34.0,32.5,30.18,WSW,237,0.0,0.0,94,0.00,,,-99.99,1.0,HOBO +U30 +Weather +,2013-04-26 04:16:00,
2013-04-26 00:17:00,33.9,32.4,30.19,WSW,237,0.0,0.0,94,0.00,,,-99.99,1.0,HOBO +U30 +Weather +,2013-04-26 04:17:00,
2013-04-26 00:18:00,33.7,32.3,30.18,WSW,237,0.0,0.0,94,0.00,,,-99.99,1.0,HOBO +U30 +Weather +,2013-04-26 04:18:00,
2013-04-26 00:19:00,33.7,32.2,30.19,WSW,237,0.0,0.0,94,0.00,,,-99.99,1.0,HOBO +U30 +Weather +,2013-04-26 04:19:00,
2013-04-26 00:20:00,33.7,32.3,30.19,WSW,237,0.0,0.0,94,0.00,,,-99.99,1.0,HOBO +U30 +Weather +,2013-04-26 04:20:00,
2013-04-26 00:21:00,33.7,32.3,30.19,WSW,237,0.0,0.0,94,0.00,,,-99.99,1.0,HOBO +U30 +Weather +,2013-04-26 04:21:00,
2013-04-26 00:22:00,33.8,32.5,30.19,WSW,237,0.0,0.0,94,0.00,,,-99.99,1.0,HOBO +U30 +Weather +,2013-04-26 04:22:00,
2013-04-26 00:23:00,33.9,32.6,30.19,WSW,237,0.0,0.0,94,0.00,,,-99.99,1.0,HOBO +U30 +Weather +,2013-04-26 04:23:00,
2013-04-26 00:24:00,33.8,32.5,30.19,WSW,237,0.0,0.0,94,0.00,,,-99.99,1.0,HOBO +U30 +Weather +,2013-04-26 04:24:00,
2013-04-26 00:25:00,33.7,32.3,30.19,WSW,237,0.0,0.0,94,0.00,,,-99.99,1.0,HOBO +U30 +Weather +,2013-04-26 04:25:00,
2013-04-26 00:26:00,33.6,32.3,30.19,WSW,237,0.0,0.0,94,0.00,,,-99.99,1.0,HOBO +U30 +Weather +,2013-04-26 04:26:00,
2013-04-26 00:27:00,33.5,32.2,30.19,WSW,237,0.0,0.0,94,0.00,,,-99.99,1.0,HOBO +U30 +Weather +,2013-04-26 04:27:00,
2013-04-26 00:28:00,33.4,32.1,30.19,WSW,237,0.0,0.0,94,0.00,,,-99.99,1.0,HOBO +U30 +Weather +,2013-04-26 04:28:00,
2013-04-26 00:29:00,33.3,32.1,30.19,WSW,237,0.0,0.0,95,0.00,,,-99.99,1.0,HOBO +U30 +Weather +,2013-04-26 04:29:00,
2013-04-26 00:30:00,33.3,32.1,30.19,WSW,237,0.0,0.0,95,0.00,,,-99.99,1.0,HOBO +U30 +Weather +,2013-04-26 04:30:00,
2013-04-26 00:31:00,33.3,32.1,30.18,WSW,237,0.0,0.0,95,0.00,,,-99.99,1.0,HOBO +U30 +Weather +,2013-04-26 04:31:00,
2013-04-26 00:32:00,33.3,32.1,30.19,WSW,237,0.0,0.0,95,0.00,,,-99.99,1.0,HOBO +U30 +Weather +,2013-04-26 04:32:00,
2013-04-26 00:33:00,33.1,31.9,30.19,WSW,237,0.0,0.0,95,0.00,,,-99.99,1.0,HOBO +U30 +Weather +,2013-04-26 04:33:00,
2013-04-26 00:34:00,33.1,31.9,30.19,WSW,237,0.0,0.0,95,0.00,,,-99.99,1.0,HOBO +U30 +Weather +,2013-04-26 04:34:00,
2013-04-26 00:35:00,33.1,31.9,30.19,WSW,237,0.0,0.0,95,0.00,,,-99.99,1.0,HOBO +U30 +Weather +,2013-04-26 04:35:00,
2013-04-26 00:36:00,33.0,31.8,30.19,WSW,237,0.0,0.0,95,0.00,,,-99.99,1.0,HOBO +U30 +Weather +,2013-04-26 04:36:00,
2013-04-26 00:37:00,33.0,31.8,30.19,WSW,237,0.0,0.0,95,0.00,,,-99.99,1.0,HOBO +U30 +Weather +,2013-04-26 04:37:00,
2013-04-26 00:38:00,32.9,31.8,30.19,WSW,237,0.0,0.0,95,0.00,,,-99.99,1.0,HOBO +U30 +Weather +,2013-04-26 04:38:00,
2013-04-26 00:39:00,32.8,31.7,30.19,WSW,237,0.0,0.0,95,0.00,,,-99.99,1.0,HOBO +U30 +Weather +,2013-04-26 04:39:00,
2013-04-26 00:40:00,32.8,31.6,30.19,WSW,237,0.0,0.0,95,0.00,,,-99.99,1.0,HOBO +U30 +Weather +,2013-04-26 04:40:00,
2013-04-26 00:41:00,32.7,31.6,30.19,WSW,237,0.0,0.0,95,0.00,,,-99.99,1.0,HOBO +U30 +Weather +,2013-04-26 04:41:00,
2013-04-26 00:42:00,32.8,31.7,30.19,WSW,237,0.0,0.0,95,0.00,,,-99.99,1.0,HOBO +U30 +Weather +,2013-04-26 04:42:00,
2013-04-26 00:43:00,33.0,31.9,30.19,WSW,237,0.0,0.0,95,0.00,,,-99.99,1.0,HOBO +U30 +Weather +,2013-04-26 04:43:00,
2013-04-26 00:44:00,32.9,31.9,30.19,WSW,237,0.0,0.0,95,0.00,,,-99.99,1.0,HOBO +U30 +Weather +,2013-04-26 04:44:00,
2013-04-26 00:45:00,32.9,31.8,30.19,WSW,237,0.0,0.0,95,0.00,,,-99.99,1.0,HOBO +U30 +Weather +,2013-04-26 04:45:00,
2013-04-26 00:46:00,32.8,31.7,30.20,WSW,237,0.0,0.0,95,0.00,,,-99.99,1.0,HOBO +U30 +Weather +,2013-04-26 04:46:00,
2013-04-26 00:47:00,32.6,31.5,30.19,WSW,237,0.0,0.0,95,0.00,,,-99.99,1.0,HOBO +U30 +Weather +,2013-04-26 04:47:00,
2013-04-26 00:48:00,32.5,31.4,30.19,WSW,237,0.0,0.0,95,0.00,,,-99.99,1.0,HOBO +U30 +Weather +,2013-04-26 04:48:00,
2013-04-26 00:49:00,32.5,31.4,30.19,WSW,237,0.0,0.0,95,0.00,,,-99.99,1.0,HOBO +U30 +Weather +,2013-04-26 04:49:00,
2013-04-26 00:50:00,32.4,31.3,30.19,WSW,237,0.0,0.0,95,0.00,,,-99.99,1.0,HOBO +U30 +Weather +,2013-04-26 04:50:00,
2013-04-26 00:51:00,32.3,31.3,30.19,WSW,237,0.0,0.0,95,0.00,,,-99.99,1.0,HOBO +U30 +Weather +,2013-04-26 04:51:00,
2013-04-26 00:52:00,32.3,31.2,30.19,WSW,237,0.0,0.0,95,0.00,,,-99.99,1.0,HOBO +U30 +Weather +,2013-04-26 04:52:00,
2013-04-26 00:53:00,32.2,31.1,30.19,WSW,237,0.0,0.0,95,0.00,,,-99.99,1.0,HOBO +U30 +Weather +,2013-04-26 04:53:00,
2013-04-26 00:54:00,32.1,31.0,30.19,WSW,237,0.0,0.0,95,0.00,,,-99.99,1.0,HOBO +U30 +Weather +,2013-04-26 04:54:00,
2013-04-26 00:55:00,32.1,31.0,30.19,WSW,237,0.0,0.0,95,0.00,,,-99.99,1.0,HOBO +U30 +Weather +,2013-04-26 04:55:00,
2013-04-26 00:56:00,32.1,31.0,30.20,WSW,237,0.0,0.0,95,0.00,,,-99.99,1.0,HOBO +U30 +Weather +,2013-04-26 04:56:00,
2013-04-26 00:57:00,32.0,31.0,30.19,WSW,237,0.0,0.0,96,0.00,,,-99.99,1.0,HOBO +U30 +Weather +,2013-04-26 04:57:00,
2013-04-26 00:58:00,32.0,31.0,30.19,WSW,237,0.0,0.0,96,0.00,,,-99.99,1.0,HOBO +U30 +Weather +,2013-04-26 04:58:00,
2013-04-26 00:59:00,32.0,31.0,30.19,WSW,237,0.0,0.0,96,0.00,,,-99.99,1.0,HOBO +U30 +Weather +,2013-04-26 04:59:00,
2013-04-26 01:00:00,32.0,31.0,30.19,WSW,237,0.0,0.0,96,0.00,,,-99.99,1.0,HOBO +U30 +Weather +,2013-04-26 05:00:00,
2013-04-26 01:01:00,32.0,31.1,30.19,WSW,237,0.0,0.0,96,0.00,,,-99.99,1.0,HOBO +U30 +Weather +,2013-04-26 05:01:00,
2013-04-26 01:02:00,32.1,31.2,30.20,WSW,237,0.0,0.0,96,0.00,,,-99.99,1.0,HOBO +U30 +Weather +,2013-04-26 05:02:00,
2013-04-26 01:03:00,32.2,31.3,30.19,WSW,237,0.0,0.0,96,0.00,,,-99.99,1.0,HOBO +U30 +Weather +,2013-04-26 05:03:00,
2013-04-26 01:04:00,32.2,31.3,30.20,WSW,237,0.0,0.0,96,0.00,,,-99.99,1.0,HOBO +U30 +Weather +,2013-04-26 05:04:00,
2013-04-26 01:05:00,32.1,31.2,30.19,WSW,237,0.0,0.0,96,0.00,,,-99.99,1.0,HOBO +U30 +Weather +,2013-04-26 05:05:00,
2013-04-26 01:06:00,31.9,31.1,30.20,WSW,237,0.0,0.0,96,0.00,,,-99.99,1.0,HOBO +U30 +Weather +,2013-04-26 05:06:00,
2013-04-26 01:07:00,31.9,31.0,30.20,WSW,239,0.0,0.0,96,0.00,,,-99.99,1.0,HOBO +U30 +Weather +,2013-04-26 05:07:00,
2013-04-26 01:08:00,31.9,31.0,30.19,WSW,237,0.0,0.0,96,0.00,,,-99.99,1.0,HOBO +U30 +Weather +,2013-04-26 05:08:00,
2013-04-26 01:09:00,31.9,31.0,30.19,WSW,237,0.0,0.0,96,0.00,,,-99.99,1.0,HOBO +U30 +Weather +,2013-04-26 05:09:00,
2013-04-26 01:10:00,31.9,31.0,30.19,WSW,237,0.0,0.0,96,0.00,,,-99.99,1.0,HOBO +U30 +Weather +,2013-04-26 05:10:00,
2013-04-26 01:11:00,31.9,31.1,30.19,WSW,237,0.0,0.0,96,0.00,,,-99.99,1.0,HOBO +U30 +Weather +,2013-04-26 05:11:00,
2013-04-26 01:12:00,31.9,31.1,30.19,WSW,239,0.0,0.0,96,0.00,,,-99.99,1.0,HOBO +U30 +Weather +,2013-04-26 05:12:00,
2013-04-26 01:13:00,32.0,31.2,30.20,WSW,239,0.0,0.0,96,0.00,,,-99.99,1.0,HOBO +U30 +Weather +,2013-04-26 05:13:00,
2013-04-26 01:14:00,31.9,31.0,30.20,WSW,237,0.0,0.0,96,0.00,,,-99.99,1.0,HOBO +U30 +Weather +,2013-04-26 05:14:00,
2013-04-26 01:15:00,31.8,31.0,30.20,WSW,237,0.0,0.0,96,0.00,,,-99.99,1.0,HOBO +U30 +Weather +,2013-04-26 05:15:00,
2013-04-26 01:16:00,31.8,31.0,30.20,WSW,239,0.0,0.0,96,0.00,,,-99.99,1.0,HOBO +U30 +Weather +,2013-04-26 05:16:00,
2013-04-26 01:17:00,31.8,31.0,30.20,WSW,237,0.0,0.0,96,0.00,,,-99.99,1.0,HOBO +U30 +Weather +,2013-04-26 05:17:00,
2013-04-26 01:18:00,31.8,31.0,30.20,WSW,239,0.0,0.0,96,0.00,,,-99.99,1.0,HOBO +U30 +Weather +,2013-04-26 05:18:00,
2013-04-26 01:19:00,31.8,31.0,30.19,WSW,239,0.0,0.0,96,0.00,,,-99.99,1.0,HOBO +U30 +Weather +,2013-04-26 05:19:00,
2013-04-26 01:20:00,31.7,31.0,30.19,WSW,239,0.0,0.0,96,0.00,,,-99.99,1.0,HOBO +U30 +Weather +,2013-04-26 05:20:00,
2013-04-26 01:21:00,31.7,31.0,30.19,WSW,239,0.0,0.0,96,0.00,,,-99.99,1.0,HOBO +U30 +Weather +,2013-04-26 05:21:00,
2013-04-26 01:22:00,31.8,31.0,30.19,WSW,239,0.0,0.0,97,0.00,,,-99.99,1.0,HOBO +U30 +Weather +,2013-04-26 05:22:00,
2013-04-26 01:23:00,31.9,31.2,30.20,WSW,239,0.0,0.0,97,0.00,,,-99.99,1.0,HOBO +U30 +Weather +,2013-04-26 05:23:00,
2013-04-26 01:24:00,31.9,31.1,30.20,WSW,239,0.0,0.0,97,0.00,,,-99.99,1.0,HOBO +U30 +Weather +,2013-04-26 05:24:00,
2013-04-26 01:25:00,31.9,31.1,30.20,WSW,239,0.0,0.0,97,0.00,,,-99.99,1.0,HOBO +U30 +Weather +,2013-04-26 05:25:00,
2013-04-26 01:26:00,31.9,31.2,30.20,WSW,239,0.0,0.0,97,0.00,,,-99.99,1.0,HOBO +U30 +Weather +,2013-04-26 05:26:00,
2013-04-26 01:27:00,32.0,31.3,30.19,WSW,239,0.0,0.0,97,0.00,,,-99.99,1.0,HOBO +U30 +Weather +,2013-04-26 05:27:00,
2013-04-26 01:28:00,32.1,31.4,30.20,WSW,239,0.0,0.0,97,0.00,,,-99.99,1.0,HOBO +U30 +Weather +,2013-04-26 05:28:00,
2013-04-26 01:29:00,32.0,31.3,30.20,WSW,239,0.0,0.0,97,0.00,,,-99.99,1.0,HOBO +U30 +Weather +,2013-04-26 05:29:00,
2013-04-26 01:30:00,32.0,31.3,30.20,WSW,239,0.0,0.0,97,0.00,,,-99.99,1.0,HOBO +U30 +Weather +,2013-04-26 05:30:00,
2013-04-26 01:31:00,32.0,31.3,30.20,WSW,239,0.0,0.0,97,0.00,,,-99.99,1.0,HOBO +U30 +Weather +,2013-04-26 05:31:00,
2013-04-26 01:32:00,31.9,31.2,30.20,WSW,239,0.0,0.0,97,0.00,,,-99.99,1.0,HOBO +U30 +Weather +,2013-04-26 05:32:00,
2013-04-26 01:33:00,32.0,31.4,30.20,WSW,239,0.0,0.0,97,0.00,,,-99.99,1.0,HOBO +U30 +Weather +,2013-04-26 05:33:00,
2013-04-26 01:34:00,32.1,31.4,30.19,WSW,239,0.0,0.0,97,0.00,,,-99.99,1.0,HOBO +U30 +Weather +,2013-04-26 05:34:00,
2013-04-26 01:35:00,32.1,31.4,30.19,WSW,239,0.0,0.0,97,0.00,,,-99.99,1.0,HOBO +U30 +Weather +,2013-04-26 05:35:00,
2013-04-26 01:36:00,32.0,31.3,30.20,WSW,239,0.0,0.0,97,0.00,,,-99.99,1.0,HOBO +U30 +Weather +,2013-04-26 05:36:00,
2013-04-26 01:37:00,31.9,31.2,30.19,WSW,239,0.0,0.0,97,0.00,,,-99.99,1.0,HOBO +U30 +Weather +,2013-04-26 05:37:00,
2013-04-26 01:38:00,31.9,31.2,30.21,WSW,239,0.0,0.0,97,0.00,,,-99.99,1.0,HOBO +U30 +Weather +,2013-04-26 05:38:00,
2013-04-26 01:39:00,31.8,31.1,30.19,WSW,239,0.0,0.0,97,0.00,,,-99.99,1.0,HOBO +U30 +Weather +,2013-04-26 05:39:00,
2013-04-26 01:40:00,31.9,31.3,30.20,WSW,239,0.0,0.0,97,0.00,,,-99.99,1.0,HOBO +U30 +Weather +,2013-04-26 05:40:00,
2013-04-26 01:41:00,32.1,31.5,30.20,WSW,239,0.0,0.0,97,0.00,,,-99.99,1.0,HOBO +U30 +Weather +,2013-04-26 05:41:00,
2013-04-26 01:42:00,32.2,31.6,30.20,WSW,239,0.0,0.0,97,0.00,,,-99.99,1.0,HOBO +U30 +Weather +,2013-04-26 05:42:00,
2013-04-26 01:43:00,32.3,31.7,30.20,WSW,239,0.0,0.0,97,0.00,,,-99.99,1.0,HOBO +U30 +Weather +,2013-04-26 05:43:00,
2013-04-26 01:44:00,32.3,31.6,30.20,WSW,239,0.0,0.0,97,0.00,,,-99.99,1.0,HOBO +U30 +Weather +,2013-04-26 05:44:00,
2013-04-26 01:45:00,32.2,31.6,30.20,WSW,239,0.0,0.0,97,0.00,,,-99.99,1.0,HOBO +U30 +Weather +,2013-04-26 05:45:00,
2013-04-26 01:46:00,32.2,31.5,30.20,WSW,239,0.0,0.0,97,0.00,,,-99.99,1.0,HOBO +U30 +Weather +,2013-04-26 05:46:00,
2013-04-26 01:47:00,32.2,31.5,30.20,WSW,239,0.0,0.0,97,0.00,,,-99.99,1.0,HOBO +U30 +Weather +,2013-04-26 05:47:00,
2013-04-26 01:48:00,32.0,31.4,30.20,WSW,239,0.0,0.0,97,0.00,,,-99.99,1.0,HOBO +U30 +Weather +,2013-04-26 05:48:00,
2013-04-26 01:49:00,31.9,31.3,30.20,WSW,239,0.0,0.0,97,0.00,,,-99.99,1.0,HOBO +U30 +Weather +,2013-04-26 05:49:00,
2013-04-26 01:50:00,31.9,31.3,30.20,WSW,239,0.0,0.0,97,0.00,,,-99.99,1.0,HOBO +U30 +Weather +,2013-04-26 05:50:00,
2013-04-26 01:51:00,31.9,31.3,30.20,WSW,239,0.0,0.0,97,0.00,,,-99.99,1.0,HOBO +U30 +Weather +,2013-04-26 05:51:00,
2013-04-26 01:52:00,31.8,31.2,30.20,WSW,239,0.0,0.0,97,0.00,,,-99.99,1.0,HOBO +U30 +Weather +,2013-04-26 05:52:00,
2013-04-26 01:53:00,31.8,31.2,30.20,WSW,239,0.0,0.0,97,0.00,,,-99.99,1.0,HOBO +U30 +Weather +,2013-04-26 05:53:00,
2013-04-26 01:54:00,31.7,31.1,30.20,WSW,239,0.0,0.0,97,0.00,,,-99.99,1.0,HOBO +U30 +Weather +,2013-04-26 05:54:00,
2013-04-26 01:55:00,31.6,31.0,30.20,WSW,239,0.0,0.0,97,0.00,,,-99.99,1.0,HOBO +U30 +Weather +,2013-04-26 05:55:00,
2013-04-26 01:56:00,31.6,31.0,30.20,WSW,239,0.0,0.0,97,0.00,,,-99.99,1.0,HOBO +U30 +Weather +,2013-04-26 05:56:00,
2013-04-26 01:57:00,31.6,30.9,30.20,WSW,239,0.0,0.0,97,0.00,,,-99.99,1.0,HOBO +U30 +Weather +,2013-04-26 05:57:00,
2013-04-26 01:58:00,31.6,30.9,30.20,WSW,239,0.0,0.0,97,0.00,,,-99.99,1.0,HOBO +U30 +Weather +,2013-04-26 05:58:00,
2013-04-26 01:59:00,31.5,30.9,30.20,WSW,239,0.0,0.0,97,0.00,,,-99.99,1.0,HOBO +U30 +Weather +,2013-04-26 05:59:00,
2013-04-26 02:00:00,31.5,30.8,30.19,WSW,239,0.0,0.0,97,0.00,,,-99.99,1.0,HOBO +U30 +Weather +,2013-04-26 06:00:00,
2013-04-26 02:01:00,31.4,30.7,30.19,WSW,239,0.0,0.0,97,0.00,,,-99.99,1.0,HOBO +U30 +Weather +,2013-04-26 06:01:00,
2013-04-26 02:02:00,31.6,31.0,30.19,WSW,239,0.0,0.0,97,0.00,,,-99.99,1.0,HOBO +U30 +Weather +,2013-04-26 06:02:00,
2013-04-26 02:03:00,31.6,31.0,30.19,WSW,239,0.0,0.0,97,0.00,,,-99.99,1.0,HOBO +U30 +Weather +,2013-04-26 06:03:00,
2013-04-26 02:04:00,31.6,31.0,30.19,WSW,239,0.0,0.0,97,0.00,,,-99.99,1.0,HOBO +U30 +Weather +,2013-04-26 06:04:00,
2013-04-26 02:05:00,31.6,31.0,30.19,WSW,239,0.0,0.0,97,0.00,,,-99.99,1.0,HOBO +U30 +Weather +,2013-04-26 06:05:00,
2013-04-26 02:06:00,31.7,31.1,30.19,WSW,239,0.0,0.0,97,0.00,,,-99.99,1.0,HOBO +U30 +Weather +,2013-04-26 06:06:00,
2013-04-26 02:07:00,32.0,31.4,30.19,WSW,239,0.0,0.0,97,0.00,,,-99.99,1.0,HOBO +U30 +Weather +,2013-04-26 06:07:00,
2013-04-26 02:08:00,32.1,31.5,30.19,WSW,239,0.0,0.0,97,0.00,,,-99.99,1.0,HOBO +U30 +Weather +,2013-04-26 06:08:00,
2013-04-26 02:09:00,32.2,31.7,30.19,WSW,239,0.0,0.0,97,0.00,,,-99.99,1.0,HOBO +U30 +Weather +,2013-04-26 06:09:00,
2013-04-26 02:10:00,32.3,31.7,30.20,WSW,239,0.0,0.0,97,0.00,,,-99.99,1.0,HOBO +U30 +Weather +,2013-04-26 06:10:00,
2013-04-26 02:11:00,32.4,31.8,30.19,WSW,239,0.0,0.0,97,0.00,,,-99.99,1.0,HOBO +U30 +Weather +,2013-04-26 06:11:00,
2013-04-26 02:12:00,32.5,31.9,30.19,WSW,239,0.0,0.0,97,0.00,,,-99.99,1.0,HOBO +U30 +Weather +,2013-04-26 06:12:00,
2013-04-26 02:13:00,32.5,31.8,30.19,WSW,239,0.0,0.0,97,0.00,,,-99.99,1.0,HOBO +U30 +Weather +,2013-04-26 06:13:00,
2013-04-26 02:14:00,32.5,31.8,30.19,WSW,239,0.0,0.0,97,0.00,,,-99.99,1.0,HOBO +U30 +Weather +,2013-04-26 06:14:00,
2013-04-26 02:15:00,32.4,31.8,30.20,WSW,239,0.0,0.0,97,0.00,,,-99.99,1.0,HOBO +U30 +Weather +,2013-04-26 06:15:00,
2013-04-26 02:16:00,32.2,31.6,30.19,WSW,239,0.0,0.0,97,0.00,,,-99.99,1.0,HOBO +U30 +Weather +,2013-04-26 06:16:00,
2013-04-26 02:17:00,32.0,31.4,30.19,WSW,239,0.0,0.0,97,0.00,,,-99.99,1.0,HOBO +U30 +Weather +,2013-04-26 06:17:00,
2013-04-26 02:18:00,31.8,31.2,30.19,WSW,239,0.0,0.0,97,0.00,,,-99.99,1.0,HOBO +U30 +Weather +,2013-04-26 06:18:00,
2013-04-26 02:19:00,31.8,31.1,30.19,WSW,239,0.0,0.0,97,0.00,,,-99.99,1.0,HOBO +U30 +Weather +,2013-04-26 06:19:00,
2013-04-26 02:20:00,31.6,31.0,30.19,WSW,239,0.0,0.0,97,0.00,,,-99.99,1.0,HOBO +U30 +Weather +,2013-04-26 06:20:00,
2013-04-26 02:21:00,31.5,30.9,30.19,WSW,239,0.0,0.0,97,0.00,,,-99.99,1.0,HOBO +U30 +Weather +,2013-04-26 06:21:00,
2013-04-26 02:22:00,31.6,30.9,30.19,WSW,239,0.0,0.0,97,0.00,,,-99.99,1.0,HOBO +U30 +Weather +,2013-04-26 06:22:00,
2013-04-26 02:23:00,31.7,31.0,30.19,WSW,239,0.0,0.0,97,0.00,,,-99.99,1.0,HOBO +U30 +Weather +,2013-04-26 06:23:00,
2013-04-26 02:24:00,31.7,31.0,30.19,WSW,239,0.0,0.0,97,0.00,,,-99.99,1.0,HOBO +U30 +Weather +,2013-04-26 06:24:00,
2013-04-26 02:25:00,31.7,31.0,30.19,WSW,239,0.0,0.0,97,0.00,,,-99.99,1.0,HOBO +U30 +Weather +,2013-04-26 06:25:00,
2013-04-26 02:26:00,31.7,31.0,30.20,WSW,239,0.0,0.0,97,0.00,,,-99.99,1.0,HOBO +U30 +Weather +,2013-04-26 06:26:00,
2013-04-26 02:27:00,31.6,31.0,30.20,WSW,239,0.0,0.0,97,0.00,,,-99.99,1.0,HOBO +U30 +Weather +,2013-04-26 06:27:00,
2013-04-26 02:28:00,31.6,30.9,30.19,WSW,239,0.0,0.0,97,0.00,,,-99.99,1.0,HOBO +U30 +Weather +,2013-04-26 06:28:00,
2013-04-26 02:29:00,31.5,30.8,30.20,WSW,239,0.0,0.0,97,0.00,,,-99.99,1.0,HOBO +U30 +Weather +,2013-04-26 06:29:00,
2013-04-26 02:30:00,31.5,30.8,30.20,WSW,239,0.0,0.0,97,0.00,,,-99.99,1.0,HOBO +U30 +Weather +,2013-04-26 06:30:00,
2013-04-26 02:31:00,31.4,30.8,30.20,WSW,239,0.0,0.0,97,0.00,,,-99.99,1.0,HOBO +U30 +Weather +,2013-04-26 06:31:00,
2013-04-26 02:32:00,31.4,30.8,30.20,WSW,239,0.0,0.0,97,0.00,,,-99.99,1.0,HOBO +U30 +Weather +,2013-04-26 06:32:00,
2013-04-26 02:33:00,31.2,30.6,30.20,WSW,239,0.0,0.0,97,0.00,,,-99.99,1.0,HOBO +U30 +Weather +,2013-04-26 06:33:00,
2013-04-26 02:34:00,31.1,30.4,30.20,WSW,239,0.0,0.0,97,0.00,,,-99.99,1.0,HOBO +U30 +Weather +,2013-04-26 06:34:00,
2013-04-26 02:35:00,31.1,30.4,30.20,WSW,239,0.0,0.0,97,0.00,,,-99.99,1.0,HOBO +U30 +Weather +,2013-04-26 06:35:00,
2013-04-26 02:36:00,31.1,30.4,30.20,WSW,239,0.0,0.0,97,0.00,,,-99.99,1.0,HOBO +U30 +Weather +,2013-04-26 06:36:00,
2013-04-26 02:37:00,31.1,30.5,30.20,WSW,239,0.0,0.0,97,0.00,,,-99.99,1.0,HOBO +U30 +Weather +,2013-04-26 06:37:00,
2013-04-26 02:38:00,31.1,30.5,30.20,WSW,239,0.0,0.0,97,0.00,,,-99.99,1.0,HOBO +U30 +Weather +,2013-04-26 06:38:00,
2013-04-26 02:39:00,31.0,30.4,30.20,WSW,239,0.0,0.0,97,0.00,,,-99.99,1.0,HOBO +U30 +Weather +,2013-04-26 06:39:00,
2013-04-26 02:40:00,31.1,30.5,30.20,WSW,239,0.0,0.0,97,0.00,,,-99.99,1.0,HOBO +U30 +Weather +,2013-04-26 06:40:00,
2013-04-26 02:41:00,31.1,30.5,30.20,WSW,239,0.0,0.0,97,0.00,,,-99.99,1.0,HOBO +U30 +Weather +,2013-04-26 06:41:00,
2013-04-26 02:42:00,31.1,30.5,30.20,WSW,239,0.0,0.0,97,0.00,,,-99.99,1.0,HOBO +U30 +Weather +,2013-04-26 06:42:00,
2013-04-26 02:43:00,31.2,30.6,30.20,WSW,239,0.0,0.0,97,0.00,,,-99.99,1.0,HOBO +U30 +Weather +,2013-04-26 06:43:00,
2013-04-26 02:44:00,31.1,30.5,30.21,WSW,239,0.0,0.0,97,0.00,,,-99.99,1.0,HOBO +U30 +Weather +,2013-04-26 06:44:00,
2013-04-26 02:45:00,31.2,30.6,30.21,WSW,239,0.0,0.0,97,0.00,,,-99.99,1.0,HOBO +U30 +Weather +,2013-04-26 06:45:00,
2013-04-26 02:46:00,31.2,30.6,30.21,WSW,239,0.0,0.0,97,0.00,,,-99.99,1.0,HOBO +U30 +Weather +,2013-04-26 06:46:00,
2013-04-26 02:47:00,31.2,30.6,30.20,WSW,239,0.0,0.0,97,0.00,,,-99.99,1.0,HOBO +U30 +Weather +,2013-04-26 06:47:00,
2013-04-26 02:48:00,31.1,30.5,30.20,WSW,239,0.0,0.0,97,0.00,,,-99.99,1.0,HOBO +U30 +Weather +,2013-04-26 06:48:00,
2013-04-26 02:49:00,31.0,30.4,30.20,WSW,239,0.0,0.0,97,0.00,,,-99.99,1.0,HOBO +U30 +Weather +,2013-04-26 06:49:00,
2013-04-26 02:50:00,30.9,30.4,30.21,WSW,239,0.0,0.0,97,0.00,,,-99.99,1.0,HOBO +U30 +Weather +,2013-04-26 06:50:00,
2013-04-26 02:51:00,30.9,30.3,30.20,WSW,239,0.0,0.0,97,0.00,,,-99.99,1.0,HOBO +U30 +Weather +,2013-04-26 06:51:00,
2013-04-26 02:52:00,30.8,30.3,30.20,WSW,239,0.0,0.0,97,0.00,,,-99.99,1.0,HOBO +U30 +Weather +,2013-04-26 06:52:00,
2013-04-26 02:53:00,30.8,30.2,30.20,WSW,239,0.0,0.0,97,0.00,,,-99.99,1.0,HOBO +U30 +Weather +,2013-04-26 06:53:00,
2013-04-26 02:54:00,30.7,30.2,30.21,WSW,239,0.0,0.0,97,0.00,,,-99.99,1.0,HOBO +U30 +Weather +,2013-04-26 06:54:00,
2013-04-26 02:55:00,30.7,30.1,30.20,WSW,239,0.0,0.0,97,0.00,,,-99.99,1.0,HOBO +U30 +Weather +,2013-04-26 06:55:00,
2013-04-26 02:56:00,30.7,30.1,30.20,WSW,239,0.0,0.0,97,0.00,,,-99.99,1.0,HOBO +U30 +Weather +,2013-04-26 06:56:00,
2013-04-26 02:57:00,30.8,30.2,30.20,WSW,239,0.0,0.0,97,0.00,,,-99.99,1.0,HOBO +U30 +Weather +,2013-04-26 06:57:00,
2013-04-26 02:58:00,30.7,30.2,30.21,WSW,239,0.0,0.0,97,0.00,,,-99.99,1.0,HOBO +U30 +Weather +,2013-04-26 06:58:00,
2013-04-26 02:59:00,30.7,30.2,30.21,WSW,239,0.0,0.0,97,0.00,,,-99.99,1.0,HOBO +U30 +Weather +,2013-04-26 06:59:00,
2013-04-26 03:00:00,30.7,30.2,30.20,WSW,239,0.0,0.0,97,0.00,,,-99.99,1.0,HOBO +U30 +Weather +,2013-04-26 07:00:00,
2013-04-26 03:01:00,30.8,30.3,30.21,WSW,239,0.0,0.0,97,0.00,,,-99.99,1.0,HOBO +U30 +Weather +,2013-04-26 07:01:00,
2013-04-26 03:02:00,30.8,30.3,30.21,WSW,239,0.0,0.0,97,0.00,,,-99.99,1.0,HOBO +U30 +Weather +,2013-04-26 07:02:00,
2013-04-26 03:03:00,30.9,30.3,30.21,WSW,239,0.0,0.0,97,0.00,,,-99.99,1.0,HOBO +U30 +Weather +,2013-04-26 07:03:00,
2013-04-26 03:04:00,30.9,30.4,30.20,WSW,239,0.0,0.0,97,0.00,,,-99.99,1.0,HOBO +U30 +Weather +,2013-04-26 07:04:00,
2013-04-26 03:05:00,31.0,30.5,30.21,WSW,239,0.0,0.0,98,0.00,,,-99.99,1.0,HOBO +U30 +Weather +,2013-04-26 07:05:00,
2013-04-26 03:06:00,31.2,30.7,30.21,WSW,237,0.0,0.0,98,0.00,,,-99.99,1.0,HOBO +U30 +Weather +,2013-04-26 07:06:00,
2013-04-26 03:07:00,31.2,30.7,30.21,WSW,239,0.0,0.0,98,0.00,,,-99.99,1.0,HOBO +U30 +Weather +,2013-04-26 07:07:00,
2013-04-26 03:08:00,31.2,30.7,30.21,WSW,239,0.0,0.0,98,0.00,,,-99.99,1.0,HOBO +U30 +Weather +,2013-04-26 07:08:00,
2013-04-26 03:09:00,31.2,30.7,30.21,WSW,239,0.0,0.0,98,0.00,,,-99.99,1.0,HOBO +U30 +Weather +,2013-04-26 07:09:00,
2013-04-26 03:10:00,31.3,30.8,30.21,WSW,239,0.0,0.0,98,0.00,,,-99.99,1.0,HOBO +U30 +Weather +,2013-04-26 07:10:00,
2013-04-26 03:11:00,31.3,30.8,30.21,WSW,239,0.0,0.0,98,0.00,,,-99.99,1.0,HOBO +U30 +Weather +,2013-04-26 07:11:00,
2013-04-26 03:12:00,31.3,30.8,30.21,WSW,239,0.0,0.0,98,0.00,,,-99.99,1.0,HOBO +U30 +Weather +,2013-04-26 07:12:00,
2013-04-26 03:13:00,31.2,30.7,30.21,WSW,239,0.0,0.0,97,0.00,,,-99.99,1.0,HOBO +U30 +Weather +,2013-04-26 07:13:00,
2013-04-26 03:14:00,31.1,30.6,30.21,WSW,239,0.0,0.0,97,0.00,,,-99.99,1.0,HOBO +U30 +Weather +,2013-04-26 07:14:00,
2013-04-26 03:15:00,31.1,30.5,30.21,WSW,239,0.0,0.0,97,0.00,,,-99.99,1.0,HOBO +U30 +Weather +,2013-04-26 07:15:00,
2013-04-26 03:16:00,31.0,30.4,30.21,WSW,239,0.0,0.0,97,0.00,,,-99.99,1.0,HOBO +U30 +Weather +,2013-04-26 07:16:00,
2013-04-26 03:17:00,30.9,30.3,30.21,WSW,239,0.0,0.0,97,0.00,,,-99.99,1.0,HOBO +U30 +Weather +,2013-04-26 07:17:00,
2013-04-26 03:18:00,30.8,30.3,30.22,WSW,239,0.0,0.0,97,0.00,,,-99.99,1.0,HOBO +U30 +Weather +,2013-04-26 07:18:00,
2013-04-26 03:19:00,30.7,30.2,30.22,WSW,239,0.0,0.0,97,0.00,,,-99.99,1.0,HOBO +U30 +Weather +,2013-04-26 07:19:00,
2013-04-26 03:20:00,30.6,30.1,30.21,WSW,239,0.0,0.0,97,0.00,,,-99.99,1.0,HOBO +U30 +Weather +,2013-04-26 07:20:00,
2013-04-26 03:21:00,30.6,30.1,30.21,WSW,239,0.0,0.0,97,0.00,,,-99.99,1.0,HOBO +U30 +Weather +,2013-04-26 07:21:00,
2013-04-26 03:22:00,30.6,30.0,30.22,WSW,239,0.0,0.0,97,0.00,,,-99.99,1.0,HOBO +U30 +Weather +,2013-04-26 07:22:00,
2013-04-26 03:23:00,30.5,29.9,30.22,WSW,239,0.0,0.0,97,0.00,,,-99.99,1.0,HOBO +U30 +Weather +,2013-04-26 07:23:00,
2013-04-26 03:24:00,30.5,30.0,30.22,WSW,239,0.0,0.0,97,0.00,,,-99.99,1.0,HOBO +U30 +Weather +,2013-04-26 07:24:00,
2013-04-26 03:25:00,30.5,30.0,30.22,WSW,239,0.0,0.0,97,0.00,,,-99.99,1.0,HOBO +U30 +Weather +,2013-04-26 07:25:00,
2013-04-26 03:26:00,30.6,30.1,30.21,WSW,239,0.0,0.0,97,0.00,,,-99.99,1.0,HOBO +U30 +Weather +,2013-04-26 07:26:00,
2013-04-26 03:27:00,30.7,30.2,30.22,WSW,239,0.0,0.0,97,0.00,,,-99.99,1.0,HOBO +U30 +Weather +,2013-04-26 07:27:00,
2013-04-26 03:28:00,30.7,30.2,30.22,WSW,239,0.0,0.0,97,0.00,,,-99.99,1.0,HOBO +U30 +Weather +,2013-04-26 07:28:00,
2013-04-26 03:29:00,30.8,30.3,30.22,WSW,239,0.0,0.0,98,0.00,,,-99.99,1.0,HOBO +U30 +Weather +,2013-04-26 07:29:00,
2013-04-26 03:30:00,30.8,30.3,30.22,WSW,239,0.0,0.0,97,0.00,,,-99.99,1.0,HOBO +U30 +Weather +,2013-04-26 07:30:00,
2013-04-26 03:31:00,30.9,30.4,30.21,WSW,239,0.0,0.0,98,0.00,,,-99.99,1.0,HOBO +U30 +Weather +,2013-04-26 07:31:00,
2013-04-26 03:32:00,31.0,30.5,30.22,WSW,239,0.0,0.0,98,0.00,,,-99.99,1.0,HOBO +U30 +Weather +,2013-04-26 07:32:00,
2013-04-26 03:33:00,31.0,30.5,30.22,WSW,239,0.0,0.0,98,0.00,,,-99.99,1.0,HOBO +U30 +Weather +,2013-04-26 07:33:00,
2013-04-26 03:34:00,31.0,30.5,30.22,WSW,239,0.0,0.0,98,0.00,,,-99.99,1.0,HOBO +U30 +Weather +,2013-04-26 07:34:00,
2013-04-26 03:35:00,31.1,30.6,30.22,WSW,239,0.0,0.0,98,0.00,,,-99.99,1.0,HOBO +U30 +Weather +,2013-04-26 07:35:00,
2013-04-26 03:36:00,31.2,30.7,30.22,WSW,239,0.0,0.0,98,0.00,,,-99.99,1.0,HOBO +U30 +Weather +,2013-04-26 07:36:00,
2013-04-26 03:37:00,31.2,30.7,30.22,WSW,239,0.0,0.0,98,0.00,,,-99.99,1.0,HOBO +U30 +Weather +,2013-04-26 07:37:00,
2013-04-26 03:38:00,31.3,30.8,30.22,WSW,239,0.0,0.0,98,0.00,,,-99.99,1.0,HOBO +U30 +Weather +,2013-04-26 07:38:00,
2013-04-26 03:39:00,31.3,30.8,30.22,WSW,239,0.0,0.0,98,0.00,,,-99.99,1.0,HOBO +U30 +Weather +,2013-04-26 07:39:00,
2013-04-26 03:40:00,31.3,30.8,30.22,WSW,239,0.0,0.0,98,0.00,,,-99.99,1.0,HOBO +U30 +Weather +,2013-04-26 07:40:00,
2013-04-26 03:41:00,31.3,30.8,30.22,WSW,239,0.0,0.0,98,0.00,,,-99.99,1.0,HOBO +U30 +Weather +,2013-04-26 07:41:00,
2013-04-26 03:42:00,31.2,30.7,30.22,WSW,239,0.0,0.0,98,0.00,,,-99.99,1.0,HOBO +U30 +Weather +,2013-04-26 07:42:00,
2013-04-26 03:43:00,31.2,30.7,30.22,WSW,239,0.0,0.0,98,0.00,,,-99.99,1.0,HOBO +U30 +Weather +,2013-04-26 07:43:00,
2013-04-26 03:44:00,31.3,30.8,30.22,WSW,239,0.0,0.0,98,0.00,,,-99.99,1.0,HOBO +U30 +Weather +,2013-04-26 07:44:00,
2013-04-26 03:45:00,31.3,30.8,30.22,WSW,239,0.0,0.0,98,0.00,,,-99.99,1.0,HOBO +U30 +Weather +,2013-04-26 07:45:00,
2013-04-26 03:46:00,31.2,30.8,30.22,WSW,239,0.0,0.0,98,0.00,,,-99.99,1.0,HOBO +U30 +Weather +,2013-04-26 07:46:00,
2013-04-26 03:47:00,31.1,30.6,30.22,WSW,239,0.0,0.0,98,0.00,,,-99.99,1.0,HOBO +U30 +Weather +,2013-04-26 07:47:00,
2013-04-26 03:48:00,31.1,30.6,30.22,WSW,239,0.0,0.0,98,0.00,,,-99.99,1.0,HOBO +U30 +Weather +,2013-04-26 07:48:00,
2013-04-26 03:49:00,31.2,30.8,30.22,WSW,239,0.0,0.0,98,0.00,,,-99.99,1.0,HOBO +U30 +Weather +,2013-04-26 07:49:00,
2013-04-26 03:50:00,31.4,30.9,30.22,WSW,239,0.0,0.0,98,0.00,,,-99.99,1.0,HOBO +U30 +Weather +,2013-04-26 07:50:00,
2013-04-26 03:51:00,31.6,31.1,30.22,WSW,239,0.0,0.0,98,0.00,,,-99.99,1.0,HOBO +U30 +Weather +,2013-04-26 07:51:00,
2013-04-26 03:52:00,31.6,31.2,30.22,WSW,239,0.0,0.0,98,0.00,,,-99.99,1.0,HOBO +U30 +Weather +,2013-04-26 07:52:00,
2013-04-26 03:53:00,31.6,31.2,30.22,WSW,239,0.0,0.0,98,0.00,,,-99.99,1.0,HOBO +U30 +Weather +,2013-04-26 07:53:00,
2013-04-26 03:54:00,31.5,31.0,30.22,WSW,239,0.0,0.0,98,0.00,,,-99.99,1.0,HOBO +U30 +Weather +,2013-04-26 07:54:00,
2013-04-26 03:55:00,31.5,31.0,30.22,WSW,239,0.0,0.0,98,0.00,,,-99.99,1.0,HOBO +U30 +Weather +,2013-04-26 07:55:00,
2013-04-26 03:56:00,31.4,30.9,30.23,WSW,239,0.0,0.0,98,0.00,,,-99.99,1.0,HOBO +U30 +Weather +,2013-04-26 07:56:00,
2013-04-26 03:57:00,31.3,30.7,30.23,WSW,239,0.0,0.0,97,0.00,,,-99.99,1.0,HOBO +U30 +Weather +,2013-04-26 07:57:00,
2013-04-26 03:58:00,31.2,30.7,30.22,WSW,239,0.0,0.0,98,0.00,,,-99.99,1.0,HOBO +U30 +Weather +,2013-04-26 07:58:00,
2013-04-26 03:59:00,31.2,30.7,30.22,WSW,239,0.0,0.0,98,0.00,,,-99.99,1.0,HOBO +U30 +Weather +,2013-04-26 07:59:00,
2013-04-26 04:00:00,31.3,30.8,30.23,WSW,239,0.0,0.0,98,0.00,,,-99.99,1.0,HOBO +U30 +Weather +,2013-04-26 08:00:00,
2013-04-26 04:01:00,31.3,30.8,30.23,WSW,239,0.0,0.0,98,0.00,,,-99.99,1.0,HOBO +U30 +Weather +,2013-04-26 08:01:00,
2013-04-26 04:02:00,31.4,30.9,30.22,WSW,239,0.0,0.0,98,0.00,,,-99.99,1.0,HOBO +U30 +Weather +,2013-04-26 08:02:00,
2013-04-26 04:03:00,31.4,30.9,30.22,WSW,239,0.0,0.0,98,0.00,,,-99.99,1.0,HOBO +U30 +Weather +,2013-04-26 08:03:00,
2013-04-26 04:04:00,31.4,31.0,30.23,WSW,239,0.0,0.0,98,0.00,,,-99.99,1.0,HOBO +U30 +Weather +,2013-04-26 08:04:00,
2013-04-26 04:05:00,31.7,31.2,30.23,WSW,239,0.0,0.0,98,0.00,,,-99.99,1.0,HOBO +U30 +Weather +,2013-04-26 08:05:00,
2013-04-26 04:06:00,31.8,31.3,30.23,WSW,239,0.0,0.0,98,0.00,,,-99.99,1.0,HOBO +U30 +Weather +,2013-04-26 08:06:00,
2013-04-26 04:07:00,31.9,31.4,30.23,WSW,239,0.0,0.0,98,0.00,,,-99.99,1.0,HOBO +U30 +Weather +,2013-04-26 08:07:00,
2013-04-26 04:08:00,31.9,31.4,30.23,WSW,239,0.0,0.0,98,0.00,,,-99.99,1.0,HOBO +U30 +Weather +,2013-04-26 08:08:00,
2013-04-26 04:09:00,31.9,31.4,30.22,WSW,239,0.0,0.0,98,0.00,,,-99.99,1.0,HOBO +U30 +Weather +,2013-04-26 08:09:00,
2013-04-26 04:10:00,31.9,31.4,30.23,WSW,239,0.0,0.0,98,0.00,,,-99.99,1.0,HOBO +U30 +Weather +,2013-04-26 08:10:00,
2013-04-26 04:11:00,31.8,31.4,30.22,WSW,239,0.0,0.0,98,0.00,,,-99.99,1.0,HOBO +U30 +Weather +,2013-04-26 08:11:00,
2013-04-26 04:12:00,31.9,31.4,30.22,WSW,239,0.0,0.0,98,0.00,,,-99.99,1.0,HOBO +U30 +Weather +,2013-04-26 08:12:00,
2013-04-26 04:13:00,31.9,31.4,30.23,WSW,239,0.0,0.0,98,0.00,,,-99.99,1.0,HOBO +U30 +Weather +,2013-04-26 08:13:00,
2013-04-26 04:14:00,32.1,31.7,30.22,WSW,239,0.0,0.0,98,0.00,,,-99.99,1.0,HOBO +U30 +Weather +,2013-04-26 08:14:00,
2013-04-26 04:15:00,32.2,31.7,30.22,WSW,239,0.0,0.0,98,0.00,,,-99.99,1.0,HOBO +U30 +Weather +,2013-04-26 08:15:00,
2013-04-26 04:16:00,32.2,31.7,30.23,WSW,239,0.0,0.0,98,0.00,,,-99.99,1.0,HOBO +U30 +Weather +,2013-04-26 08:16:00,
2013-04-26 04:17:00,32.2,31.7,30.23,WSW,239,0.0,0.0,98,0.00,,,-99.99,1.0,HOBO +U30 +Weather +,2013-04-26 08:17:00,
2013-04-26 04:18:00,32.1,31.6,30.22,WSW,239,0.0,0.0,98,0.00,,,-99.99,1.0,HOBO +U30 +Weather +,2013-04-26 08:18:00,
2013-04-26 04:19:00,32.1,31.7,30.22,WSW,239,0.0,0.0,98,0.00,,,-99.99,1.0,HOBO +U30 +Weather +,2013-04-26 08:19:00,
2013-04-26 04:20:00,32.3,31.9,30.22,WSW,239,0.0,0.0,98,0.00,,,-99.99,1.0,HOBO +U30 +Weather +,2013-04-26 08:20:00,
2013-04-26 04:21:00,32.4,32.0,30.23,WSW,239,0.0,0.0,98,0.00,,,-99.99,1.0,HOBO +U30 +Weather +,2013-04-26 08:21:00,
2013-04-26 04:22:00,32.5,32.1,30.23,WSW,239,0.0,0.0,98,0.00,,,-99.99,1.0,HOBO +U30 +Weather +,2013-04-26 08:22:00,
2013-04-26 04:23:00,32.6,32.2,30.23,WSW,239,0.0,0.0,98,0.00,,,-99.99,1.0,HOBO +U30 +Weather +,2013-04-26 08:23:00,
2013-04-26 04:24:00,32.8,32.4,30.23,WSW,239,0.0,0.0,98,0.00,,,-99.99,1.0,HOBO +U30 +Weather +,2013-04-26 08:24:00,
2013-04-26 04:25:00,32.8,32.4,30.23,WSW,239,0.0,0.0,98,0.00,,,-99.99,1.0,HOBO +U30 +Weather +,2013-04-26 08:25:00,
2013-04-26 04:26:00,32.9,32.5,30.23,WSW,239,0.0,0.0,98,0.00,,,-99.99,1.0,HOBO +U30 +Weather +,2013-04-26 08:26:00,
2013-04-26 04:27:00,33.0,32.6,30.23,WSW,239,0.0,0.0,98,0.00,,,-99.99,1.0,HOBO +U30 +Weather +,2013-04-26 08:27:00,
2013-04-26 04:28:00,33.0,32.7,30.22,WSW,239,0.0,0.0,98,0.00,,,-99.99,1.0,HOBO +U30 +Weather +,2013-04-26 08:28:00,
2013-04-26 04:29:00,33.1,32.7,30.23,WSW,239,0.0,0.0,98,0.00,,,-99.99,1.0,HOBO +U30 +Weather +,2013-04-26 08:29:00,
2013-04-26 04:30:00,33.1,32.8,30.22,WSW,239,0.0,0.0,98,0.00,,,-99.99,1.0,HOBO +U30 +Weather +,2013-04-26 08:30:00,
2013-04-26 04:31:00,33.1,32.8,30.23,WSW,239,0.0,0.0,98,0.00,,,-99.99,1.0,HOBO +U30 +Weather +,2013-04-26 08:31:00,
2013-04-26 04:32:00,33.1,32.8,30.22,WSW,239,0.0,0.0,98,0.00,,,-99.99,1.0,HOBO +U30 +Weather +,2013-04-26 08:32:00,
2013-04-26 04:33:00,33.1,32.8,30.23,WSW,239,0.0,0.0,98,0.00,,,-99.99,1.0,HOBO +U30 +Weather +,2013-04-26 08:33:00,
2013-04-26 04:34:00,33.1,32.8,30.23,WSW,239,0.0,0.0,98,0.00,,,-99.99,1.0,HOBO +U30 +Weather +,2013-04-26 08:34:00,
2013-04-26 04:35:00,33.2,32.8,30.23,WSW,239,0.0,0.0,98,0.00,,,-99.99,1.0,HOBO +U30 +Weather +,2013-04-26 08:35:00,
2013-04-26 04:36:00,33.4,33.0,30.23,WSW,239,0.0,0.0,98,0.00,,,-99.99,1.0,HOBO +U30 +Weather +,2013-04-26 08:36:00,
2013-04-26 04:37:00,33.4,33.0,30.23,WSW,239,0.0,0.0,98,0.00,,,-99.99,1.0,HOBO +U30 +Weather +,2013-04-26 08:37:00,
2013-04-26 04:38:00,33.6,33.2,30.23,WSW,239,0.0,0.0,98,0.00,,,-99.99,1.0,HOBO +U30 +Weather +,2013-04-26 08:38:00,
2013-04-26 04:39:00,33.6,33.3,30.23,WSW,239,0.0,0.0,98,0.00,,,-99.99,1.0,HOBO +U30 +Weather +,2013-04-26 08:39:00,
2013-04-26 04:40:00,33.7,33.4,30.23,WSW,239,0.0,0.0,98,0.00,,,-99.99,1.0,HOBO +U30 +Weather +,2013-04-26 08:40:00,
2013-04-26 04:41:00,33.7,33.4,30.23,WSW,239,0.0,0.0,98,0.00,,,-99.99,1.0,HOBO +U30 +Weather +,2013-04-26 08:41:00,
2013-04-26 04:42:00,33.8,33.5,30.23,WSW,239,0.0,0.0,98,0.00,,,-99.99,1.0,HOBO +U30 +Weather +,2013-04-26 08:42:00,
2013-04-26 04:43:00,33.8,33.4,30.23,WSW,239,0.0,0.0,98,0.00,,,-99.99,1.0,HOBO +U30 +Weather +,2013-04-26 08:43:00,
2013-04-26 04:44:00,33.9,33.5,30.23,WSW,239,0.0,0.0,98,0.00,,,-99.99,1.0,HOBO +U30 +Weather +,2013-04-26 08:44:00,
2013-04-26 04:45:00,34.0,33.7,30.23,WSW,239,0.0,0.0,98,0.00,,,-99.99,1.0,HOBO +U30 +Weather +,2013-04-26 08:45:00,
2013-04-26 04:46:00,33.9,33.6,30.23,WSW,239,0.0,0.0,98,0.00,,,-99.99,1.0,HOBO +U30 +Weather +,2013-04-26 08:46:00,
2013-04-26 04:47:00,33.8,33.5,30.23,WSW,239,0.0,0.0,98,0.00,,,-99.99,1.0,HOBO +U30 +Weather +,2013-04-26 08:47:00,
2013-04-26 04:48:00,33.8,33.5,30.23,WSW,239,0.0,0.0,98,0.00,,,-99.99,1.0,HOBO +U30 +Weather +,2013-04-26 08:48:00,
2013-04-26 04:49:00,33.8,33.5,30.24,WSW,239,0.0,0.0,98,0.00,,,-99.99,1.0,HOBO +U30 +Weather +,2013-04-26 08:49:00,
2013-04-26 04:50:00,34.2,33.9,30.24,WSW,239,0.0,0.0,98,0.00,,,-99.99,1.0,HOBO +U30 +Weather +,2013-04-26 08:50:00,
2013-04-26 04:51:00,34.2,33.9,30.24,WSW,239,0.0,0.0,98,0.00,,,-99.99,1.0,HOBO +U30 +Weather +,2013-04-26 08:51:00,
2013-04-26 04:52:00,34.0,33.7,30.23,WSW,239,0.0,0.0,98,0.00,,,-99.99,1.0,HOBO +U30 +Weather +,2013-04-26 08:52:00,
2013-04-26 04:53:00,34.1,33.8,30.24,WSW,239,0.0,0.0,98,0.00,,,-99.99,1.0,HOBO +U30 +Weather +,2013-04-26 08:53:00,
2013-04-26 04:54:00,34.1,33.8,30.24,WSW,239,0.0,0.0,98,0.00,,,-99.99,1.0,HOBO +U30 +Weather +,2013-04-26 08:54:00,
2013-04-26 04:55:00,34.0,33.7,30.23,WSW,239,0.0,0.0,98,0.00,,,-99.99,1.0,HOBO +U30 +Weather +,2013-04-26 08:55:00,
2013-04-26 04:56:00,33.9,33.6,30.23,WSW,239,0.0,0.0,98,0.00,,,-99.99,1.0,HOBO +U30 +Weather +,2013-04-26 08:56:00,
2013-04-26 04:57:00,34.2,33.9,30.24,WSW,239,0.0,0.0,98,0.00,,,-99.99,1.0,HOBO +U30 +Weather +,2013-04-26 08:57:00,
2013-04-26 04:58:00,34.3,34.0,30.24,WSW,239,0.0,0.0,98,0.00,,,-99.99,1.0,HOBO +U30 +Weather +,2013-04-26 08:58:00,
2013-04-26 04:59:00,34.2,33.9,30.24,WSW,239,0.0,0.0,98,0.00,,,-99.99,1.0,HOBO +U30 +Weather +,2013-04-26 08:59:00,
2013-04-26 05:00:00,34.2,33.9,30.24,WSW,239,0.0,0.0,98,0.00,,,-99.99,1.0,HOBO +U30 +Weather +,2013-04-26 09:00:00,
2013-04-26 05:01:00,34.4,34.1,30.24,WSW,239,0.0,0.0,98,0.00,,,-99.99,1.0,HOBO +U30 +Weather +,2013-04-26 09:01:00,
2013-04-26 05:02:00,34.4,34.1,30.24,WSW,239,0.0,0.0,98,0.00,,,-99.99,1.0,HOBO +U30 +Weather +,2013-04-26 09:02:00,
2013-04-26 05:03:00,34.3,34.0,30.24,WSW,239,0.0,0.0,98,0.00,,,-99.99,1.0,HOBO +U30 +Weather +,2013-04-26 09:03:00,
2013-04-26 05:04:00,34.3,34.0,30.24,WSW,239,0.0,0.0,98,0.00,,,-99.99,1.0,HOBO +U30 +Weather +,2013-04-26 09:04:00,
2013-04-26 05:05:00,34.5,34.2,30.24,WSW,239,0.0,0.0,99,0.00,,,-99.99,1.0,HOBO +U30 +Weather +,2013-04-26 09:05:00,
2013-04-26 05:06:00,34.9,34.7,30.24,WSW,239,0.0,0.0,99,0.00,,,-99.99,1.0,HOBO +U30 +Weather +,2013-04-26 09:06:00,
2013-04-26 05:07:00,35.1,34.9,30.24,WSW,239,0.0,0.0,99,0.00,,,-99.99,1.0,HOBO +U30 +Weather +,2013-04-26 09:07:00,
2013-04-26 05:08:00,35.0,34.8,30.24,WSW,239,0.0,0.0,99,0.00,,,-99.99,1.0,HOBO +U30 +Weather +,2013-04-26 09:08:00,
2013-04-26 05:09:00,35.1,34.9,30.24,WSW,237,0.0,0.0,99,0.00,,,-99.99,1.0,HOBO +U30 +Weather +,2013-04-26 09:09:00,
2013-04-26 05:10:00,35.7,35.5,30.24,SW,236,0.0,0.0,99,0.00,,,-99.99,1.0,HOBO +U30 +Weather +,2013-04-26 09:10:00,
2013-04-26 05:11:00,35.9,35.7,30.24,SW,236,0.0,0.0,99,0.00,,,-99.99,1.0,HOBO +U30 +Weather +,2013-04-26 09:11:00,
2013-04-26 05:12:00,36.0,35.9,30.24,SW,236,0.0,0.0,99,0.00,,,-99.99,1.0,HOBO +U30 +Weather +,2013-04-26 09:12:00,
2013-04-26 05:13:00,36.1,35.9,30.24,SW,236,0.0,0.0,99,0.00,,,-99.99,1.0,HOBO +U30 +Weather +,2013-04-26 09:13:00,
2013-04-26 05:14:00,36.2,36.0,30.25,SW,236,0.0,0.0,99,0.00,,,-99.99,1.0,HOBO +U30 +Weather +,2013-04-26 09:14:00,
2013-04-26 05:15:00,36.3,36.1,30.24,SW,236,0.0,0.0,99,0.00,,,-99.99,1.0,HOBO +U30 +Weather +,2013-04-26 09:15:00,
2013-04-26 05:16:00,36.5,36.3,30.24,SW,225,0.0,0.0,99,0.00,,,-99.99,1.0,HOBO +U30 +Weather +,2013-04-26 09:16:00,
2013-04-26 05:17:00,36.4,36.2,30.24,SW,219,0.0,0.0,99,0.00,,,-99.99,1.0,HOBO +U30 +Weather +,2013-04-26 09:17:00,
2013-04-26 05:18:00,36.2,36.0,30.24,SW,219,0.0,0.0,99,0.00,,,-99.99,1.0,HOBO +U30 +Weather +,2013-04-26 09:18:00,
2013-04-26 05:19:00,36.1,35.9,30.25,SW,219,0.0,0.0,99,0.00,,,-99.99,1.0,HOBO +U30 +Weather +,2013-04-26 09:19:00,
2013-04-26 05:20:00,35.9,35.7,30.25,SW,219,0.0,0.0,99,0.00,,,-99.99,1.0,HOBO +U30 +Weather +,2013-04-26 09:20:00,
2013-04-26 05:21:00,35.8,35.7,30.25,SW,219,0.0,0.0,99,0.00,,,-99.99,1.0,HOBO +U30 +Weather +,2013-04-26 09:21:00,
2013-04-26 05:22:00,35.7,35.5,30.24,SW,219,0.0,0.0,99,0.00,,,-99.99,1.0,HOBO +U30 +Weather +,2013-04-26 09:22:00,
2013-04-26 05:23:00,35.7,35.5,30.25,SW,219,0.0,0.0,99,0.00,,,-99.99,1.0,HOBO +U30 +Weather +,2013-04-26 09:23:00,
2013-04-26 05:24:00,35.5,35.3,30.24,SW,219,0.0,0.0,99,0.00,,,-99.99,1.0,HOBO +U30 +Weather +,2013-04-26 09:24:00,
2013-04-26 05:25:00,35.3,35.2,30.24,SW,219,0.0,0.0,99,0.00,,,-99.99,1.0,HOBO +U30 +Weather +,2013-04-26 09:25:00,
2013-04-26 05:26:00,35.3,35.1,30.24,SW,219,0.0,0.0,99,0.00,,,-99.99,1.0,HOBO +U30 +Weather +,2013-04-26 09:26:00,
2013-04-26 05:27:00,35.3,35.1,30.24,SW,219,0.0,0.0,99,0.00,,,-99.99,1.0,HOBO +U30 +Weather +,2013-04-26 09:27:00,
2013-04-26 05:28:00,35.2,35.0,30.24,SW,219,0.0,0.0,99,0.00,,,-99.99,1.0,HOBO +U30 +Weather +,2013-04-26 09:28:00,
2013-04-26 05:29:00,35.0,34.8,30.24,SW,219,0.0,0.0,99,0.00,,,-99.99,1.0,HOBO +U30 +Weather +,2013-04-26 09:29:00,
2013-04-26 05:30:00,34.9,34.7,30.24,SW,219,0.0,0.0,99,0.00,,,-99.99,1.0,HOBO +U30 +Weather +,2013-04-26 09:30:00,
2013-04-26 05:31:00,34.9,34.7,30.24,SW,219,0.0,0.0,99,0.00,,,-99.99,1.0,HOBO +U30 +Weather +,2013-04-26 09:31:00,
2013-04-26 05:32:00,34.9,34.7,30.24,SW,219,0.0,0.0,99,0.00,,,-99.99,1.0,HOBO +U30 +Weather +,2013-04-26 09:32:00,
2013-04-26 05:33:00,35.1,34.9,30.24,SW,219,0.0,0.0,99,0.00,,,-99.99,1.0,HOBO +U30 +Weather +,2013-04-26 09:33:00,
2013-04-26 05:34:00,35.2,35.1,30.25,SW,219,0.0,0.0,99,0.00,,,-99.99,1.0,HOBO +U30 +Weather +,2013-04-26 09:34:00,
2013-04-26 05:35:00,35.3,35.1,30.24,SW,222,0.0,0.0,99,0.00,,,-99.99,1.0,HOBO +U30 +Weather +,2013-04-26 09:35:00,
2013-04-26 05:36:00,35.6,35.5,30.24,WSW,251,0.0,0.0,99,0.00,,,-99.99,1.0,HOBO +U30 +Weather +,2013-04-26 09:36:00,
2013-04-26 05:37:00,35.6,35.5,30.24,WSW,251,0.0,0.0,99,0.00,,,-99.99,1.0,HOBO +U30 +Weather +,2013-04-26 09:37:00,
2013-04-26 05:38:00,35.7,35.5,30.25,WSW,251,0.0,0.0,99,0.00,,,-99.99,1.0,HOBO +U30 +Weather +,2013-04-26 09:38:00,
2013-04-26 05:39:00,35.8,35.7,30.25,WSW,251,0.0,0.0,99,0.00,,,-99.99,1.0,HOBO +U30 +Weather +,2013-04-26 09:39:00,
2013-04-26 05:40:00,36.0,35.9,30.25,WSW,251,0.0,0.0,99,0.00,,,-99.99,1.0,HOBO +U30 +Weather +,2013-04-26 09:40:00,
2013-04-26 05:41:00,36.0,35.9,30.24,WSW,251,0.0,0.0,99,0.00,,,-99.99,1.0,HOBO +U30 +Weather +,2013-04-26 09:41:00,
2013-04-26 05:42:00,36.0,35.9,30.24,WSW,251,0.0,0.0,99,0.00,,,-99.99,1.0,HOBO +U30 +Weather +,2013-04-26 09:42:00,
2013-04-26 05:43:00,36.1,35.9,30.25,WSW,251,0.0,0.0,99,0.00,,,-99.99,1.0,HOBO +U30 +Weather +,2013-04-26 09:43:00,
2013-04-26 05:44:00,36.1,35.9,30.24,WSW,251,0.0,0.0,99,0.00,,,-99.99,1.0,HOBO +U30 +Weather +,2013-04-26 09:44:00,
2013-04-26 05:45:00,36.1,36.0,30.24,WSW,251,0.0,0.0,99,0.00,,,-99.99,1.0,HOBO +U30 +Weather +,2013-04-26 09:45:00,
2013-04-26 05:46:00,36.1,35.9,30.24,WSW,251,0.0,0.0,99,0.00,,,-99.99,1.0,HOBO +U30 +Weather +,2013-04-26 09:46:00,
2013-04-26 05:47:00,36.0,35.9,30.24,WSW,251,0.0,0.0,99,0.00,,,-99.99,1.0,HOBO +U30 +Weather +,2013-04-26 09:47:00,
2013-04-26 05:48:00,36.0,35.9,30.24,WSW,251,0.0,0.0,99,0.00,,,-99.99,1.0,HOBO +U30 +Weather +,2013-04-26 09:48:00,
2013-04-26 05:49:00,36.4,36.3,30.25,WSW,250,0.0,0.0,99,0.00,,,-99.99,1.0,HOBO +U30 +Weather +,2013-04-26 09:49:00,
2013-04-26 05:50:00,36.6,36.5,30.25,WSW,250,0.0,0.0,99,0.00,,,-99.99,1.0,HOBO +U30 +Weather +,2013-04-26 09:50:00,
2013-04-26 05:51:00,36.5,36.4,30.25,WSW,250,0.0,0.0,99,0.00,,,-99.99,1.0,HOBO +U30 +Weather +,2013-04-26 09:51:00,
2013-04-26 05:52:00,36.4,36.2,30.25,WSW,250,0.0,0.0,99,0.00,,,-99.99,2.0,HOBO +U30 +Weather +,2013-04-26 09:52:00,
2013-04-26 05:53:00,36.2,36.1,30.24,WSW,250,0.0,0.0,99,0.00,,,-99.99,2.0,HOBO +U30 +Weather +,2013-04-26 09:53:00,
2013-04-26 05:54:00,36.0,35.9,30.25,WSW,250,0.0,0.0,99,0.00,,,-99.99,2.0,HOBO +U30 +Weather +,2013-04-26 09:54:00,
2013-04-26 05:55:00,35.8,35.7,30.25,WSW,250,0.0,0.0,99,0.00,,,-99.99,2.0,HOBO +U30 +Weather +,2013-04-26 09:55:00,
2013-04-26 05:56:00,35.6,35.5,30.24,WSW,250,0.0,0.0,99,0.00,,,-99.99,2.0,HOBO +U30 +Weather +,2013-04-26 09:56:00,
2013-04-26 05:57:00,35.7,35.6,30.25,WSW,247,0.0,0.0,99,0.00,,,-99.99,2.0,HOBO +U30 +Weather +,2013-04-26 09:57:00,
2013-04-26 05:58:00,36.2,36.1,30.24,West,268,0.0,0.0,99,0.00,,,-99.99,2.0,HOBO +U30 +Weather +,2013-04-26 09:58:00,
2013-04-26 05:59:00,36.4,36.3,30.25,WSW,244,0.0,0.0,99,0.00,,,-99.99,3.0,HOBO +U30 +Weather +,2013-04-26 09:59:00,
2013-04-26 06:00:00,36.3,36.2,30.25,WSW,244,0.0,0.0,99,0.00,,,-99.99,3.0,HOBO +U30 +Weather +,2013-04-26 10:00:00,
2013-04-26 06:01:00,36.3,36.2,30.25,WSW,244,0.0,0.0,99,0.00,,,-99.99,3.0,HOBO +U30 +Weather +,2013-04-26 10:01:00,
2013-04-26 06:02:00,36.2,36.1,30.25,WSW,244,0.0,0.0,99,0.00,,,-99.99,3.0,HOBO +U30 +Weather +,2013-04-26 10:02:00,
2013-04-26 06:03:00,36.1,36.0,30.25,WSW,244,0.0,0.0,99,0.00,,,-99.99,3.0,HOBO +U30 +Weather +,2013-04-26 10:03:00,
2013-04-26 06:04:00,36.0,35.9,30.25,WSW,244,0.0,0.0,99,0.00,,,-99.99,3.0,HOBO +U30 +Weather +,2013-04-26 10:04:00,
2013-04-26 06:05:00,36.1,36.0,30.25,WSW,244,0.0,0.0,99,0.00,,,-99.99,4.0,HOBO +U30 +Weather +,2013-04-26 10:05:00,
2013-04-26 06:06:00,36.2,36.1,30.25,WSW,246,0.0,0.0,99,0.00,,,-99.99,6.0,HOBO +U30 +Weather +,2013-04-26 10:06:00,
2013-04-26 06:07:00,36.5,36.4,30.25,WSW,254,0.0,0.0,99,0.00,,,-99.99,6.0,HOBO +U30 +Weather +,2013-04-26 10:07:00,
2013-04-26 06:08:00,36.6,36.6,30.25,WSW,254,0.0,0.0,99,0.00,,,-99.99,6.0,HOBO +U30 +Weather +,2013-04-26 10:08:00,
2013-04-26 06:09:00,36.8,36.8,30.25,WSW,254,0.0,0.0,99,0.00,,,-99.99,7.0,HOBO +U30 +Weather +,2013-04-26 10:09:00,
2013-04-26 06:10:00,36.9,36.8,30.25,WSW,254,0.0,0.0,99,0.00,,,-99.99,7.0,HOBO +U30 +Weather +,2013-04-26 10:10:00,
2013-04-26 06:11:00,37.0,37.0,30.26,WSW,248,0.0,0.0,99,0.00,,,-99.99,7.0,HOBO +U30 +Weather +,2013-04-26 10:11:00,
2013-04-26 06:12:00,37.5,37.5,30.26,SW,227,0.0,0.0,99,0.00,,,-99.99,8.0,HOBO +U30 +Weather +,2013-04-26 10:12:00,
2013-04-26 06:13:00,37.9,37.9,30.25,SW,226,0.0,0.0,100,0.00,,,-99.99,8.0,HOBO +U30 +Weather +,2013-04-26 10:13:00,
2013-04-26 06:14:00,38.1,38.1,30.25,SW,226,0.0,0.0,99,0.00,,,-99.99,9.0,HOBO +U30 +Weather +,2013-04-26 10:14:00,
2013-04-26 06:15:00,38.3,38.3,30.25,SW,226,0.0,0.0,100,0.00,,,-99.99,9.0,HOBO +U30 +Weather +,2013-04-26 10:15:00,
2013-04-26 06:16:00,38.4,38.4,30.26,SW,219,0.0,0.0,100,0.00,,,-99.99,11.0,HOBO +U30 +Weather +,2013-04-26 10:16:00,
2013-04-26 06:17:00,38.7,38.6,30.26,South,191,0.0,0.0,99,0.00,,,-99.99,11.0,HOBO +U30 +Weather +,2013-04-26 10:17:00,
2013-04-26 06:18:00,38.9,38.9,30.26,South,191,0.0,0.0,100,0.00,,,-99.99,12.0,HOBO +U30 +Weather +,2013-04-26 10:18:00,
2013-04-26 06:19:00,39.1,39.1,30.26,South,191,0.0,0.0,100,0.00,,,-99.99,12.0,HOBO +U30 +Weather +,2013-04-26 10:19:00,
2013-04-26 06:20:00,39.2,39.2,30.26,South,191,0.0,0.0,100,0.00,,,-99.99,13.0,HOBO +U30 +Weather +,2013-04-26 10:20:00,
2013-04-26 06:21:00,39.3,39.3,30.26,South,191,0.0,0.0,99,0.00,,,-99.99,13.0,HOBO +U30 +Weather +,2013-04-26 10:21:00,
2013-04-26 06:22:00,39.3,39.3,30.25,South,191,0.0,0.0,99,0.00,,,-99.99,14.0,HOBO +U30 +Weather +,2013-04-26 10:22:00,
2013-04-26 06:23:00,39.5,39.5,30.26,South,191,0.0,0.0,100,0.00,,,-99.99,14.0,HOBO +U30 +Weather +,2013-04-26 10:23:00,
2013-04-26 06:24:00,39.8,39.8,30.26,South,191,0.0,0.0,100,0.00,,,-99.99,14.0,HOBO +U30 +Weather +,2013-04-26 10:24:00,
2013-04-26 06:25:00,40.1,40.0,30.26,South,191,0.0,0.0,99,0.00,,,-99.99,14.0,HOBO +U30 +Weather +,2013-04-26 10:25:00,
2013-04-26 06:26:00,40.4,40.4,30.26,South,191,0.0,0.0,100,0.00,,,-99.99,16.0,HOBO +U30 +Weather +,2013-04-26 10:26:00,
2013-04-26 06:27:00,40.6,40.6,30.26,South,190,0.0,0.0,100,0.00,,,-99.99,16.0,HOBO +U30 +Weather +,2013-04-26 10:27:00,
2013-04-26 06:28:00,40.8,40.8,30.27,South,190,0.0,0.0,100,0.00,,,-99.99,16.0,HOBO +U30 +Weather +,2013-04-26 10:28:00,
2013-04-26 06:29:00,41.0,41.0,30.27,South,184,0.0,0.0,99,0.00,,,-99.99,16.0,HOBO +U30 +Weather +,2013-04-26 10:29:00,
2013-04-26 06:30:00,41.3,41.3,30.27,South,185,0.0,0.0,100,0.00,,,-99.99,16.0,HOBO +U30 +Weather +,2013-04-26 10:30:00,
2013-04-26 06:31:00,41.5,41.5,30.27,South,191,0.0,0.0,99,0.00,,,-99.99,16.0,HOBO +U30 +Weather +,2013-04-26 10:31:00,
2013-04-26 06:32:00,41.6,41.5,30.27,South,191,0.0,0.0,99,0.00,,,-99.99,16.0,HOBO +U30 +Weather +,2013-04-26 10:32:00,
2013-04-26 06:33:00,41.8,41.8,30.26,South,188,0.0,0.0,99,0.00,,,-99.99,14.0,HOBO +U30 +Weather +,2013-04-26 10:33:00,
2013-04-26 06:34:00,42.1,42.0,30.26,South,183,0.0,0.0,99,0.00,,,-99.99,14.0,HOBO +U30 +Weather +,2013-04-26 10:34:00,
2013-04-26 06:35:00,42.3,42.2,30.26,South,178,0.0,0.0,99,0.00,,,-99.99,14.0,HOBO +U30 +Weather +,2013-04-26 10:35:00,
2013-04-26 06:36:00,42.4,42.3,30.26,SSW,202,0.0,0.0,99,0.00,,,-99.99,14.0,HOBO +U30 +Weather +,2013-04-26 10:36:00,
2013-04-26 06:37:00,42.5,42.3,30.26,South,184,0.0,0.0,99,0.00,,,-99.99,14.0,HOBO +U30 +Weather +,2013-04-26 10:37:00,
2013-04-26 06:38:00,42.6,42.4,30.27,South,184,0.0,0.0,99,0.00,,,-99.99,14.0,HOBO +U30 +Weather +,2013-04-26 10:38:00,
2013-04-26 06:39:00,42.7,42.4,30.27,South,184,0.0,0.0,98,0.00,,,-99.99,14.0,HOBO +U30 +Weather +,2013-04-26 10:39:00,
2013-04-26 06:40:00,42.9,42.5,30.26,South,184,0.0,0.0,98,0.00,,,-99.99,14.0,HOBO +U30 +Weather +,2013-04-26 10:40:00,
2013-04-26 06:41:00,42.9,42.5,30.27,South,190,0.0,0.0,98,0.00,,,-99.99,13.0,HOBO +U30 +Weather +,2013-04-26 10:41:00,
2013-04-26 06:42:00,43.1,42.5,30.27,South,184,0.0,0.0,97,0.00,,,-99.99,13.0,HOBO +U30 +Weather +,2013-04-26 10:42:00,
2013-04-26 06:43:00,43.0,42.3,30.27,South,184,0.0,0.0,97,0.00,,,-99.99,13.0,HOBO +U30 +Weather +,2013-04-26 10:43:00,
2013-04-26 06:44:00,43.1,42.3,30.27,South,184,0.0,0.0,97,0.00,,,-99.99,13.0,HOBO +U30 +Weather +,2013-04-26 10:44:00,
2013-04-26 06:45:00,43.0,42.2,30.27,South,184,0.0,0.0,96,0.00,,,-99.99,13.0,HOBO +U30 +Weather +,2013-04-26 10:45:00,
2013-04-26 06:46:00,43.0,42.1,30.27,South,188,0.0,0.0,96,0.00,,,-99.99,13.0,HOBO +U30 +Weather +,2013-04-26 10:46:00,
2013-04-26 06:47:00,43.1,42.2,30.27,SSW,194,0.0,0.0,96,0.00,,,-99.99,13.0,HOBO +U30 +Weather +,2013-04-26 10:47:00,
2013-04-26 06:48:00,43.4,42.3,30.27,South,178,0.0,0.0,96,0.00,,,-99.99,13.0,HOBO +U30 +Weather +,2013-04-26 10:48:00,
2013-04-26 06:49:00,43.4,42.3,30.27,South,177,0.0,0.0,95,0.00,,,-99.99,8.0,HOBO +U30 +Weather +,2013-04-26 10:49:00,
2013-04-26 06:50:00,43.5,42.3,30.28,SSW,195,0.0,0.0,95,0.00,,,-99.99,7.0,HOBO +U30 +Weather +,2013-04-26 10:50:00,
2013-04-26 06:51:00,43.5,42.2,30.27,SSW,206,0.0,0.0,95,0.00,,,-99.99,7.0,HOBO +U30 +Weather +,2013-04-26 10:51:00,
2013-04-26 06:52:00,43.6,42.2,30.27,South,191,0.0,0.0,94,0.00,,,-99.99,7.0,HOBO +U30 +Weather +,2013-04-26 10:52:00,
2013-04-26 06:53:00,43.7,42.2,30.27,South,181,0.0,0.0,94,0.00,,,-99.99,7.0,HOBO +U30 +Weather +,2013-04-26 10:53:00,
2013-04-26 06:54:00,43.7,42.1,30.27,SSW,192,0.0,0.0,94,0.00,,,-99.99,6.0,HOBO +U30 +Weather +,2013-04-26 10:54:00,
2013-04-26 06:55:00,43.6,42.0,30.27,SSW,202,0.0,0.0,93,0.00,,,-99.99,6.0,HOBO +U30 +Weather +,2013-04-26 10:55:00,
2013-04-26 06:56:00,43.6,41.9,30.28,SSW,195,0.0,0.0,93,0.00,,,-99.99,7.0,HOBO +U30 +Weather +,2013-04-26 10:56:00,
2013-04-26 06:57:00,43.8,42.0,30.27,SW,225,0.0,0.0,93,0.00,,,-99.99,7.0,HOBO +U30 +Weather +,2013-04-26 10:57:00,
2013-04-26 06:58:00,43.7,41.8,30.28,SW,233,0.0,0.0,93,0.00,,,-99.99,6.0,HOBO +U30 +Weather +,2013-04-26 10:58:00,
2013-04-26 06:59:00,43.9,42.0,30.28,South,183,0.0,0.0,93,0.00,,,-99.99,7.0,HOBO +U30 +Weather +,2013-04-26 10:59:00,
2013-04-26 07:00:00,43.9,41.9,30.27,South,188,0.0,0.0,92,0.00,,,-99.99,7.0,HOBO +U30 +Weather +,2013-04-26 11:00:00,
2013-04-26 07:01:00,43.9,41.9,30.28,South,185,0.0,0.0,92,0.00,,,-99.99,7.0,HOBO +U30 +Weather +,2013-04-26 11:01:00,
2013-04-26 07:02:00,43.8,41.8,30.28,SW,234,0.0,0.0,92,0.00,,,-99.99,7.0,HOBO +U30 +Weather +,2013-04-26 11:02:00,
2013-04-26 07:03:00,43.7,41.8,30.27,SSW,205,0.0,0.0,92,0.00,,,-99.99,7.0,HOBO +U30 +Weather +,2013-04-26 11:03:00,
2013-04-26 07:04:00,43.8,41.8,30.28,SSW,206,0.0,0.0,92,0.00,,,-99.99,7.0,HOBO +U30 +Weather +,2013-04-26 11:04:00,
2013-04-26 07:05:00,43.7,41.8,30.28,SSW,206,0.0,0.0,92,0.00,,,-99.99,8.0,HOBO +U30 +Weather +,2013-04-26 11:05:00,
2013-04-26 07:06:00,43.7,41.8,30.27,SSW,204,0.0,0.0,92,0.00,,,-99.99,11.0,HOBO +U30 +Weather +,2013-04-26 11:06:00,
2013-04-26 07:07:00,43.8,41.8,30.28,South,191,0.0,0.0,92,0.00,,,-99.99,13.0,HOBO +U30 +Weather +,2013-04-26 11:07:00,
2013-04-26 07:08:00,43.8,41.8,30.27,South,185,0.0,0.0,92,0.00,,,-99.99,9.0,HOBO +U30 +Weather +,2013-04-26 11:08:00,
2013-04-26 07:09:00,43.8,41.8,30.27,South,185,0.0,0.0,92,0.00,,,-99.99,9.0,HOBO +U30 +Weather +,2013-04-26 11:09:00,
2013-04-26 07:10:00,43.8,41.8,30.28,South,188,0.0,0.0,92,0.00,,,-99.99,21.0,HOBO +U30 +Weather +,2013-04-26 11:10:00,
2013-04-26 07:11:00,43.8,41.8,30.28,South,188,0.0,0.0,92,0.00,,,-99.99,28.0,HOBO +U30 +Weather +,2013-04-26 11:11:00,
2013-04-26 07:12:00,43.9,42.0,30.28,South,181,0.0,0.0,92,0.00,,,-99.99,27.0,HOBO +U30 +Weather +,2013-04-26 11:12:00,
2013-04-26 07:13:00,44.0,42.1,30.28,South,178,0.0,0.0,92,0.00,,,-99.99,27.0,HOBO +U30 +Weather +,2013-04-26 11:13:00,
2013-04-26 07:14:00,44.3,42.4,30.28,South,191,0.0,0.0,93,0.00,,,-99.99,33.0,HOBO +U30 +Weather +,2013-04-26 11:14:00,
2013-04-26 07:15:00,44.4,42.5,30.28,SW,218,0.0,0.0,92,0.00,,,-99.99,37.0,HOBO +U30 +Weather +,2013-04-26 11:15:00,
2013-04-26 07:16:00,44.6,42.6,30.29,SW,218,0.0,0.0,92,0.00,,,-99.99,36.0,HOBO +U30 +Weather +,2013-04-26 11:16:00,
2013-04-26 07:17:00,44.8,42.8,30.28,SSW,211,0.0,0.0,92,0.00,,,-99.99,38.0,HOBO +U30 +Weather +,2013-04-26 11:17:00,
2013-04-26 07:18:00,45.0,42.9,30.28,West,260,0.0,0.0,92,0.00,,,-99.99,41.0,HOBO +U30 +Weather +,2013-04-26 11:18:00,
2013-04-26 07:19:00,45.1,42.9,30.29,WSW,240,0.0,0.0,92,0.00,,,-99.99,42.0,HOBO +U30 +Weather +,2013-04-26 11:19:00,
2013-04-26 07:20:00,45.3,43.1,30.28,SSW,199,0.0,0.0,91,0.00,,,-99.99,43.0,HOBO +U30 +Weather +,2013-04-26 11:20:00,
2013-04-26 07:21:00,45.5,43.2,30.28,South,187,0.0,0.0,91,0.00,,,-99.99,44.0,HOBO +U30 +Weather +,2013-04-26 11:21:00,
2013-04-26 07:22:00,45.6,43.3,30.28,SW,234,0.0,0.0,91,0.00,,,-99.99,46.0,HOBO +U30 +Weather +,2013-04-26 11:22:00,
2013-04-26 07:23:00,45.7,43.4,30.28,WSW,247,0.0,0.0,91,0.00,,,-99.99,46.0,HOBO +U30 +Weather +,2013-04-26 11:23:00,
2013-04-26 07:24:00,45.8,43.4,30.28,SW,229,0.0,0.0,91,0.00,,,-99.99,47.0,HOBO +U30 +Weather +,2013-04-26 11:24:00,
2013-04-26 07:25:00,45.9,43.5,30.28,WSW,253,0.0,0.0,91,0.00,,,-99.99,48.0,HOBO +U30 +Weather +,2013-04-26 11:25:00,
2013-04-26 07:26:00,46.0,43.6,30.28,WSW,258,0.0,0.0,91,0.00,,,-99.99,49.0,HOBO +U30 +Weather +,2013-04-26 11:26:00,
2013-04-26 07:27:00,46.1,43.7,30.28,WSW,258,0.0,0.0,91,0.00,,,-99.99,49.0,HOBO +U30 +Weather +,2013-04-26 11:27:00,
2013-04-26 07:28:00,46.3,43.8,30.29,SSW,205,0.0,0.0,90,0.00,,,-99.99,51.0,HOBO +U30 +Weather +,2013-04-26 11:28:00,
2013-04-26 07:29:00,46.4,43.8,30.29,SW,219,0.0,0.0,90,0.00,,,-99.99,52.0,HOBO +U30 +Weather +,2013-04-26 11:29:00,
2013-04-26 07:30:00,46.5,43.9,30.28,WSW,247,0.0,0.0,90,0.00,,,-99.99,53.0,HOBO +U30 +Weather +,2013-04-26 11:30:00,
2013-04-26 07:31:00,46.7,43.9,30.29,SSW,194,0.0,0.0,89,0.00,,,-99.99,54.0,HOBO +U30 +Weather +,2013-04-26 11:31:00,
2013-04-26 07:32:00,46.8,43.9,30.29,South,191,0.0,0.0,89,0.00,,,-99.99,54.0,HOBO +U30 +Weather +,2013-04-26 11:32:00,
2013-04-26 07:33:00,46.9,43.9,30.29,South,184,0.0,0.0,89,0.00,,,-99.99,56.0,HOBO +U30 +Weather +,2013-04-26 11:33:00,
2013-04-26 07:34:00,47.0,44.0,30.29,SSE,166,0.0,0.0,89,0.00,,,-99.99,57.0,HOBO +U30 +Weather +,2013-04-26 11:34:00,
2013-04-26 07:35:00,47.2,44.1,30.29,South,183,0.0,0.0,89,0.00,,,-99.99,58.0,HOBO +U30 +Weather +,2013-04-26 11:35:00,
2013-04-26 07:36:00,47.3,44.1,30.29,SSW,192,0.0,0.0,88,0.00,,,-99.99,59.0,HOBO +U30 +Weather +,2013-04-26 11:36:00,
2013-04-26 07:37:00,47.4,44.0,30.29,South,174,0.0,0.0,87,0.00,,,-99.99,59.0,HOBO +U30 +Weather +,2013-04-26 11:37:00,
2013-04-26 07:38:00,47.5,44.1,30.28,SW,230,0.0,0.0,87,0.00,,,-99.99,59.0,HOBO +U30 +Weather +,2013-04-26 11:38:00,
2013-04-26 07:39:00,47.7,44.3,30.29,SSW,202,0.0,0.0,88,0.00,,,-99.99,62.0,HOBO +U30 +Weather +,2013-04-26 11:39:00,
2013-04-26 07:40:00,47.8,44.4,30.28,South,174,0.0,0.0,88,0.00,,,-99.99,63.0,HOBO +U30 +Weather +,2013-04-26 11:40:00,
2013-04-26 07:41:00,47.9,44.4,30.28,SSE,167,0.0,0.0,87,0.00,,,-99.99,63.0,HOBO +U30 +Weather +,2013-04-26 11:41:00,
2013-04-26 07:42:00,48.0,44.5,30.28,South,184,0.0,0.0,87,0.00,,,-99.99,64.0,HOBO +U30 +Weather +,2013-04-26 11:42:00,
2013-04-26 07:43:00,48.1,44.7,30.29,South,191,0.0,0.0,87,0.00,,,-99.99,66.0,HOBO +U30 +Weather +,2013-04-26 11:43:00,
2013-04-26 07:44:00,48.2,44.7,30.29,South,188,0.0,0.0,87,0.00,,,-99.99,67.0,HOBO +U30 +Weather +,2013-04-26 11:44:00,
2013-04-26 07:45:00,48.4,44.7,30.29,South,184,0.0,0.0,86,0.00,,,-99.99,67.0,HOBO +U30 +Weather +,2013-04-26 11:45:00,
2013-04-26 07:46:00,48.5,44.5,30.29,South,184,0.0,0.0,86,0.00,,,-99.99,68.0,HOBO +U30 +Weather +,2013-04-26 11:46:00,
2013-04-26 07:47:00,48.5,44.6,30.29,SSW,201,0.0,0.0,86,0.00,,,-99.99,68.0,HOBO +U30 +Weather +,2013-04-26 11:47:00,
2013-04-26 07:48:00,48.6,44.5,30.29,SW,219,0.0,0.0,85,0.00,,,-99.99,68.0,HOBO +U30 +Weather +,2013-04-26 11:48:00,
2013-04-26 07:49:00,48.8,44.7,30.29,SSW,198,0.0,0.0,85,0.00,,,-99.99,69.0,HOBO +U30 +Weather +,2013-04-26 11:49:00,
2013-04-26 07:50:00,48.9,44.9,30.29,SSW,205,0.0,0.0,85,0.00,,,-99.99,69.0,HOBO +U30 +Weather +,2013-04-26 11:50:00,
2013-04-26 07:51:00,49.1,44.9,30.29,SSW,198,0.0,0.0,85,0.00,,,-99.99,71.0,HOBO +U30 +Weather +,2013-04-26 11:51:00,
2013-04-26 07:52:00,49.1,44.8,30.29,SSW,198,0.0,0.0,84,0.00,,,-99.99,72.0,HOBO +U30 +Weather +,2013-04-26 11:52:00,
2013-04-26 07:53:00,49.2,44.9,30.29,West,265,0.0,0.0,84,0.00,,,-99.99,72.0,HOBO +U30 +Weather +,2013-04-26 11:53:00,
2013-04-26 07:54:00,49.4,44.9,30.29,South,185,0.0,0.0,84,0.00,,,-99.99,74.0,HOBO +U30 +Weather +,2013-04-26 11:54:00,
2013-04-26 07:55:00,49.6,44.7,30.29,South,187,0.0,0.0,83,0.00,,,-99.99,73.0,HOBO +U30 +Weather +,2013-04-26 11:55:00,
2013-04-26 07:56:00,49.7,44.8,30.29,SSW,208,0.0,0.0,83,0.00,,,-99.99,74.0,HOBO +U30 +Weather +,2013-04-26 11:56:00,
2013-04-26 07:57:00,49.8,45.2,30.29,SSW,208,0.0,0.0,83,0.00,,,-99.99,74.0,HOBO +U30 +Weather +,2013-04-26 11:57:00,
2013-04-26 07:58:00,49.9,45.2,30.29,SSW,208,0.0,0.0,83,0.00,,,-99.99,76.0,HOBO +U30 +Weather +,2013-04-26 11:58:00,
2013-04-26 07:59:00,50.1,45.1,30.29,SSW,197,0.0,0.0,82,0.00,,,-99.99,77.0,HOBO +U30 +Weather +,2013-04-26 11:59:00,
2013-04-26 08:00:00,50.1,45.1,30.29,SSW,204,0.0,0.0,82,0.00,,,-99.99,78.0,HOBO +U30 +Weather +,2013-04-26 12:00:00,
2013-04-26 08:01:00,50.2,45.0,30.29,South,187,0.0,0.0,82,0.00,,,-99.99,78.0,HOBO +U30 +Weather +,2013-04-26 12:01:00,
2013-04-26 08:02:00,50.4,45.2,30.29,SSW,199,0.0,0.0,82,0.00,,,-99.99,79.0,HOBO +U30 +Weather +,2013-04-26 12:02:00,
2013-04-26 08:03:00,50.6,45.2,30.29,South,177,0.0,0.0,81,0.00,,,-99.99,81.0,HOBO +U30 +Weather +,2013-04-26 12:03:00,
2013-04-26 08:04:00,50.8,44.9,30.29,SSW,194,0.0,0.0,80,0.00,,,-99.99,79.0,HOBO +U30 +Weather +,2013-04-26 12:04:00,
2013-04-26 08:05:00,50.9,45.0,30.29,SSW,194,0.0,0.0,80,0.00,,,-99.99,81.0,HOBO +U30 +Weather +,2013-04-26 12:05:00,
2013-04-26 08:06:00,51.0,45.2,30.29,SW,233,0.0,0.0,80,0.00,,,-99.99,82.0,HOBO +U30 +Weather +,2013-04-26 12:06:00,
2013-04-26 08:07:00,51.1,45.2,30.29,West,277,0.0,0.0,80,0.00,,,-99.99,82.0,HOBO +U30 +Weather +,2013-04-26 12:07:00,
2013-04-26 08:08:00,51.2,45.4,30.29,SW,234,0.0,0.0,80,0.00,,,-99.99,82.0,HOBO +U30 +Weather +,2013-04-26 12:08:00,
2013-04-26 08:09:00,51.3,45.5,30.29,SW,227,0.0,0.0,80,0.00,,,-99.99,83.0,HOBO +U30 +Weather +,2013-04-26 12:09:00,
2013-04-26 08:10:00,51.5,45.3,30.29,SW,219,0.0,0.0,79,0.00,,,-99.99,84.0,HOBO +U30 +Weather +,2013-04-26 12:10:00,
2013-04-26 08:11:00,51.5,45.0,30.29,SSW,195,0.0,0.0,78,0.00,,,-99.99,84.0,HOBO +U30 +Weather +,2013-04-26 12:11:00,
2013-04-26 08:12:00,51.6,44.8,30.29,SSW,192,0.0,0.0,77,0.00,,,-99.99,84.0,HOBO +U30 +Weather +,2013-04-26 12:12:00,
2013-04-26 08:13:00,51.6,44.5,30.29,SSW,195,0.0,0.0,76,0.00,,,-99.99,86.0,HOBO +U30 +Weather +,2013-04-26 12:13:00,
2013-04-26 08:14:00,51.8,44.9,30.29,SSW,205,0.0,0.0,77,0.00,,,-99.99,86.0,HOBO +U30 +Weather +,2013-04-26 12:14:00,
2013-04-26 08:15:00,52.0,45.3,30.29,SSW,208,0.0,0.0,77,0.00,,,-99.99,87.0,HOBO +U30 +Weather +,2013-04-26 12:15:00,
2013-04-26 08:16:00,52.1,45.3,30.29,SSW,197,0.0,0.0,77,0.00,,,-99.99,88.0,HOBO +U30 +Weather +,2013-04-26 12:16:00,
2013-04-26 08:17:00,52.3,45.2,30.29,SSW,206,0.0,0.0,76,0.00,,,-99.99,88.0,HOBO +U30 +Weather +,2013-04-26 12:17:00,
2013-04-26 08:18:00,52.5,45.2,30.29,South,178,0.0,0.0,76,0.00,,,-99.99,89.0,HOBO +U30 +Weather +,2013-04-26 12:18:00,
2013-04-26 08:19:00,52.6,44.8,30.29,SSW,213,0.0,0.0,74,0.00,,,-99.99,88.0,HOBO +U30 +Weather +,2013-04-26 12:19:00,
2013-04-26 08:20:00,52.6,44.8,30.29,SSW,211,0.0,0.0,74,0.00,,,-99.99,89.0,HOBO +U30 +Weather +,2013-04-26 12:20:00,
2013-04-26 08:21:00,52.6,44.7,30.29,SSW,192,0.0,0.0,74,0.00,,,-99.99,89.0,HOBO +U30 +Weather +,2013-04-26 12:21:00,
2013-04-26 08:22:00,52.7,44.7,30.29,South,185,0.0,0.0,73,0.00,,,-99.99,92.0,HOBO +U30 +Weather +,2013-04-26 12:22:00,
2013-04-26 08:23:00,52.8,45.0,30.29,South,181,0.0,0.0,74,0.00,,,-99.99,92.0,HOBO +U30 +Weather +,2013-04-26 12:23:00,
2013-04-26 08:24:00,53.0,44.9,30.29,WSW,237,0.0,0.0,74,0.00,,,-99.99,91.0,HOBO +U30 +Weather +,2013-04-26 12:24:00,
2013-04-26 08:25:00,53.1,44.6,30.29,South,190,0.0,0.0,72,0.00,,,-99.99,92.0,HOBO +U30 +Weather +,2013-04-26 12:25:00,
2013-04-26 08:26:00,53.3,45.1,30.29,SSW,198,0.0,0.0,73,0.00,,,-99.99,92.0,HOBO +U30 +Weather +,2013-04-26 12:26:00,
2013-04-26 08:27:00,53.6,45.6,30.29,SSW,209,0.0,0.0,74,0.00,,,-99.99,93.0,HOBO +U30 +Weather +,2013-04-26 12:27:00,
2013-04-26 08:28:00,53.7,45.0,30.29,SSW,201,0.0,0.0,72,0.00,,,-99.99,94.0,HOBO +U30 +Weather +,2013-04-26 12:28:00,
2013-04-26 08:29:00,53.8,45.2,30.29,South,187,0.0,0.0,72,0.00,,,-99.99,94.0,HOBO +U30 +Weather +,2013-04-26 12:29:00,
2013-04-26 08:30:00,53.7,44.6,30.29,South,190,0.0,0.0,71,0.00,,,-99.99,96.0,HOBO +U30 +Weather +,2013-04-26 12:30:00,
2013-04-26 08:31:00,53.7,44.8,30.29,SSW,198,0.0,0.0,71,0.00,,,-99.99,96.0,HOBO +U30 +Weather +,2013-04-26 12:31:00,
2013-04-26 08:32:00,53.7,44.8,30.29,SSW,194,0.0,0.0,71,0.00,,,-99.99,96.0,HOBO +U30 +Weather +,2013-04-26 12:32:00,
2013-04-26 08:33:00,53.8,44.5,30.29,SSW,202,0.0,0.0,70,0.00,,,-99.99,97.0,HOBO +U30 +Weather +,2013-04-26 12:33:00,
2013-04-26 08:34:00,53.8,44.3,30.29,SSW,192,0.0,0.0,70,0.00,,,-99.99,97.0,HOBO +U30 +Weather +,2013-04-26 12:34:00,
2013-04-26 08:35:00,53.7,43.8,30.29,SSW,195,0.0,0.0,68,0.00,,,-99.99,98.0,HOBO +U30 +Weather +,2013-04-26 12:35:00,
2013-04-26 08:36:00,53.9,44.8,30.29,SW,230,0.0,0.0,71,0.00,,,-99.99,98.0,HOBO +U30 +Weather +,2013-04-26 12:36:00,
2013-04-26 08:37:00,53.9,44.9,30.29,South,171,0.0,0.0,71,0.00,,,-99.99,99.0,HOBO +U30 +Weather +,2013-04-26 12:37:00,
2013-04-26 08:38:00,54.0,44.4,30.29,SSW,199,0.0,0.0,69,0.00,,,-99.99,98.0,HOBO +U30 +Weather +,2013-04-26 12:38:00,
2013-04-26 08:39:00,54.2,44.8,30.29,WSW,246,0.0,0.0,70,0.00,,,-99.99,99.0,HOBO +U30 +Weather +,2013-04-26 12:39:00,
2013-04-26 08:40:00,54.4,45.1,30.30,West,267,0.0,0.0,70,0.00,,,-99.99,99.0,HOBO +U30 +Weather +,2013-04-26 12:40:00,
2013-04-26 08:41:00,54.6,45.3,30.29,SW,225,0.0,0.0,70,0.00,,,-99.99,101.0,HOBO +U30 +Weather +,2013-04-26 12:41:00,
2013-04-26 08:42:00,54.8,44.7,30.29,SSW,212,0.0,0.0,68,0.00,,,-99.99,102.0,HOBO +U30 +Weather +,2013-04-26 12:42:00,
2013-04-26 08:43:00,54.8,45.2,30.30,South,178,0.0,0.0,70,0.00,,,-99.99,102.0,HOBO +U30 +Weather +,2013-04-26 12:43:00,
2013-04-26 08:44:00,54.8,44.7,30.29,WSW,258,0.0,0.0,68,0.00,,,-99.99,102.0,HOBO +U30 +Weather +,2013-04-26 12:44:00,
2013-04-26 08:45:00,54.9,44.5,30.29,SW,234,0.0,0.0,67,0.00,,,-99.99,104.0,HOBO +U30 +Weather +,2013-04-26 12:45:00,
2013-04-26 08:46:00,54.9,44.6,30.29,South,185,0.0,0.0,68,0.00,,,-99.99,102.0,HOBO +U30 +Weather +,2013-04-26 12:46:00,
2013-04-26 08:47:00,55.0,44.7,30.29,South,188,0.0,0.0,68,0.00,,,-99.99,104.0,HOBO +U30 +Weather +,2013-04-26 12:47:00,
2013-04-26 08:48:00,55.0,44.5,30.29,South,181,0.0,0.0,67,0.00,,,-99.99,104.0,HOBO +U30 +Weather +,2013-04-26 12:48:00,
2013-04-26 08:49:00,55.0,44.0,30.29,South,180,0.0,0.0,66,0.00,,,-99.99,104.0,HOBO +U30 +Weather +,2013-04-26 12:49:00,
2013-04-26 08:50:00,55.1,44.6,30.29,South,188,0.0,0.0,67,0.00,,,-99.99,106.0,HOBO +U30 +Weather +,2013-04-26 12:50:00,
2013-04-26 08:51:00,55.1,44.0,30.29,South,181,0.0,0.0,65,0.00,,,-99.99,107.0,HOBO +U30 +Weather +,2013-04-26 12:51:00,
2013-04-26 08:52:00,55.1,44.3,30.29,SSW,205,0.0,0.0,66,0.00,,,-99.99,106.0,HOBO +U30 +Weather +,2013-04-26 12:52:00,
2013-04-26 08:53:00,55.4,45.6,30.29,SSW,208,0.0,0.0,69,0.00,,,-99.99,106.0,HOBO +U30 +Weather +,2013-04-26 12:53:00,
2013-04-26 08:54:00,55.6,44.2,30.29,SSW,199,0.0,0.0,65,0.00,,,-99.99,107.0,HOBO +U30 +Weather +,2013-04-26 12:54:00,
2013-04-26 08:55:00,55.7,44.0,30.29,South,187,0.0,0.0,64,0.00,,,-99.99,107.0,HOBO +U30 +Weather +,2013-04-26 12:55:00,
2013-04-26 08:56:00,55.6,43.6,30.29,SSW,199,0.0,0.0,64,0.00,,,-99.99,108.0,HOBO +U30 +Weather +,2013-04-26 12:56:00,
2013-04-26 08:57:00,55.8,44.8,30.29,SSW,209,0.0,0.0,66,0.00,,,-99.99,108.0,HOBO +U30 +Weather +,2013-04-26 12:57:00,
2013-04-26 08:58:00,55.9,44.1,30.29,WSW,247,0.0,0.0,64,0.00,,,-99.99,108.0,HOBO +U30 +Weather +,2013-04-26 12:58:00,
2013-04-26 08:59:00,56.1,44.6,30.29,SSW,194,0.0,0.0,65,0.00,,,-99.99,111.0,HOBO +U30 +Weather +,2013-04-26 12:59:00,
2013-04-26 09:00:00,56.0,43.4,30.29,SW,227,0.0,0.0,62,0.00,,,-99.99,109.0,HOBO +U30 +Weather +,2013-04-26 13:00:00,
2013-04-26 09:01:00,56.2,44.5,30.29,SW,229,0.0,0.0,64,0.00,,,-99.99,109.0,HOBO +U30 +Weather +,2013-04-26 13:01:00,
2013-04-26 09:02:00,56.3,44.0,30.29,SSW,194,0.0,0.0,63,0.00,,,-99.99,111.0,HOBO +U30 +Weather +,2013-04-26 13:02:00,
2013-04-26 09:03:00,56.3,44.1,30.29,South,184,0.0,0.0,63,0.00,,,-99.99,111.0,HOBO +U30 +Weather +,2013-04-26 13:03:00,
2013-04-26 09:04:00,56.5,44.2,30.29,SSW,194,0.0,0.0,63,0.00,,,-99.99,111.0,HOBO +U30 +Weather +,2013-04-26 13:04:00,
2013-04-26 09:05:00,56.5,43.8,30.29,South,177,0.0,0.0,62,0.00,,,-99.99,113.0,HOBO +U30 +Weather +,2013-04-26 13:05:00,
2013-04-26 09:06:00,56.8,45.2,30.29,South,170,0.0,0.0,65,0.00,,,-99.99,113.0,HOBO +U30 +Weather +,2013-04-26 13:06:00,
2013-04-26 09:07:00,56.9,44.6,30.29,SSW,201,0.0,0.0,63,0.00,,,-99.99,112.0,HOBO +U30 +Weather +,2013-04-26 13:07:00,
2013-04-26 09:08:00,57.3,45.6,30.29,SW,233,0.0,0.0,64,0.00,,,-99.99,112.0,HOBO +U30 +Weather +,2013-04-26 13:08:00,
2013-04-26 09:09:00,57.5,44.3,30.29,SSW,209,0.0,0.0,61,0.00,,,-99.99,114.0,HOBO +U30 +Weather +,2013-04-26 13:09:00,
2013-04-26 09:10:00,57.6,45.4,30.29,SW,230,0.0,0.0,63,0.00,,,-99.99,113.0,HOBO +U30 +Weather +,2013-04-26 13:10:00,
2013-04-26 09:11:00,57.8,44.9,30.29,SW,233,0.0,0.0,62,0.00,,,-99.99,113.0,HOBO +U30 +Weather +,2013-04-26 13:11:00,
2013-04-26 09:12:00,58.0,44.6,30.29,WSW,240,0.0,0.0,60,0.00,,,-99.99,113.0,HOBO +U30 +Weather +,2013-04-26 13:12:00,
2013-04-26 09:13:00,58.1,44.5,30.30,SSW,195,0.0,0.0,60,0.00,,,-99.99,116.0,HOBO +U30 +Weather +,2013-04-26 13:13:00,
2013-04-26 09:14:00,58.2,44.5,30.30,WSW,257,0.0,0.0,60,0.00,,,-99.99,114.0,HOBO +U30 +Weather +,2013-04-26 13:14:00,
2013-04-26 09:15:00,58.1,43.4,30.29,WNW,284,0.0,0.0,57,0.00,,,-99.99,116.0,HOBO +U30 +Weather +,2013-04-26 13:15:00,
2013-04-26 09:16:00,58.0,44.2,30.29,WSW,257,0.0,0.0,59,0.00,,,-99.99,116.0,HOBO +U30 +Weather +,2013-04-26 13:16:00,
2013-04-26 09:17:00,58.2,43.8,30.30,WSW,246,0.0,0.0,58,0.00,,,-99.99,117.0,HOBO +U30 +Weather +,2013-04-26 13:17:00,
2013-04-26 09:18:00,58.4,44.7,30.29,SSW,212,0.0,0.0,60,0.00,,,-99.99,118.0,HOBO +U30 +Weather +,2013-04-26 13:18:00,
2013-04-26 09:19:00,58.7,44.7,30.30,South,187,0.0,0.0,59,0.00,,,-99.99,118.0,HOBO +U30 +Weather +,2013-04-26 13:19:00,
2013-04-26 09:20:00,59.1,45.0,30.30,South,187,0.0,0.0,59,0.00,,,-99.99,118.0,HOBO +U30 +Weather +,2013-04-26 13:20:00,
2013-04-26 09:21:00,59.5,45.3,30.30,South,187,0.0,0.0,59,0.00,,,-99.99,118.0,HOBO +U30 +Weather +,2013-04-26 13:21:00,
2013-04-26 09:22:00,59.7,44.8,30.30,South,187,0.0,0.0,57,0.00,,,-99.99,119.0,HOBO +U30 +Weather +,2013-04-26 13:22:00,
2013-04-26 09:23:00,60.0,44.5,30.30,South,177,0.0,0.0,56,0.00,,,-99.99,121.0,HOBO +U30 +Weather +,2013-04-26 13:23:00,
2013-04-26 09:24:00,60.1,44.6,30.30,South,184,0.0,0.0,56,0.00,,,-99.99,119.0,HOBO +U30 +Weather +,2013-04-26 13:24:00,
2013-04-26 09:25:00,60.4,45.7,30.29,South,185,0.0,0.0,58,0.00,,,-99.99,119.0,HOBO +U30 +Weather +,2013-04-26 13:25:00,
2013-04-26 09:26:00,60.8,45.5,30.29,SW,226,0.0,0.0,57,0.00,,,-99.99,119.0,HOBO +U30 +Weather +,2013-04-26 13:26:00,
2013-04-26 09:27:00,61.1,45.2,30.30,WSW,239,0.0,0.0,55,0.00,,,-99.99,119.0,HOBO +U30 +Weather +,2013-04-26 13:27:00,
2013-04-26 09:28:00,61.5,46.5,30.29,WSW,246,0.0,0.0,57,0.00,,,-99.99,119.0,HOBO +U30 +Weather +,2013-04-26 13:28:00,
2013-04-26 09:29:00,61.7,45.2,30.29,West,271,0.0,0.0,54,0.00,,,-99.99,121.0,HOBO +U30 +Weather +,2013-04-26 13:29:00,
2013-04-26 09:30:00,61.8,45.5,30.29,WSW,237,0.0,0.0,55,0.00,,,-99.99,121.0,HOBO +U30 +Weather +,2013-04-26 13:30:00,
2013-04-26 09:31:00,61.8,44.9,30.30,SSW,197,0.0,0.0,53,0.00,,,-99.99,123.0,HOBO +U30 +Weather +,2013-04-26 13:31:00,
2013-04-26 09:32:00,61.9,45.8,30.30,WNW,303,0.0,0.0,55,0.00,,,-99.99,123.0,HOBO +U30 +Weather +,2013-04-26 13:32:00,
2013-04-26 09:33:00,61.9,45.4,30.30,NW,305,0.0,0.0,54,0.00,,,-99.99,123.0,HOBO +U30 +Weather +,2013-04-26 13:33:00,
2013-04-26 09:34:00,62.1,46.6,30.30,NW,305,0.0,0.0,56,0.00,,,-99.99,123.0,HOBO +U30 +Weather +,2013-04-26 13:34:00,
2013-04-26 09:35:00,62.3,46.2,30.30,WNW,285,0.0,0.0,55,0.00,,,-99.99,122.0,HOBO +U30 +Weather +,2013-04-26 13:35:00,
2013-04-26 09:36:00,62.5,45.7,30.31,WSW,240,0.0,0.0,54,0.00,,,-99.99,123.0,HOBO +U30 +Weather +,2013-04-26 13:36:00,
2013-04-26 09:37:00,62.8,45.3,30.30,West,260,0.0,0.0,52,0.00,,,-99.99,123.0,HOBO +U30 +Weather +,2013-04-26 13:37:00,
2013-04-26 09:38:00,63.2,45.1,30.31,SW,218,0.0,0.0,51,0.00,,,-99.99,123.0,HOBO +U30 +Weather +,2013-04-26 13:38:00,
2013-04-26 09:39:00,63.8,45.6,30.31,SW,218,0.0,0.0,51,0.00,,,-99.99,123.0,HOBO +U30 +Weather +,2013-04-26 13:39:00,
2013-04-26 09:40:00,64.3,45.7,30.30,WSW,258,0.0,0.0,50,0.00,,,-99.99,124.0,HOBO +U30 +Weather +,2013-04-26 13:40:00,
2013-04-26 09:41:00,63.9,43.6,30.30,West,265,0.0,0.0,47,0.00,,,-99.99,126.0,HOBO +U30 +Weather +,2013-04-26 13:41:00,
2013-04-26 09:42:00,63.4,43.1,30.30,WNW,298,0.0,0.0,47,0.00,,,-99.99,127.0,HOBO +U30 +Weather +,2013-04-26 13:42:00,
2013-04-26 09:43:00,63.0,43.5,30.30,WNW,291,0.0,0.0,48,0.00,,,-99.99,127.0,HOBO +U30 +Weather +,2013-04-26 13:43:00,
2013-04-26 09:44:00,62.9,43.2,30.31,SW,230,0.0,0.0,48,0.00,,,-99.99,126.0,HOBO +U30 +Weather +,2013-04-26 13:44:00,
2013-04-26 09:45:00,63.2,43.9,30.31,SSW,204,0.0,0.0,49,0.00,,,-99.99,126.0,HOBO +U30 +Weather +,2013-04-26 13:45:00,
2013-04-26 09:46:00,63.9,45.3,30.30,SSW,199,0.0,0.0,50,0.00,,,-99.99,126.0,HOBO +U30 +Weather +,2013-04-26 13:46:00,
2013-04-26 09:47:00,64.5,45.4,30.30,SW,232,0.0,0.0,49,0.00,,,-99.99,127.0,HOBO +U30 +Weather +,2013-04-26 13:47:00,
2013-04-26 09:48:00,64.2,43.8,30.31,SSW,197,0.0,0.0,47,0.00,,,-99.99,128.0,HOBO +U30 +Weather +,2013-04-26 13:48:00,
2013-04-26 09:49:00,64.7,44.8,30.30,SSW,192,0.0,0.0,48,0.00,,,-99.99,127.0,HOBO +U30 +Weather +,2013-04-26 13:49:00,
2013-04-26 09:50:00,64.9,44.2,30.31,SSW,204,0.0,0.0,47,0.00,,,-99.99,127.0,HOBO +U30 +Weather +,2013-04-26 13:50:00,
2013-04-26 09:51:00,65.2,45.4,30.31,SW,215,0.0,0.0,48,0.00,,,-99.99,127.0,HOBO +U30 +Weather +,2013-04-26 13:51:00,
2013-04-26 09:52:00,65.3,44.5,30.30,SSW,205,0.0,0.0,46,0.00,,,-99.99,127.0,HOBO +U30 +Weather +,2013-04-26 13:52:00,
2013-04-26 09:53:00,65.0,43.4,30.30,SSW,209,0.0,0.0,45,0.00,,,-99.99,128.0,HOBO +U30 +Weather +,2013-04-26 13:53:00,
2013-04-26 09:54:00,65.3,45.1,30.30,SW,222,0.0,0.0,47,0.00,,,-99.99,128.0,HOBO +U30 +Weather +,2013-04-26 13:54:00,
2013-04-26 09:55:00,65.8,45.0,30.30,SW,222,0.0,0.0,47,0.00,,,-99.99,128.0,HOBO +U30 +Weather +,2013-04-26 13:55:00,
2013-04-26 09:56:00,66.1,44.3,30.30,SSW,213,0.0,0.0,45,0.00,,,-99.99,131.0,HOBO +U30 +Weather +,2013-04-26 13:56:00,
2013-04-26 09:57:00,65.8,43.2,30.30,South,181,0.0,0.0,43,0.00,,,-99.99,131.0,HOBO +U30 +Weather +,2013-04-26 13:57:00,
2013-04-26 09:58:00,65.8,44.7,30.30,South,173,0.0,0.0,46,0.00,,,-99.99,132.0,HOBO +U30 +Weather +,2013-04-26 13:58:00,
2013-04-26 09:59:00,66.4,45.9,30.30,South,183,0.0,0.0,47,0.00,,,-99.99,131.0,HOBO +U30 +Weather +,2013-04-26 13:59:00,
2013-04-26 10:00:00,67.0,47.0,30.30,SW,220,0.0,0.0,48,0.00,,,-99.99,131.0,HOBO +U30 +Weather +,2013-04-26 14:00:00,
2013-04-26 10:01:00,67.5,46.6,30.30,West,263,0.0,0.0,47,0.00,,,-99.99,133.0,HOBO +U30 +Weather +,2013-04-26 14:01:00,
2013-04-26 10:02:00,66.9,45.3,30.30,NW,307,0.0,0.0,45,0.00,,,-99.99,133.0,HOBO +U30 +Weather +,2013-04-26 14:02:00,
2013-04-26 10:03:00,66.5,45.8,30.31,NW,305,0.0,0.0,47,0.00,,,-99.99,133.0,HOBO +U30 +Weather +,2013-04-26 14:03:00,
2013-04-26 10:04:00,66.3,45.2,30.30,NW,321,0.0,0.0,46,0.00,,,-99.99,134.0,HOBO +U30 +Weather +,2013-04-26 14:04:00,
2013-04-26 10:05:00,66.1,44.5,30.30,NW,324,0.0,0.0,45,0.00,,,-99.99,134.0,HOBO +U30 +Weather +,2013-04-26 14:05:00,
2013-04-26 10:06:00,65.6,45.0,30.30,NW,324,0.0,0.0,47,0.00,,,-99.99,134.0,HOBO +U30 +Weather +,2013-04-26 14:06:00,
2013-04-26 10:07:00,65.8,45.4,30.30,West,275,0.0,0.0,47,0.00,,,-99.99,134.0,HOBO +U30 +Weather +,2013-04-26 14:07:00,
2013-04-26 10:08:00,65.8,45.1,30.30,NW,316,0.0,0.0,47,0.00,,,-99.99,134.0,HOBO +U30 +Weather +,2013-04-26 14:08:00,
2013-04-26 10:09:00,66.1,44.8,30.31,South,187,0.0,0.0,46,0.00,,,-99.99,136.0,HOBO +U30 +Weather +,2013-04-26 14:09:00,
2013-04-26 10:10:00,66.7,45.5,30.30,SSW,199,0.0,0.0,46,0.00,,,-99.99,134.0,HOBO +U30 +Weather +,2013-04-26 14:10:00,
2013-04-26 10:11:00,66.9,45.0,30.30,SSW,198,0.0,0.0,45,0.00,,,-99.99,134.0,HOBO +U30 +Weather +,2013-04-26 14:11:00,
2013-04-26 10:12:00,67.2,45.8,30.30,SSW,198,0.0,0.0,46,0.00,,,-99.99,134.0,HOBO +U30 +Weather +,2013-04-26 14:12:00,
2013-04-26 10:13:00,67.5,45.2,30.30,SSW,201,0.0,0.0,44,0.00,,,-99.99,137.0,HOBO +U30 +Weather +,2013-04-26 14:13:00,
2013-04-26 10:14:00,67.5,44.7,30.30,West,277,0.0,0.0,43,0.00,,,-99.99,137.0,HOBO +U30 +Weather +,2013-04-26 14:14:00,
2013-04-26 10:15:00,67.1,44.7,30.30,NW,309,0.0,0.0,44,0.00,,,-99.99,137.0,HOBO +U30 +Weather +,2013-04-26 14:15:00,
2013-04-26 10:16:00,67.1,46.5,30.30,WNW,284,0.0,0.0,47,0.00,,,-99.99,136.0,HOBO +U30 +Weather +,2013-04-26 14:16:00,
2013-04-26 10:17:00,67.9,47.2,30.30,SW,227,0.0,0.0,47,0.00,,,-99.99,136.0,HOBO +U30 +Weather +,2013-04-26 14:17:00,
2013-04-26 10:18:00,68.6,47.2,30.30,SW,227,0.0,0.0,46,0.00,,,-99.99,138.0,HOBO +U30 +Weather +,2013-04-26 14:18:00,
2013-04-26 10:19:00,68.6,47.0,30.30,WNW,284,0.0,0.0,45,0.00,,,-99.99,138.0,HOBO +U30 +Weather +,2013-04-26 14:19:00,
2013-04-26 10:20:00,68.9,45.2,30.30,NW,309,0.0,0.0,42,0.00,,,-99.99,138.0,HOBO +U30 +Weather +,2013-04-26 14:20:00,
2013-04-26 10:21:00,67.9,44.9,30.30,NW,320,0.0,0.0,43,0.00,,,-99.99,139.0,HOBO +U30 +Weather +,2013-04-26 14:21:00,
2013-04-26 10:22:00,67.4,44.7,30.30,NW,319,0.0,0.0,43,0.00,,,-99.99,138.0,HOBO +U30 +Weather +,2013-04-26 14:22:00,
2013-04-26 10:23:00,67.7,46.2,30.30,WNW,289,0.0,0.0,46,0.00,,,-99.99,138.0,HOBO +U30 +Weather +,2013-04-26 14:23:00,
2013-04-26 10:24:00,68.0,45.4,30.30,South,190,0.0,0.0,44,0.00,,,-99.99,139.0,HOBO +U30 +Weather +,2013-04-26 14:24:00,
2013-04-26 10:25:00,68.2,47.4,30.30,SSE,156,0.0,0.0,47,0.00,,,-99.99,139.0,HOBO +U30 +Weather +,2013-04-26 14:25:00,
2013-04-26 10:26:00,68.8,45.4,30.31,SSE,161,0.0,0.0,42,0.00,,,-99.99,141.0,HOBO +U30 +Weather +,2013-04-26 14:26:00,
2013-04-26 10:27:00,68.8,46.0,30.31,South,185,0.0,0.0,43,0.00,,,-99.99,139.0,HOBO +U30 +Weather +,2013-04-26 14:27:00,
2013-04-26 10:28:00,69.0,45.3,30.31,West,268,0.0,0.0,42,0.00,,,-99.99,141.0,HOBO +U30 +Weather +,2013-04-26 14:28:00,
2013-04-26 10:29:00,69.0,45.6,30.30,NW,309,0.0,0.0,43,0.00,,,-99.99,141.0,HOBO +U30 +Weather +,2013-04-26 14:29:00,
2013-04-26 10:30:00,69.5,45.6,30.31,West,272,0.0,0.0,42,0.00,,,-99.99,139.0,HOBO +U30 +Weather +,2013-04-26 14:30:00,
2013-04-26 10:31:00,69.9,44.6,30.30,West,263,0.0,0.0,40,0.00,,,-99.99,139.0,HOBO +U30 +Weather +,2013-04-26 14:31:00,
2013-04-26 10:32:00,70.0,46.8,30.31,WSW,258,0.0,0.0,43,0.00,,,-99.99,139.0,HOBO +U30 +Weather +,2013-04-26 14:32:00,
2013-04-26 10:33:00,69.9,45.8,30.31,SSW,192,0.0,0.0,41,0.00,,,-99.99,139.0,HOBO +U30 +Weather +,2013-04-26 14:33:00,
2013-04-26 10:34:00,69.7,46.1,30.31,SW,216,0.0,0.0,42,0.00,,,-99.99,142.0,HOBO +U30 +Weather +,2013-04-26 14:34:00,
2013-04-26 10:35:00,69.0,46.4,30.30,South,177,0.0,0.0,44,0.00,,,-99.99,141.0,HOBO +U30 +Weather +,2013-04-26 14:35:00,
2013-04-26 10:36:00,68.2,46.2,30.31,South,178,0.0,0.0,45,0.00,,,-99.99,142.0,HOBO +U30 +Weather +,2013-04-26 14:36:00,
2013-04-26 10:37:00,68.2,46.9,30.31,SW,223,0.0,0.0,46,0.00,,,-99.99,139.0,HOBO +U30 +Weather +,2013-04-26 14:37:00,
2013-04-26 10:38:00,68.9,47.5,30.31,SW,225,0.0,0.0,46,0.00,,,-99.99,143.0,HOBO +U30 +Weather +,2013-04-26 14:38:00,
2013-04-26 10:39:00,68.5,46.8,30.31,East,91,0.0,0.0,45,0.00,,,-99.99,142.0,HOBO +U30 +Weather +,2013-04-26 14:39:00,
2013-04-26 10:40:00,68.4,46.0,30.31,South,183,0.0,0.0,44,0.00,,,-99.99,142.0,HOBO +U30 +Weather +,2013-04-26 14:40:00,
2013-04-26 10:41:00,69.0,48.5,30.31,South,183,0.0,0.0,48,0.00,,,-99.99,143.0,HOBO +U30 +Weather +,2013-04-26 14:41:00,
2013-04-26 10:42:00,69.5,48.0,30.31,South,183,0.0,0.0,46,0.00,,,-99.99,143.0,HOBO +U30 +Weather +,2013-04-26 14:42:00,
2013-04-26 10:43:00,69.4,46.6,30.31,South,184,0.0,0.0,44,0.00,,,-99.99,143.0,HOBO +U30 +Weather +,2013-04-26 14:43:00,
2013-04-26 10:44:00,69.9,48.8,30.31,South,185,0.0,0.0,46,0.00,,,-99.99,143.0,HOBO +U30 +Weather +,2013-04-26 14:44:00,
2013-04-26 10:45:00,69.7,47.6,30.31,South,184,0.0,0.0,45,0.00,,,-99.99,144.0,HOBO +U30 +Weather +,2013-04-26 14:45:00,
2013-04-26 10:46:00,70.0,47.6,30.31,South,187,0.0,0.0,44,0.00,,,-99.99,143.0,HOBO +U30 +Weather +,2013-04-26 14:46:00,
2013-04-26 10:47:00,69.9,47.5,30.31,South,188,0.0,0.0,44,0.00,,,-99.99,144.0,HOBO +U30 +Weather +,2013-04-26 14:47:00,
2013-04-26 10:48:00,69.7,47.9,30.31,SSW,194,0.0,0.0,45,0.00,,,-99.99,143.0,HOBO +U30 +Weather +,2013-04-26 14:48:00,
2013-04-26 10:49:00,69.9,47.5,30.31,SSW,195,0.0,0.0,44,0.00,,,-99.99,143.0,HOBO +U30 +Weather +,2013-04-26 14:49:00,
2013-04-26 10:50:00,70.2,48.2,30.31,SW,219,0.0,0.0,45,0.00,,,-99.99,144.0,HOBO +U30 +Weather +,2013-04-26 14:50:00,
2013-04-26 10:51:00,70.8,49.3,30.31,West,274,0.0,0.0,46,0.00,,,-99.99,144.0,HOBO +U30 +Weather +,2013-04-26 14:51:00,
2013-04-26 10:52:00,71.4,49.7,30.30,WNW,282,0.0,0.0,46,0.00,,,-99.99,144.0,HOBO +U30 +Weather +,2013-04-26 14:52:00,
2013-04-26 10:53:00,71.7,48.5,30.31,West,260,0.0,0.0,43,0.00,,,-99.99,147.0,HOBO +U30 +Weather +,2013-04-26 14:53:00,
2013-04-26 10:54:00,71.4,49.4,30.31,WSW,237,0.0,0.0,45,0.00,,,-99.99,146.0,HOBO +U30 +Weather +,2013-04-26 14:54:00,
2013-04-26 10:55:00,71.3,48.2,30.31,WNW,282,0.0,0.0,43,0.00,,,-99.99,147.0,HOBO +U30 +Weather +,2013-04-26 14:55:00,
2013-04-26 10:56:00,70.9,46.8,30.30,NW,317,0.0,0.0,42,0.00,,,-99.99,147.0,HOBO +U30 +Weather +,2013-04-26 14:56:00,
2013-04-26 10:57:00,70.9,45.3,30.31,WNW,299,0.0,0.0,39,0.00,,,-99.99,146.0,HOBO +U30 +Weather +,2013-04-26 14:57:00,
2013-04-26 10:58:00,71.2,46.2,30.30,West,277,0.0,0.0,40,0.00,,,-99.99,147.0,HOBO +U30 +Weather +,2013-04-26 14:58:00,
2013-04-26 10:59:00,71.5,47.0,30.30,SSW,192,0.0,0.0,41,0.00,,,-99.99,147.0,HOBO +U30 +Weather +,2013-04-26 14:59:00,
2013-04-26 11:00:00,71.5,45.9,30.31,South,180,0.0,0.0,39,0.00,,,-99.99,148.0,HOBO +U30 +Weather +,2013-04-26 15:00:00,
2013-04-26 11:01:00,71.4,45.9,30.31,SSW,213,0.0,0.0,40,0.00,,,-99.99,146.0,HOBO +U30 +Weather +,2013-04-26 15:01:00,
2013-04-26 11:02:00,71.5,46.4,30.31,SW,225,0.0,0.0,40,0.00,,,-99.99,146.0,HOBO +U30 +Weather +,2013-04-26 15:02:00,
2013-04-26 11:03:00,71.0,47.4,30.31,WNW,295,0.0,0.0,43,0.00,,,-99.99,148.0,HOBO +U30 +Weather +,2013-04-26 15:03:00,
2013-04-26 11:04:00,70.8,48.2,30.30,SSW,204,0.0,0.0,44,0.00,,,-99.99,147.0,HOBO +U30 +Weather +,2013-04-26 15:04:00,
2013-04-26 11:05:00,71.2,48.5,30.31,West,277,0.0,0.0,44,0.00,,,-99.99,148.0,HOBO +U30 +Weather +,2013-04-26 15:05:00,
2013-04-26 11:06:00,70.9,47.7,30.30,West,281,0.0,0.0,43,0.00,,,-99.99,148.0,HOBO +U30 +Weather +,2013-04-26 15:06:00,
2013-04-26 11:07:00,69.9,46.0,30.30,NW,306,0.0,0.0,42,0.00,,,-99.99,149.0,HOBO +U30 +Weather +,2013-04-26 15:07:00,
2013-04-26 11:08:00,70.2,49.4,30.31,WNW,298,0.0,0.0,47,0.00,,,-99.99,149.0,HOBO +U30 +Weather +,2013-04-26 15:08:00,
2013-04-26 11:09:00,70.0,46.5,30.30,West,263,0.0,0.0,43,0.00,,,-99.99,148.0,HOBO +U30 +Weather +,2013-04-26 15:09:00,
2013-04-26 11:10:00,70.6,47.7,30.30,South,185,0.0,0.0,44,0.00,,,-99.99,148.0,HOBO +U30 +Weather +,2013-04-26 15:10:00,
2013-04-26 11:11:00,70.7,47.8,30.30,SSW,192,0.0,0.0,44,0.00,,,-99.99,148.0,HOBO +U30 +Weather +,2013-04-26 15:11:00,
2013-04-26 11:12:00,70.7,46.6,30.31,South,188,0.0,0.0,42,0.00,,,-99.99,149.0,HOBO +U30 +Weather +,2013-04-26 15:12:00,
2013-04-26 11:13:00,70.4,47.4,30.30,South,184,0.0,0.0,43,0.00,,,-99.99,149.0,HOBO +U30 +Weather +,2013-04-26 15:13:00,
2013-04-26 11:14:00,69.9,46.3,30.31,South,173,0.0,0.0,42,0.00,,,-99.99,151.0,HOBO +U30 +Weather +,2013-04-26 15:14:00,
2013-04-26 11:15:00,70.7,47.4,30.30,South,173,0.0,0.0,43,0.00,,,-99.99,149.0,HOBO +U30 +Weather +,2013-04-26 15:15:00,
2013-04-26 11:16:00,70.6,45.0,30.30,SW,218,0.0,0.0,39,0.00,,,-99.99,149.0,HOBO +U30 +Weather +,2013-04-26 15:16:00,
2013-04-26 11:17:00,70.7,46.2,30.30,WNW,282,0.0,0.0,41,0.00,,,-99.99,148.0,HOBO +U30 +Weather +,2013-04-26 15:17:00,
2013-04-26 11:18:00,71.1,45.1,30.31,SW,232,0.0,0.0,39,0.00,,,-99.99,148.0,HOBO +U30 +Weather +,2013-04-26 15:18:00,
2013-04-26 11:19:00,71.3,45.3,30.31,WSW,243,0.0,0.0,39,0.00,,,-99.99,148.0,HOBO +U30 +Weather +,2013-04-26 15:19:00,
2013-04-26 11:20:00,71.7,44.2,30.30,SW,222,0.0,0.0,37,0.00,,,-99.99,149.0,HOBO +U30 +Weather +,2013-04-26 15:20:00,
2013-04-26 11:21:00,71.6,45.2,30.31,WSW,240,0.0,0.0,38,0.00,,,-99.99,149.0,HOBO +U30 +Weather +,2013-04-26 15:21:00,
2013-04-26 11:22:00,72.6,47.0,30.31,SSW,208,0.0,0.0,40,0.00,,,-99.99,149.0,HOBO +U30 +Weather +,2013-04-26 15:22:00,
2013-04-26 11:23:00,73.0,45.1,30.31,SSW,202,0.0,0.0,36,0.00,,,-99.99,149.0,HOBO +U30 +Weather +,2013-04-26 15:23:00,
2013-04-26 11:24:00,73.5,47.0,30.31,South,191,0.0,0.0,39,0.00,,,-99.99,149.0,HOBO +U30 +Weather +,2013-04-26 15:24:00,
2013-04-26 11:25:00,73.2,44.8,30.31,WSW,248,0.0,0.0,36,0.00,,,-99.99,151.0,HOBO +U30 +Weather +,2013-04-26 15:25:00,
2013-04-26 11:26:00,72.8,44.5,30.30,South,183,0.0,0.0,36,0.00,,,-99.99,152.0,HOBO +U30 +Weather +,2013-04-26 15:26:00,
2013-04-26 11:27:00,73.1,45.5,30.30,SW,232,0.0,0.0,37,0.00,,,-99.99,152.0,HOBO +U30 +Weather +,2013-04-26 15:27:00,
2013-04-26 11:28:00,72.8,46.8,30.30,NW,310,0.0,0.0,39,0.00,,,-99.99,152.0,HOBO +U30 +Weather +,2013-04-26 15:28:00,
2013-04-26 11:29:00,71.9,44.3,30.30,NW,312,0.0,0.0,37,0.00,,,-99.99,152.0,HOBO +U30 +Weather +,2013-04-26 15:29:00,
2013-04-26 11:30:00,71.2,45.1,30.30,NW,309,0.0,0.0,39,0.00,,,-99.99,152.0,HOBO +U30 +Weather +,2013-04-26 15:30:00,
2013-04-26 11:31:00,71.4,43.8,30.30,SW,226,0.0,0.0,37,0.00,,,-99.99,151.0,HOBO +U30 +Weather +,2013-04-26 15:31:00,
2013-04-26 11:32:00,71.1,43.4,30.30,WSW,237,0.0,0.0,36,0.00,,,-99.99,152.0,HOBO +U30 +Weather +,2013-04-26 15:32:00,
2013-04-26 11:33:00,70.9,44.7,30.30,NW,307,0.0,0.0,38,0.00,,,-99.99,152.0,HOBO +U30 +Weather +,2013-04-26 15:33:00,
2013-04-26 11:34:00,71.4,45.9,30.30,WNW,284,0.0,0.0,40,0.00,,,-99.99,153.0,HOBO +U30 +Weather +,2013-04-26 15:34:00,
2013-04-26 11:35:00,71.5,45.7,30.30,WNW,282,0.0,0.0,39,0.00,,,-99.99,152.0,HOBO +U30 +Weather +,2013-04-26 15:35:00,
2013-04-26 11:36:00,72.2,44.6,30.30,SW,230,0.0,0.0,37,0.00,,,-99.99,152.0,HOBO +U30 +Weather +,2013-04-26 15:36:00,
2013-04-26 11:37:00,71.6,43.9,30.30,WNW,299,0.0,0.0,36,0.00,,,-99.99,153.0,HOBO +U30 +Weather +,2013-04-26 15:37:00,
2013-04-26 11:38:00,71.6,43.8,30.30,WSW,258,0.0,0.0,36,0.00,,,-99.99,152.0,HOBO +U30 +Weather +,2013-04-26 15:38:00,
2013-04-26 11:39:00,70.6,43.9,30.30,WNW,299,0.0,0.0,38,0.00,,,-99.99,153.0,HOBO +U30 +Weather +,2013-04-26 15:39:00,
2013-04-26 11:40:00,70.9,45.3,30.30,WSW,257,0.0,0.0,39,0.00,,,-99.99,153.0,HOBO +U30 +Weather +,2013-04-26 15:40:00,
2013-04-26 11:41:00,71.8,46.6,30.30,SSW,209,0.0,0.0,40,0.00,,,-99.99,153.0,HOBO +U30 +Weather +,2013-04-26 15:41:00,
2013-04-26 11:42:00,72.2,44.5,30.29,SW,216,0.0,0.0,36,0.00,,,-99.99,153.0,HOBO +U30 +Weather +,2013-04-26 15:42:00,
2013-04-26 11:43:00,72.6,45.3,30.29,SSW,198,0.0,0.0,37,0.00,,,-99.99,152.0,HOBO +U30 +Weather +,2013-04-26 15:43:00,
2013-04-26 11:44:00,72.4,43.4,30.30,WNW,296,0.0,0.0,35,0.00,,,-99.99,154.0,HOBO +U30 +Weather +,2013-04-26 15:44:00,
2013-04-26 11:45:00,71.6,45.5,30.30,NW,316,0.0,0.0,39,0.00,,,-99.99,154.0,HOBO +U30 +Weather +,2013-04-26 15:45:00,
2013-04-26 11:46:00,70.8,44.0,30.30,NW,314,0.0,0.0,37,0.00,,,-99.99,156.0,HOBO +U30 +Weather +,2013-04-26 15:46:00,
2013-04-26 11:47:00,70.1,42.1,30.30,NW,317,0.0,0.0,36,0.00,,,-99.99,156.0,HOBO +U30 +Weather +,2013-04-26 15:47:00,
2013-04-26 11:48:00,69.3,43.7,30.30,West,278,0.0,0.0,39,0.00,,,-99.99,154.0,HOBO +U30 +Weather +,2013-04-26 15:48:00,
2013-04-26 11:49:00,70.2,44.4,30.30,SW,233,0.0,0.0,39,0.00,,,-99.99,153.0,HOBO +U30 +Weather +,2013-04-26 15:49:00,
2013-04-26 11:50:00,70.3,43.5,30.29,South,187,0.0,0.0,38,0.00,,,-99.99,152.0,HOBO +U30 +Weather +,2013-04-26 15:50:00,
2013-04-26 11:51:00,71.1,45.4,30.30,WSW,246,0.0,0.0,39,0.00,,,-99.99,154.0,HOBO +U30 +Weather +,2013-04-26 15:51:00,
2013-04-26 11:52:00,71.6,44.0,30.29,West,261,0.0,0.0,37,0.00,,,-99.99,153.0,HOBO +U30 +Weather +,2013-04-26 15:52:00,
2013-04-26 11:53:00,72.2,44.7,30.29,WNW,285,0.0,0.0,37,0.00,,,-99.99,154.0,HOBO +U30 +Weather +,2013-04-26 15:53:00,
2013-04-26 11:54:00,71.2,41.8,30.29,NW,320,0.0,0.0,34,0.00,,,-99.99,154.0,HOBO +U30 +Weather +,2013-04-26 15:54:00,
2013-04-26 11:55:00,69.9,43.6,30.29,SSW,211,0.0,0.0,38,0.00,,,-99.99,154.0,HOBO +U30 +Weather +,2013-04-26 15:55:00,
2013-04-26 11:56:00,70.2,42.8,30.29,South,190,0.0,0.0,37,0.00,,,-99.99,153.0,HOBO +U30 +Weather +,2013-04-26 15:56:00,
2013-04-26 11:57:00,70.9,44.2,30.29,SW,216,0.0,0.0,38,0.00,,,-99.99,152.0,HOBO +U30 +Weather +,2013-04-26 15:57:00,
2013-04-26 11:58:00,71.7,44.7,30.29,WSW,240,0.0,0.0,37,0.00,,,-99.99,153.0,HOBO +U30 +Weather +,2013-04-26 15:58:00,
2013-04-26 11:59:00,71.7,43.9,30.29,South,183,0.0,0.0,36,0.00,,,-99.99,156.0,HOBO +U30 +Weather +,2013-04-26 15:59:00,
2013-04-26 12:00:00,71.7,44.5,30.29,NW,305,0.0,0.0,37,0.00,,,-99.99,156.0,HOBO +U30 +Weather +,2013-04-26 16:00:00,
2013-04-26 12:01:00,71.3,42.2,30.29,NW,305,0.0,0.0,34,0.00,,,-99.99,156.0,HOBO +U30 +Weather +,2013-04-26 16:01:00,
2013-04-26 12:02:00,71.1,44.2,30.29,NW,314,0.0,0.0,37,0.00,,,-99.99,156.0,HOBO +U30 +Weather +,2013-04-26 16:02:00,
2013-04-26 12:03:00,70.3,42.1,30.29,NW,326,0.0,0.0,36,0.00,,,-99.99,156.0,HOBO +U30 +Weather +,2013-04-26 16:03:00,
2013-04-26 12:04:00,70.7,45.5,30.30,WNW,296,0.0,0.0,40,0.00,,,-99.99,156.0,HOBO +U30 +Weather +,2013-04-26 16:04:00,
2013-04-26 12:05:00,71.7,45.5,30.29,WSW,254,0.0,0.0,39,0.00,,,-99.99,156.0,HOBO +U30 +Weather +,2013-04-26 16:05:00,
2013-04-26 12:06:00,71.9,41.7,30.29,WNW,289,0.0,0.0,33,0.00,,,-99.99,154.0,HOBO +U30 +Weather +,2013-04-26 16:06:00,
2013-04-26 12:07:00,71.7,45.0,30.29,WNW,288,0.0,0.0,38,0.00,,,-99.99,154.0,HOBO +U30 +Weather +,2013-04-26 16:07:00,
2013-04-26 12:08:00,72.5,43.9,30.29,SW,215,0.0,0.0,35,0.00,,,-99.99,156.0,HOBO +U30 +Weather +,2013-04-26 16:08:00,
2013-04-26 12:09:00,72.9,43.8,30.29,WNW,288,0.0,0.0,35,0.00,,,-99.99,156.0,HOBO +U30 +Weather +,2013-04-26 16:09:00,
2013-04-26 12:10:00,72.9,45.7,30.29,WNW,293,0.0,0.0,37,0.00,,,-99.99,156.0,HOBO +U30 +Weather +,2013-04-26 16:10:00,
2013-04-26 12:11:00,73.5,43.8,30.29,WNW,298,0.0,0.0,34,0.00,,,-99.99,157.0,HOBO +U30 +Weather +,2013-04-26 16:11:00,
2013-04-26 12:12:00,73.0,43.5,30.29,NW,312,0.0,0.0,34,0.00,,,-99.99,157.0,HOBO +U30 +Weather +,2013-04-26 16:12:00,
2013-04-26 12:13:00,72.2,42.8,30.29,NW,320,0.0,0.0,34,0.00,,,-99.99,157.0,HOBO +U30 +Weather +,2013-04-26 16:13:00,
2013-04-26 12:14:00,72.4,44.8,30.29,NW,305,0.0,0.0,37,0.00,,,-99.99,156.0,HOBO +U30 +Weather +,2013-04-26 16:14:00,
2013-04-26 12:15:00,72.3,41.9,30.29,South,171,0.0,0.0,33,0.00,,,-99.99,157.0,HOBO +U30 +Weather +,2013-04-26 16:15:00,
2013-04-26 12:16:00,72.5,43.3,30.29,South,183,0.0,0.0,35,0.00,,,-99.99,156.0,HOBO +U30 +Weather +,2013-04-26 16:16:00,
2013-04-26 12:17:00,73.2,44.5,30.29,South,191,0.0,0.0,35,0.00,,,-99.99,157.0,HOBO +U30 +Weather +,2013-04-26 16:17:00,
2013-04-26 12:18:00,73.3,43.2,30.29,WNW,285,0.0,0.0,34,0.00,,,-99.99,157.0,HOBO +U30 +Weather +,2013-04-26 16:18:00,
2013-04-26 12:19:00,72.3,43.4,30.29,NW,320,0.0,0.0,35,0.00,,,-99.99,157.0,HOBO +U30 +Weather +,2013-04-26 16:19:00,
2013-04-26 12:20:00,71.7,43.7,30.29,WNW,295,0.0,0.0,36,0.00,,,-99.99,157.0,HOBO +U30 +Weather +,2013-04-26 16:20:00,
2013-04-26 12:21:00,71.9,44.3,30.29,NW,307,0.0,0.0,37,0.00,,,-99.99,157.0,HOBO +U30 +Weather +,2013-04-26 16:21:00,
2013-04-26 12:22:00,71.9,43.3,30.29,WNW,292,0.0,0.0,35,0.00,,,-99.99,157.0,HOBO +U30 +Weather +,2013-04-26 16:22:00,
2013-04-26 12:23:00,71.9,43.7,30.29,WNW,293,0.0,0.0,36,0.00,,,-99.99,156.0,HOBO +U30 +Weather +,2013-04-26 16:23:00,
2013-04-26 12:24:00,72.4,44.3,30.29,West,260,0.0,0.0,36,0.00,,,-99.99,157.0,HOBO +U30 +Weather +,2013-04-26 16:24:00,
2013-04-26 12:25:00,73.3,46.3,30.29,WSW,257,0.0,0.0,38,0.00,,,-99.99,156.0,HOBO +U30 +Weather +,2013-04-26 16:25:00,
2013-04-26 12:26:00,73.5,43.3,30.29,West,277,0.0,0.0,33,0.00,,,-99.99,157.0,HOBO +U30 +Weather +,2013-04-26 16:26:00,
2013-04-26 12:27:00,73.3,45.2,30.29,West,261,0.0,0.0,36,0.00,,,-99.99,157.0,HOBO +U30 +Weather +,2013-04-26 16:27:00,
2013-04-26 12:28:00,73.7,44.3,30.29,SSW,204,0.0,0.0,35,0.00,,,-99.99,156.0,HOBO +U30 +Weather +,2013-04-26 16:28:00,
2013-04-26 12:29:00,73.9,44.6,30.29,SSW,194,0.0,0.0,35,0.00,,,-99.99,157.0,HOBO +U30 +Weather +,2013-04-26 16:29:00,
2013-04-26 12:30:00,74.0,45.8,30.29,SW,236,0.0,0.0,36,0.00,,,-99.99,158.0,HOBO +U30 +Weather +,2013-04-26 16:30:00,
2013-04-26 12:31:00,71.7,39.7,30.29,NW,306,0.9,6.0,31,0.00,,,-99.99,478.0,HOBO +U30 +Weather +,2013-04-26 16:31:00,
2013-04-26 12:32:00,67.7,39.5,30.29,South,170,1.8,6.0,35,0.00,,,-99.99,478.0,HOBO +U30 +Weather +,2013-04-26 16:32:00,
2013-04-26 12:33:00,64.6,37.5,30.29,SE,146,2.5,7.6,36,0.00,,,-99.99,481.0,HOBO +U30 +Weather +,2013-04-26 16:33:00,
2013-04-26 12:34:00,63.0,37.2,30.28,SSE,150,3.4,7.6,38,0.00,,,-99.99,483.0,HOBO +U30 +Weather +,2013-04-26 16:34:00,
2013-04-26 12:35:00,63.0,37.6,30.29,SSE,163,0.9,3.4,38,0.00,,,-99.99,486.0,HOBO +U30 +Weather +,2013-04-26 16:35:00,
2013-04-26 12:36:00,62.7,37.3,30.29,South,171,0.9,3.4,38,0.00,,,-99.99,488.0,HOBO +U30 +Weather +,2013-04-26 16:36:00,
2013-04-26 12:37:00,62.6,38.2,30.29,SSW,211,0.0,1.8,40,0.00,,,-99.99,489.0,HOBO +U30 +Weather +,2013-04-26 16:37:00,
2013-04-26 12:38:00,62.4,40.0,30.29,SW,230,0.0,0.9,43,0.00,,,-99.99,492.0,HOBO +U30 +Weather +,2013-04-26 16:38:00,
2013-04-26 12:39:00,62.8,39.3,30.29,SW,230,0.0,0.0,41,0.00,,,-99.99,492.0,HOBO +U30 +Weather +,2013-04-26 16:39:00,
2013-04-26 12:40:00,63.1,38.7,30.29,SSW,198,0.0,0.0,40,0.00,,,-99.99,496.0,HOBO +U30 +Weather +,2013-04-26 16:40:00,
2013-04-26 12:41:00,62.2,37.0,30.29,SW,215,2.5,6.0,38,0.00,,,-99.99,501.0,HOBO +U30 +Weather +,2013-04-26 16:41:00,
2013-04-26 12:42:00,61.4,36.6,30.29,SW,219,0.9,3.4,39,0.00,,,-99.99,501.0,HOBO +U30 +Weather +,2013-04-26 16:42:00,
2013-04-26 12:43:00,61.4,38.2,30.29,WSW,248,1.8,5.1,42,0.00,,,-99.99,502.0,HOBO +U30 +Weather +,2013-04-26 16:43:00,
2013-04-26 12:44:00,61.9,37.6,30.29,West,268,2.5,4.3,40,0.00,,,-99.99,504.0,HOBO +U30 +Weather +,2013-04-26 16:44:00,
2013-04-26 12:45:00,62.5,38.1,30.29,WNW,295,2.5,5.1,40,0.00,,,-99.99,507.0,HOBO +U30 +Weather +,2013-04-26 16:45:00,
2013-04-26 12:46:00,62.7,39.0,30.29,West,275,0.9,4.3,41,0.00,,,-99.99,509.0,HOBO +U30 +Weather +,2013-04-26 16:46:00,
2013-04-26 12:47:00,62.2,36.9,30.29,West,260,2.5,6.7,38,0.00,,,-99.99,512.0,HOBO +U30 +Weather +,2013-04-26 16:47:00,
2013-04-26 12:48:00,61.8,37.6,30.29,SW,232,0.9,4.3,40,0.00,,,-99.99,514.0,HOBO +U30 +Weather +,2013-04-26 16:48:00,
2013-04-26 12:49:00,61.6,38.2,30.29,West,278,1.8,4.3,41,0.00,,,-99.99,516.0,HOBO +U30 +Weather +,2013-04-26 16:49:00,
2013-04-26 12:50:00,61.8,37.8,30.29,WNW,289,0.9,3.4,40,0.00,,,-99.99,519.0,HOBO +U30 +Weather +,2013-04-26 16:50:00,
2013-04-26 12:51:00,61.9,37.4,30.29,WNW,289,2.5,5.1,40,0.00,,,-99.99,519.0,HOBO +U30 +Weather +,2013-04-26 16:51:00,
2013-04-26 12:52:00,61.9,37.3,30.29,NNW,343,0.0,3.4,39,0.00,,,-99.99,523.0,HOBO +U30 +Weather +,2013-04-26 16:52:00,
2013-04-26 12:53:00,62.2,37.9,30.30,WNW,298,0.9,5.1,40,0.00,,,-99.99,524.0,HOBO +U30 +Weather +,2013-04-26 16:53:00,
2013-04-26 12:54:00,61.8,39.0,30.29,SSW,208,0.0,2.5,42,0.00,,,-99.99,526.0,HOBO +U30 +Weather +,2013-04-26 16:54:00,
2013-04-26 12:55:00,62.0,40.5,30.29,South,184,0.0,1.8,45,0.00,,,-99.99,529.0,HOBO +U30 +Weather +,2013-04-26 16:55:00,
2013-04-26 12:56:00,61.9,40.2,30.29,SSE,153,0.9,5.1,44,0.00,,,-99.99,531.0,HOBO +U30 +Weather +,2013-04-26 16:56:00,
2013-04-26 12:57:00,62.1,40.4,30.29,SE,140,0.9,3.4,44,0.00,,,-99.99,532.0,HOBO +U30 +Weather +,2013-04-26 16:57:00,
2013-04-26 12:58:00,62.0,40.2,30.30,SE,136,0.0,1.8,44,0.00,,,-99.99,533.0,HOBO +U30 +Weather +,2013-04-26 16:58:00,
2013-04-26 12:59:00,62.4,41.4,30.30,East,90,0.0,1.8,46,0.00,,,-99.99,538.0,HOBO +U30 +Weather +,2013-04-26 16:59:00,
2013-04-26 13:00:00,62.7,41.4,30.29,East,94,0.0,1.8,45,0.00,,,-99.99,539.0,HOBO +U30 +Weather +,2013-04-26 17:00:00,
2013-04-26 13:01:00,62.1,40.4,30.29,East,98,0.9,2.5,44,0.00,,,-99.99,542.0,HOBO +U30 +Weather +,2013-04-26 17:01:00,
2013-04-26 13:02:00,61.9,40.2,30.29,SSE,159,0.0,0.0,44,0.00,,,-99.99,544.0,HOBO +U30 +Weather +,2013-04-26 17:02:00,
2013-04-26 13:03:00,61.8,39.5,30.29,SW,226,0.0,2.5,43,0.00,,,-99.99,547.0,HOBO +U30 +Weather +,2013-04-26 17:03:00,
2013-04-26 13:04:00,62.0,39.4,30.29,WSW,247,0.0,0.9,43,0.00,,,-99.99,548.0,HOBO +U30 +Weather +,2013-04-26 17:04:00,
2013-04-26 13:05:00,62.1,40.9,30.29,SW,216,0.0,0.0,45,0.00,,,-99.99,552.0,HOBO +U30 +Weather +,2013-04-26 17:05:00,
2013-04-26 13:06:00,62.9,41.8,30.29,South,187,0.0,2.5,45,0.00,,,-99.99,552.0,HOBO +U30 +Weather +,2013-04-26 17:06:00,
2013-04-26 13:07:00,62.2,40.0,30.29,SSE,157,2.5,6.7,44,0.00,,,-99.99,556.0,HOBO +U30 +Weather +,2013-04-26 17:07:00,
2013-04-26 13:08:00,61.7,40.7,30.29,SSE,157,3.4,6.7,46,0.00,,,-99.99,557.0,HOBO +U30 +Weather +,2013-04-26 17:08:00,
2013-04-26 13:09:00,61.9,40.2,30.29,SSE,159,3.4,6.0,44,0.00,,,-99.99,559.0,HOBO +U30 +Weather +,2013-04-26 17:09:00,
2013-04-26 13:10:00,61.6,41.0,30.29,SSE,147,2.5,6.0,46,0.00,,,-99.99,561.0,HOBO +U30 +Weather +,2013-04-26 17:10:00,
2013-04-26 13:11:00,61.9,40.4,30.29,SSE,157,2.5,5.1,45,0.00,,,-99.99,562.0,HOBO +U30 +Weather +,2013-04-26 17:11:00,
2013-04-26 13:12:00,61.6,39.7,30.29,SW,222,1.8,6.0,44,0.00,,,-99.99,566.0,HOBO +U30 +Weather +,2013-04-26 17:12:00,
2013-04-26 13:13:00,61.3,40.7,30.29,SSW,208,0.9,2.5,46,0.00,,,-99.99,566.0,HOBO +U30 +Weather +,2013-04-26 17:13:00,
2013-04-26 13:14:00,60.9,39.9,30.29,SSE,157,3.4,6.7,45,0.00,,,-99.99,567.0,HOBO +U30 +Weather +,2013-04-26 17:14:00,
2013-04-26 13:15:00,61.2,40.1,30.29,SSE,168,1.8,8.5,45,0.00,,,-99.99,572.0,HOBO +U30 +Weather +,2013-04-26 17:15:00,
2013-04-26 13:16:00,61.0,40.4,30.29,SSW,202,2.5,6.0,46,0.00,,,-99.99,571.0,HOBO +U30 +Weather +,2013-04-26 17:16:00,
2013-04-26 13:17:00,61.3,40.0,30.29,SW,225,3.4,6.7,45,0.00,,,-99.99,576.0,HOBO +U30 +Weather +,2013-04-26 17:17:00,
2013-04-26 13:18:00,61.8,40.1,30.29,SSW,198,0.9,4.3,44,0.00,,,-99.99,574.0,HOBO +U30 +Weather +,2013-04-26 17:18:00,
2013-04-26 13:19:00,62.2,41.0,30.29,SSE,150,0.9,6.0,45,0.00,,,-99.99,577.0,HOBO +U30 +Weather +,2013-04-26 17:19:00,
2013-04-26 13:20:00,62.3,41.2,30.29,SW,232,0.9,3.4,45,0.00,,,-99.99,579.0,HOBO +U30 +Weather +,2013-04-26 17:20:00,
2013-04-26 13:21:00,62.4,39.9,30.28,East,86,1.8,6.0,43,0.00,,,-99.99,581.0,HOBO +U30 +Weather +,2013-04-26 17:21:00,
2013-04-26 13:22:00,62.5,39.2,30.29,NNW,333,1.8,5.1,42,0.00,,,-99.99,582.0,HOBO +U30 +Weather +,2013-04-26 17:22:00,
2013-04-26 13:23:00,62.5,38.8,30.29,WSW,257,2.5,5.1,41,0.00,,,-99.99,591.0,HOBO +U30 +Weather +,2013-04-26 17:23:00,
2013-04-26 13:24:00,61.9,37.8,30.29,SW,232,1.8,3.4,40,0.00,,,-99.99,587.0,HOBO +U30 +Weather +,2013-04-26 17:24:00,
2013-04-26 13:25:00,61.5,38.1,30.29,SW,222,0.0,2.5,41,0.00,,,-99.99,591.0,HOBO +U30 +Weather +,2013-04-26 17:25:00,
2013-04-26 13:26:00,61.9,40.2,30.29,SW,229,0.0,4.3,44,0.00,,,-99.99,591.0,HOBO +U30 +Weather +,2013-04-26 17:26:00,
2013-04-26 13:27:00,62.2,40.4,30.29,SSE,166,0.9,5.1,44,0.00,,,-99.99,589.0,HOBO +U30 +Weather +,2013-04-26 17:27:00,
2013-04-26 13:28:00,62.1,40.7,30.29,SE,131,2.5,6.0,45,0.00,,,-99.99,594.0,HOBO +U30 +Weather +,2013-04-26 17:28:00,
2013-04-26 13:29:00,62.2,40.8,30.29,SE,129,0.9,3.4,45,0.00,,,-99.99,594.0,HOBO +U30 +Weather +,2013-04-26 17:29:00,
2013-04-26 13:30:00,62.1,41.0,30.29,SSW,211,2.5,7.6,45,0.00,,,-99.99,598.0,HOBO +U30 +Weather +,2013-04-26 17:30:00,
2013-04-26 13:31:00,61.6,40.5,30.28,SW,230,3.4,7.6,45,0.00,,,-99.99,601.0,HOBO +U30 +Weather +,2013-04-26 17:31:00,
2013-04-26 13:32:00,60.9,40.3,30.29,SSW,192,4.3,8.5,46,0.00,,,-99.99,601.0,HOBO +U30 +Weather +,2013-04-26 17:32:00,
2013-04-26 13:33:00,61.2,41.0,30.29,SE,138,3.4,6.7,47,0.00,,,-99.99,603.0,HOBO +U30 +Weather +,2013-04-26 17:33:00,
2013-04-26 13:34:00,61.5,41.2,30.29,SE,138,4.3,9.4,47,0.00,,,-99.99,603.0,HOBO +U30 +Weather +,2013-04-26 17:34:00,
2013-04-26 13:35:00,61.6,41.1,30.29,SE,139,2.5,6.7,46,0.00,,,-99.99,603.0,HOBO +U30 +Weather +,2013-04-26 17:35:00,
2013-04-26 13:36:00,62.0,42.2,30.29,SE,132,3.4,6.0,48,0.00,,,-99.99,606.0,HOBO +U30 +Weather +,2013-04-26 17:36:00,
2013-04-26 13:37:00,62.3,41.4,30.29,SSE,150,3.4,6.7,46,0.00,,,-99.99,604.0,HOBO +U30 +Weather +,2013-04-26 17:37:00,
2013-04-26 13:38:00,62.7,41.9,30.28,SE,145,0.9,3.4,46,0.00,,,-99.99,607.0,HOBO +U30 +Weather +,2013-04-26 17:38:00,
2013-04-26 13:39:00,62.9,42.3,30.29,SSE,164,0.9,4.3,46,0.00,,,-99.99,616.0,HOBO +U30 +Weather +,2013-04-26 17:39:00,
2013-04-26 13:40:00,62.6,41.1,30.28,SSE,164,4.3,8.5,45,0.00,,,-99.99,616.0,HOBO +U30 +Weather +,2013-04-26 17:40:00,
2013-04-26 13:41:00,62.2,41.3,30.29,SSE,156,3.4,7.6,46,0.00,,,-99.99,617.0,HOBO +U30 +Weather +,2013-04-26 17:41:00,
2013-04-26 13:42:00,61.8,40.8,30.29,SSE,150,3.4,6.7,46,0.00,,,-99.99,617.0,HOBO +U30 +Weather +,2013-04-26 17:42:00,
2013-04-26 13:43:00,61.5,40.3,30.29,SSE,150,4.3,7.6,45,0.00,,,-99.99,618.0,HOBO +U30 +Weather +,2013-04-26 17:43:00,
2013-04-26 13:44:00,61.2,40.4,30.28,SE,145,5.1,10.3,46,0.00,,,-99.99,616.0,HOBO +U30 +Weather +,2013-04-26 17:44:00,
2013-04-26 13:45:00,60.7,39.9,30.29,SE,143,6.0,10.3,46,0.00,,,-99.99,619.0,HOBO +U30 +Weather +,2013-04-26 17:45:00,
2013-04-26 13:46:00,60.3,40.2,30.29,SSE,149,6.0,10.3,47,0.00,,,-99.99,619.0,HOBO +U30 +Weather +,2013-04-26 17:46:00,
2013-04-26 13:47:00,60.0,39.9,30.29,SSE,147,6.7,10.3,47,0.00,,,-99.99,619.0,HOBO +U30 +Weather +,2013-04-26 17:47:00,
2013-04-26 13:48:00,60.1,40.8,30.29,SE,133,3.4,7.6,48,0.00,,,-99.99,622.0,HOBO +U30 +Weather +,2013-04-26 17:48:00,
2013-04-26 13:49:00,60.7,41.0,30.29,SSE,150,3.4,6.7,48,0.00,,,-99.99,626.0,HOBO +U30 +Weather +,2013-04-26 17:49:00,
2013-04-26 13:50:00,60.5,40.0,30.29,SSE,153,4.3,8.5,46,0.00,,,-99.99,629.0,HOBO +U30 +Weather +,2013-04-26 17:50:00,
2013-04-26 13:51:00,60.9,40.8,30.29,SSE,154,2.5,8.5,47,0.00,,,-99.99,629.0,HOBO +U30 +Weather +,2013-04-26 17:51:00,
2013-04-26 13:52:00,61.2,41.2,30.29,SSE,159,3.4,7.6,47,0.00,,,-99.99,634.0,HOBO +U30 +Weather +,2013-04-26 17:52:00,
2013-04-26 13:53:00,60.9,41.0,30.28,SSE,164,3.4,6.7,47,0.00,,,-99.99,637.0,HOBO +U30 +Weather +,2013-04-26 17:53:00,
2013-04-26 13:54:00,60.9,40.8,30.28,SE,145,3.4,6.7,47,0.00,,,-99.99,638.0,HOBO +U30 +Weather +,2013-04-26 17:54:00,
2013-04-26 13:55:00,60.4,40.3,30.28,SE,146,3.4,7.6,47,0.00,,,-99.99,642.0,HOBO +U30 +Weather +,2013-04-26 17:55:00,
2013-04-26 13:56:00,60.2,40.5,30.28,SE,145,5.1,8.5,48,0.00,,,-99.99,641.0,HOBO +U30 +Weather +,2013-04-26 17:56:00,
2013-04-26 13:57:00,60.7,41.1,30.28,SSE,153,2.5,6.0,48,0.00,,,-99.99,643.0,HOBO +U30 +Weather +,2013-04-26 17:57:00,
2013-04-26 13:58:00,61.2,40.7,30.28,SW,215,1.8,6.0,46,0.00,,,-99.99,642.0,HOBO +U30 +Weather +,2013-04-26 17:58:00,
2013-04-26 13:59:00,61.0,41.1,30.28,South,171,0.9,4.3,47,0.00,,,-99.99,643.0,HOBO +U30 +Weather +,2013-04-26 17:59:00,
2013-04-26 14:00:00,61.4,41.4,30.29,SSE,152,2.5,6.0,47,0.00,,,-99.99,643.0,HOBO +U30 +Weather +,2013-04-26 18:00:00,
2013-04-26 14:01:00,61.7,41.4,30.29,SSW,199,0.9,6.0,47,0.00,,,-99.99,644.0,HOBO +U30 +Weather +,2013-04-26 18:01:00,
2013-04-26 14:02:00,62.0,41.9,30.29,South,183,0.9,3.4,47,0.00,,,-99.99,648.0,HOBO +U30 +Weather +,2013-04-26 18:02:00,
2013-04-26 14:03:00,62.2,41.5,30.29,SE,133,3.4,8.5,46,0.00,,,-99.99,649.0,HOBO +U30 +Weather +,2013-04-26 18:03:00,
2013-04-26 14:04:00,61.6,40.8,30.29,SE,142,3.4,7.6,46,0.00,,,-99.99,653.0,HOBO +U30 +Weather +,2013-04-26 18:04:00,
2013-04-26 14:05:00,61.2,41.6,30.29,SE,136,2.5,6.7,48,0.00,,,-99.99,652.0,HOBO +U30 +Weather +,2013-04-26 18:05:00,
2013-04-26 14:06:00,60.7,40.8,30.28,SE,139,3.4,7.6,47,0.00,,,-99.99,654.0,HOBO +U30 +Weather +,2013-04-26 18:06:00,
2013-04-26 14:07:00,59.9,40.0,30.29,SSE,149,4.3,8.5,47,0.00,,,-99.99,654.0,HOBO +U30 +Weather +,2013-04-26 18:07:00,
2013-04-26 14:08:00,60.1,41.1,30.29,SE,131,2.5,7.6,49,0.00,,,-99.99,654.0,HOBO +U30 +Weather +,2013-04-26 18:08:00,
2013-04-26 14:09:00,60.6,41.2,30.28,SE,126,3.4,8.5,48,0.00,,,-99.99,656.0,HOBO +U30 +Weather +,2013-04-26 18:09:00,
2013-04-26 14:10:00,60.6,40.8,30.29,SE,133,3.4,8.5,47,0.00,,,-99.99,658.0,HOBO +U30 +Weather +,2013-04-26 18:10:00,
2013-04-26 14:11:00,60.0,40.8,30.28,SE,143,4.3,8.5,48,0.00,,,-99.99,659.0,HOBO +U30 +Weather +,2013-04-26 18:11:00,
2013-04-26 14:12:00,60.3,41.4,30.29,SE,124,2.5,6.7,49,0.00,,,-99.99,663.0,HOBO +U30 +Weather +,2013-04-26 18:12:00,
2013-04-26 14:13:00,60.7,41.6,30.29,SE,135,2.5,7.6,49,0.00,,,-99.99,659.0,HOBO +U30 +Weather +,2013-04-26 18:13:00,
2013-04-26 14:14:00,60.5,41.0,30.29,SE,145,4.3,7.6,48,0.00,,,-99.99,663.0,HOBO +U30 +Weather +,2013-04-26 18:14:00,
2013-04-26 14:15:00,61.2,42.0,30.29,ESE,121,0.0,3.4,49,0.00,,,-99.99,666.0,HOBO +U30 +Weather +,2013-04-26 18:15:00,
2013-04-26 14:16:00,61.6,42.2,30.29,SE,125,0.9,2.5,48,0.00,,,-99.99,667.0,HOBO +U30 +Weather +,2013-04-26 18:16:00,
2013-04-26 14:17:00,61.7,41.1,30.29,SE,135,3.4,8.5,46,0.00,,,-99.99,669.0,HOBO +U30 +Weather +,2013-04-26 18:17:00,
2013-04-26 14:18:00,60.9,40.4,30.29,SE,138,3.4,9.4,46,0.00,,,-99.99,671.0,HOBO +U30 +Weather +,2013-04-26 18:18:00,
2013-04-26 14:19:00,59.6,40.5,30.29,SE,138,4.3,10.3,49,0.00,,,-99.99,669.0,HOBO +U30 +Weather +,2013-04-26 18:19:00,
2013-04-26 14:20:00,59.5,40.4,30.29,SE,146,3.4,7.6,49,0.00,,,-99.99,672.0,HOBO +U30 +Weather +,2013-04-26 18:20:00,
2013-04-26 14:21:00,59.7,40.6,30.29,SE,129,2.5,7.6,49,0.00,,,-99.99,676.0,HOBO +U30 +Weather +,2013-04-26 18:21:00,
2013-04-26 14:22:00,59.6,40.6,30.29,SE,135,2.5,7.6,49,0.00,,,-99.99,674.0,HOBO +U30 +Weather +,2013-04-26 18:22:00,
2013-04-26 14:23:00,59.8,40.9,30.29,SE,139,4.3,9.4,49,0.00,,,-99.99,677.0,HOBO +U30 +Weather +,2013-04-26 18:23:00,
2013-04-26 14:24:00,59.6,40.3,30.29,SE,146,5.1,8.5,48,0.00,,,-99.99,676.0,HOBO +U30 +Weather +,2013-04-26 18:24:00,
2013-04-26 14:25:00,59.5,41.0,30.29,South,180,2.5,6.7,50,0.00,,,-99.99,676.0,HOBO +U30 +Weather +,2013-04-26 18:25:00,
2013-04-26 14:26:00,60.1,41.7,30.29,South,181,1.8,6.7,50,0.00,,,-99.99,679.0,HOBO +U30 +Weather +,2013-04-26 18:26:00,
2013-04-26 14:27:00,60.4,41.6,30.29,SSW,197,3.4,9.4,49,0.00,,,-99.99,681.0,HOBO +U30 +Weather +,2013-04-26 18:27:00,
2013-04-26 14:28:00,59.9,40.8,30.29,SSE,150,6.0,11.0,49,0.00,,,-99.99,682.0,HOBO +U30 +Weather +,2013-04-26 18:28:00,
2013-04-26 14:29:00,59.5,40.8,30.29,SSE,150,5.1,8.5,49,0.00,,,-99.99,682.0,HOBO +U30 +Weather +,2013-04-26 18:29:00,
2013-04-26 14:30:00,59.0,40.2,30.29,SSE,159,4.3,8.5,49,0.00,,,-99.99,681.0,HOBO +U30 +Weather +,2013-04-26 18:30:00,
2013-04-26 14:31:00,58.9,40.5,30.29,SSE,149,5.1,9.4,50,0.00,,,-99.99,686.0,HOBO +U30 +Weather +,2013-04-26 18:31:00,
2013-04-26 14:32:00,59.4,41.1,30.29,SE,136,3.4,9.4,50,0.00,,,-99.99,683.0,HOBO +U30 +Weather +,2013-04-26 18:32:00,
2013-04-26 14:33:00,59.2,40.8,30.29,SE,140,4.3,7.6,50,0.00,,,-99.99,686.0,HOBO +U30 +Weather +,2013-04-26 18:33:00,
2013-04-26 14:34:00,60.0,42.6,30.29,ESE,111,0.9,2.5,52,0.00,,,-99.99,688.0,HOBO +U30 +Weather +,2013-04-26 18:34:00,
2013-04-26 14:35:00,60.7,41.8,30.29,SSE,163,1.8,5.1,49,0.00,,,-99.99,688.0,HOBO +U30 +Weather +,2013-04-26 18:35:00,
2013-04-26 14:36:00,60.4,41.3,30.29,SSE,154,2.5,5.1,49,0.00,,,-99.99,688.0,HOBO +U30 +Weather +,2013-04-26 18:36:00,
2013-04-26 14:37:00,60.2,41.5,30.29,SSE,167,2.5,6.7,49,0.00,,,-99.99,691.0,HOBO +U30 +Weather +,2013-04-26 18:37:00,
2013-04-26 14:38:00,60.2,42.1,30.29,South,175,2.5,8.5,51,0.00,,,-99.99,692.0,HOBO +U30 +Weather +,2013-04-26 18:38:00,
2013-04-26 14:39:00,60.2,41.7,30.29,South,180,2.5,6.0,50,0.00,,,-99.99,691.0,HOBO +U30 +Weather +,2013-04-26 18:39:00,
2013-04-26 14:40:00,60.2,41.4,30.29,South,184,0.9,4.3,49,0.00,,,-99.99,693.0,HOBO +U30 +Weather +,2013-04-26 18:40:00,
2013-04-26 14:41:00,59.5,40.9,30.29,SW,222,2.5,6.7,50,0.00,,,-99.99,694.0,HOBO +U30 +Weather +,2013-04-26 18:41:00,
2013-04-26 14:42:00,58.5,41.1,30.29,SW,220,2.5,5.1,52,0.00,,,-99.99,694.0,HOBO +U30 +Weather +,2013-04-26 18:42:00,
2013-04-26 14:43:00,58.4,40.5,30.29,SE,145,6.0,10.3,51,0.00,,,-99.99,694.0,HOBO +U30 +Weather +,2013-04-26 18:43:00,
2013-04-26 14:44:00,58.2,41.6,30.29,South,170,3.4,7.6,53,0.00,,,-99.99,699.0,HOBO +U30 +Weather +,2013-04-26 18:44:00,
2013-04-26 14:45:00,58.5,41.8,30.29,SSW,211,1.8,6.7,53,0.00,,,-99.99,699.0,HOBO +U30 +Weather +,2013-04-26 18:45:00,
2013-04-26 14:46:00,59.0,42.2,30.29,SSW,192,1.8,8.5,53,0.00,,,-99.99,699.0,HOBO +U30 +Weather +,2013-04-26 18:46:00,
2013-04-26 14:47:00,59.6,42.5,30.29,ESE,117,0.9,3.4,53,0.00,,,-99.99,703.0,HOBO +U30 +Weather +,2013-04-26 18:47:00,
2013-04-26 14:48:00,59.8,42.0,30.29,South,183,1.8,6.0,51,0.00,,,-99.99,701.0,HOBO +U30 +Weather +,2013-04-26 18:48:00,
2013-04-26 14:49:00,60.2,42.2,30.29,SSW,197,0.9,5.1,51,0.00,,,-99.99,704.0,HOBO +U30 +Weather +,2013-04-26 18:49:00,
2013-04-26 14:50:00,60.3,42.9,30.29,South,181,0.9,3.4,52,0.00,,,-99.99,703.0,HOBO +U30 +Weather +,2013-04-26 18:50:00,
2013-04-26 14:51:00,60.2,42.3,30.29,SSE,149,0.9,4.3,51,0.00,,,-99.99,704.0,HOBO +U30 +Weather +,2013-04-26 18:51:00,
2013-04-26 14:52:00,60.0,42.3,30.29,SE,145,0.9,5.1,51,0.00,,,-99.99,706.0,HOBO +U30 +Weather +,2013-04-26 18:52:00,
2013-04-26 14:53:00,60.3,41.9,30.29,SSE,153,1.8,5.1,50,0.00,,,-99.99,706.0,HOBO +U30 +Weather +,2013-04-26 18:53:00,
2013-04-26 14:54:00,60.6,42.5,30.29,South,174,0.9,6.0,51,0.00,,,-99.99,706.0,HOBO +U30 +Weather +,2013-04-26 18:54:00,
2013-04-26 14:55:00,60.7,42.3,30.29,SE,142,1.8,7.6,50,0.00,,,-99.99,707.0,HOBO +U30 +Weather +,2013-04-26 18:55:00,
2013-04-26 14:56:00,60.1,42.7,30.29,SE,128,2.5,6.7,52,0.00,,,-99.99,707.0,HOBO +U30 +Weather +,2013-04-26 18:56:00,
2013-04-26 14:57:00,60.1,42.2,30.29,SE,146,1.8,6.0,51,0.00,,,-99.99,707.0,HOBO +U30 +Weather +,2013-04-26 18:57:00,
2013-04-26 14:58:00,59.7,41.5,30.29,SE,142,4.3,7.6,51,0.00,,,-99.99,709.0,HOBO +U30 +Weather +,2013-04-26 18:58:00,
2013-04-26 14:59:00,59.7,42.4,30.29,SSE,166,2.5,6.0,52,0.00,,,-99.99,716.0,HOBO +U30 +Weather +,2013-04-26 18:59:00,
2013-04-26 15:00:00,59.2,41.6,30.29,WSW,239,5.1,8.5,52,0.00,,,-99.99,709.0,HOBO +U30 +Weather +,2013-04-26 19:00:00,
2013-04-26 15:01:00,59.1,42.2,30.29,South,185,1.8,6.7,53,0.00,,,-99.99,707.0,HOBO +U30 +Weather +,2013-04-26 19:01:00,
2013-04-26 15:02:00,59.1,41.6,30.29,South,171,0.9,5.1,52,0.00,,,-99.99,712.0,HOBO +U30 +Weather +,2013-04-26 19:02:00,
2013-04-26 15:03:00,59.1,41.5,30.29,SSE,167,3.4,8.5,52,0.00,,,-99.99,711.0,HOBO +U30 +Weather +,2013-04-26 19:03:00,
2013-04-26 15:04:00,59.1,41.7,30.29,South,178,2.5,6.7,52,0.00,,,-99.99,721.0,HOBO +U30 +Weather +,2013-04-26 19:04:00,
2013-04-26 15:05:00,59.0,42.1,30.28,South,181,1.8,6.0,53,0.00,,,-99.99,712.0,HOBO +U30 +Weather +,2013-04-26 19:05:00,
2013-04-26 15:06:00,59.7,43.1,30.29,South,173,0.9,4.3,54,0.00,,,-99.99,716.0,HOBO +U30 +Weather +,2013-04-26 19:06:00,
2013-04-26 15:07:00,59.8,41.7,30.29,SSE,152,5.1,9.4,51,0.00,,,-99.99,714.0,HOBO +U30 +Weather +,2013-04-26 19:07:00,
2013-04-26 15:08:00,59.5,42.5,30.29,SSE,153,1.8,5.1,53,0.00,,,-99.99,716.0,HOBO +U30 +Weather +,2013-04-26 19:08:00,
2013-04-26 15:09:00,58.9,41.9,30.28,SE,145,5.1,9.4,53,0.00,,,-99.99,713.0,HOBO +U30 +Weather +,2013-04-26 19:09:00,
2013-04-26 15:10:00,58.9,41.8,30.29,SSE,149,2.5,5.1,52,0.00,,,-99.99,716.0,HOBO +U30 +Weather +,2013-04-26 19:10:00,
2013-04-26 15:11:00,58.6,41.9,30.29,SE,132,1.8,6.0,53,0.00,,,-99.99,716.0,HOBO +U30 +Weather +,2013-04-26 19:11:00,
2013-04-26 15:12:00,59.3,43.3,30.28,SE,136,0.9,3.4,55,0.00,,,-99.99,716.0,HOBO +U30 +Weather +,2013-04-26 19:12:00,
2013-04-26 15:13:00,59.6,42.2,30.29,SE,132,1.8,6.0,52,0.00,,,-99.99,717.0,HOBO +U30 +Weather +,2013-04-26 19:13:00,
2013-04-26 15:14:00,59.8,43.9,30.29,South,188,1.8,6.0,55,0.00,,,-99.99,719.0,HOBO +U30 +Weather +,2013-04-26 19:14:00,
2013-04-26 15:15:00,59.8,42.3,30.29,SE,145,3.4,6.0,52,0.00,,,-99.99,718.0,HOBO +U30 +Weather +,2013-04-26 19:15:00,
2013-04-26 15:16:00,59.3,42.3,30.29,SE,128,2.5,6.7,53,0.00,,,-99.99,718.0,HOBO +U30 +Weather +,2013-04-26 19:16:00,
2013-04-26 15:17:00,59.6,42.8,30.28,ESE,112,0.0,1.8,53,0.00,,,-99.99,719.0,HOBO +U30 +Weather +,2013-04-26 19:17:00,
2013-04-26 15:18:00,60.4,43.1,30.28,SSE,154,0.9,7.6,52,0.00,,,-99.99,722.0,HOBO +U30 +Weather +,2013-04-26 19:18:00,
2013-04-26 15:19:00,60.2,42.7,30.28,SSE,157,0.9,6.7,52,0.00,,,-99.99,748.0,HOBO +U30 +Weather +,2013-04-26 19:19:00,
2013-04-26 15:20:00,60.7,43.5,30.28,South,178,0.0,0.0,53,0.00,,,-99.99,721.0,HOBO +U30 +Weather +,2013-04-26 19:20:00,
2013-04-26 15:21:00,60.3,42.0,30.29,SE,142,3.4,8.5,50,0.00,,,-99.99,721.0,HOBO +U30 +Weather +,2013-04-26 19:21:00,
2013-04-26 15:22:00,59.7,42.5,30.28,ESE,122,0.9,6.0,52,0.00,,,-99.99,722.0,HOBO +U30 +Weather +,2013-04-26 19:22:00,
2013-04-26 15:23:00,59.7,42.8,30.29,SE,131,1.8,5.1,53,0.00,,,-99.99,724.0,HOBO +U30 +Weather +,2013-04-26 19:23:00,
2013-04-26 15:24:00,59.7,43.5,30.28,SE,131,2.5,6.7,55,0.00,,,-99.99,724.0,HOBO +U30 +Weather +,2013-04-26 19:24:00,
2013-04-26 15:25:00,60.3,44.8,30.29,East,93,0.0,4.3,56,0.00,,,-99.99,723.0,HOBO +U30 +Weather +,2013-04-26 19:25:00,
2013-04-26 15:26:00,61.0,44.2,30.29,SSE,150,0.0,2.5,53,0.00,,,-99.99,721.0,HOBO +U30 +Weather +,2013-04-26 19:26:00,
2013-04-26 15:27:00,61.0,43.7,30.29,ESE,107,2.5,8.5,52,0.00,,,-99.99,724.0,HOBO +U30 +Weather +,2013-04-26 19:27:00,
2013-04-26 15:28:00,60.3,42.6,30.28,SSE,153,4.3,6.7,52,0.00,,,-99.99,726.0,HOBO +U30 +Weather +,2013-04-26 19:28:00,
2013-04-26 15:29:00,59.7,42.7,30.28,SSE,147,4.3,8.5,53,0.00,,,-99.99,724.0,HOBO +U30 +Weather +,2013-04-26 19:29:00,
2013-04-26 15:30:00,59.5,42.4,30.28,SSE,164,4.3,9.4,53,0.00,,,-99.99,724.0,HOBO +U30 +Weather +,2013-04-26 19:30:00,
2013-04-26 15:31:00,58.9,42.0,30.28,SSE,164,5.1,7.6,53,0.00,,,-99.99,723.0,HOBO +U30 +Weather +,2013-04-26 19:31:00,
2013-04-26 15:32:00,58.7,42.4,30.28,SSE,159,5.1,8.5,54,0.00,,,-99.99,724.0,HOBO +U30 +Weather +,2013-04-26 19:32:00,
2013-04-26 15:33:00,58.7,42.6,30.28,SE,140,3.4,7.6,55,0.00,,,-99.99,724.0,HOBO +U30 +Weather +,2013-04-26 19:33:00,
2013-04-26 15:34:00,59.2,42.8,30.28,SSE,161,2.5,6.0,54,0.00,,,-99.99,726.0,HOBO +U30 +Weather +,2013-04-26 19:34:00,
2013-04-26 15:35:00,59.3,43.0,30.28,SE,131,1.8,5.1,54,0.00,,,-99.99,726.0,HOBO +U30 +Weather +,2013-04-26 19:35:00,
2013-04-26 15:36:00,59.5,43.7,30.28,SE,128,2.5,6.0,55,0.00,,,-99.99,729.0,HOBO +U30 +Weather +,2013-04-26 19:36:00,
2013-04-26 15:37:00,59.3,42.9,30.28,SSE,154,4.3,6.7,54,0.00,,,-99.99,727.0,HOBO +U30 +Weather +,2013-04-26 19:37:00,
2013-04-26 15:38:00,59.4,43.0,30.28,SSE,149,1.8,5.1,54,0.00,,,-99.99,728.0,HOBO +U30 +Weather +,2013-04-26 19:38:00,
2013-04-26 15:39:00,59.9,44.0,30.28,SE,139,0.9,6.0,55,0.00,,,-99.99,728.0,HOBO +U30 +Weather +,2013-04-26 19:39:00,
2013-04-26 15:40:00,59.6,42.9,30.27,SE,135,3.4,8.5,54,0.00,,,-99.99,728.0,HOBO +U30 +Weather +,2013-04-26 19:40:00,
2013-04-26 15:41:00,59.5,43.8,30.28,SE,146,1.8,9.4,56,0.00,,,-99.99,728.0,HOBO +U30 +Weather +,2013-04-26 19:41:00,
2013-04-26 15:42:00,59.7,43.3,30.27,SE,124,0.9,4.3,54,0.00,,,-99.99,733.0,HOBO +U30 +Weather +,2013-04-26 19:42:00,
2013-04-26 15:43:00,59.8,43.6,30.28,ESE,118,2.5,5.1,54,0.00,,,-99.99,723.0,HOBO +U30 +Weather +,2013-04-26 19:43:00,
2013-04-26 15:44:00,59.9,43.9,30.28,East,94,2.5,6.0,55,0.00,,,-99.99,728.0,HOBO +U30 +Weather +,2013-04-26 19:44:00,
2013-04-26 15:45:00,60.1,43.7,30.28,SE,128,0.9,6.0,54,0.00,,,-99.99,731.0,HOBO +U30 +Weather +,2013-04-26 19:45:00,
2013-04-26 15:46:00,59.8,43.4,30.28,ESE,119,1.8,5.1,54,0.00,,,-99.99,727.0,HOBO +U30 +Weather +,2013-04-26 19:46:00,
2013-04-26 15:47:00,59.6,43.4,30.28,SE,124,4.3,9.4,55,0.00,,,-99.99,727.0,HOBO +U30 +Weather +,2013-04-26 19:47:00,
2013-04-26 15:48:00,59.5,44.0,30.28,SE,136,0.9,7.6,56,0.00,,,-99.99,727.0,HOBO +U30 +Weather +,2013-04-26 19:48:00,
2013-04-26 15:49:00,60.1,44.4,30.27,ESE,121,0.9,2.5,56,0.00,,,-99.99,727.0,HOBO +U30 +Weather +,2013-04-26 19:49:00,
2013-04-26 15:50:00,60.2,43.5,30.28,SE,135,1.8,6.7,53,0.00,,,-99.99,724.0,HOBO +U30 +Weather +,2013-04-26 19:50:00,
2013-04-26 15:51:00,60.0,43.6,30.28,SE,140,3.4,6.0,54,0.00,,,-99.99,727.0,HOBO +U30 +Weather +,2013-04-26 19:51:00,
2013-04-26 15:52:00,60.0,44.2,30.28,SE,143,1.8,5.1,55,0.00,,,-99.99,728.0,HOBO +U30 +Weather +,2013-04-26 19:52:00,
2013-04-26 15:53:00,60.2,43.6,30.27,SSE,153,1.8,4.3,54,0.00,,,-99.99,728.0,HOBO +U30 +Weather +,2013-04-26 19:53:00,
2013-04-26 15:54:00,59.9,43.6,30.28,SE,126,2.5,6.7,54,0.00,,,-99.99,727.0,HOBO +U30 +Weather +,2013-04-26 19:54:00,
2013-04-26 15:55:00,60.2,44.1,30.27,SE,133,0.9,5.1,55,0.00,,,-99.99,727.0,HOBO +U30 +Weather +,2013-04-26 19:55:00,
2013-04-26 15:56:00,60.3,44.1,30.27,ESE,108,2.5,4.3,55,0.00,,,-99.99,727.0,HOBO +U30 +Weather +,2013-04-26 19:56:00,
2013-04-26 15:57:00,59.7,43.6,30.27,SE,124,2.5,6.7,55,0.00,,,-99.99,726.0,HOBO +U30 +Weather +,2013-04-26 19:57:00,
2013-04-26 15:58:00,59.1,43.0,30.27,SE,132,4.3,10.3,55,0.00,,,-99.99,726.0,HOBO +U30 +Weather +,2013-04-26 19:58:00,
2013-04-26 15:59:00,58.9,43.7,30.27,SE,146,3.4,9.4,56,0.00,,,-99.99,723.0,HOBO +U30 +Weather +,2013-04-26 19:59:00,
2013-04-26 16:00:00,59.1,43.7,30.27,SE,139,3.4,6.7,56,0.00,,,-99.99,722.0,HOBO +U30 +Weather +,2013-04-26 20:00:00,
2013-04-26 16:01:00,59.4,43.7,30.27,SE,140,2.5,6.7,56,0.00,,,-99.99,722.0,HOBO +U30 +Weather +,2013-04-26 20:01:00,
2013-04-26 16:02:00,59.1,43.2,30.27,SE,145,5.1,9.4,55,0.00,,,-99.99,723.0,HOBO +U30 +Weather +,2013-04-26 20:02:00,
2013-04-26 16:03:00,58.6,43.0,30.27,SE,145,4.3,8.5,56,0.00,,,-99.99,724.0,HOBO +U30 +Weather +,2013-04-26 20:03:00,
2013-04-26 16:04:00,58.9,44.2,30.27,SE,146,2.5,6.7,57,0.00,,,-99.99,724.0,HOBO +U30 +Weather +,2013-04-26 20:04:00,
2013-04-26 16:05:00,59.5,43.8,30.27,SSE,150,2.5,6.7,55,0.00,,,-99.99,722.0,HOBO +U30 +Weather +,2013-04-26 20:05:00,
2013-04-26 16:06:00,59.2,44.1,30.27,SE,135,1.8,6.0,57,0.00,,,-99.99,719.0,HOBO +U30 +Weather +,2013-04-26 20:06:00,
2013-04-26 16:07:00,59.4,44.2,30.27,SSE,156,2.5,6.0,57,0.00,,,-99.99,718.0,HOBO +U30 +Weather +,2013-04-26 20:07:00,
2013-04-26 16:08:00,59.1,43.8,30.27,SSE,153,5.1,8.5,56,0.00,,,-99.99,718.0,HOBO +U30 +Weather +,2013-04-26 20:08:00,
2013-04-26 16:09:00,58.9,44.0,30.27,SE,140,4.3,11.0,57,0.00,,,-99.99,717.0,HOBO +U30 +Weather +,2013-04-26 20:09:00,
2013-04-26 16:10:00,59.4,44.2,30.27,SE,131,0.0,2.5,57,0.00,,,-99.99,716.0,HOBO +U30 +Weather +,2013-04-26 20:10:00,
2013-04-26 16:11:00,59.8,44.7,30.27,South,175,0.0,0.9,57,0.00,,,-99.99,717.0,HOBO +U30 +Weather +,2013-04-26 20:11:00,
2013-04-26 16:12:00,60.3,44.9,30.27,SSE,160,0.0,0.9,56,0.00,,,-99.99,717.0,HOBO +U30 +Weather +,2013-04-26 20:12:00,
2013-04-26 16:13:00,60.8,45.0,30.27,ESE,119,0.0,0.0,55,0.00,,,-99.99,717.0,HOBO +U30 +Weather +,2013-04-26 20:13:00,
2013-04-26 16:14:00,61.2,45.4,30.27,ESE,108,0.0,1.8,56,0.00,,,-99.99,719.0,HOBO +U30 +Weather +,2013-04-26 20:14:00,
2013-04-26 16:15:00,61.6,43.1,30.27,NW,317,0.0,1.8,50,0.00,,,-99.99,721.0,HOBO +U30 +Weather +,2013-04-26 20:15:00,
2013-04-26 16:16:00,61.3,42.4,30.27,West,272,0.0,1.8,49,0.00,,,-99.99,718.0,HOBO +U30 +Weather +,2013-04-26 20:16:00,
2013-04-26 16:17:00,61.6,43.4,30.28,West,260,0.0,1.8,51,0.00,,,-99.99,718.0,HOBO +U30 +Weather +,2013-04-26 20:17:00,
2013-04-26 16:18:00,62.0,44.2,30.27,SSW,202,0.0,0.9,52,0.00,,,-99.99,714.0,HOBO +U30 +Weather +,2013-04-26 20:18:00,
2013-04-26 16:19:00,62.3,44.9,30.28,SSE,157,0.0,0.0,52,0.00,,,-99.99,717.0,HOBO +U30 +Weather +,2013-04-26 20:19:00,
2013-04-26 16:20:00,61.8,44.6,30.28,SE,136,0.9,4.3,53,0.00,,,-99.99,714.0,HOBO +U30 +Weather +,2013-04-26 20:20:00,
2013-04-26 16:21:00,61.3,44.2,30.28,SE,139,0.0,3.4,53,0.00,,,-99.99,711.0,HOBO +U30 +Weather +,2013-04-26 20:21:00,
2013-04-26 16:22:00,61.1,44.9,30.27,SE,124,0.9,3.4,55,0.00,,,-99.99,713.0,HOBO +U30 +Weather +,2013-04-26 20:22:00,
2013-04-26 16:23:00,60.9,44.3,30.28,East,97,0.9,4.3,54,0.00,,,-99.99,709.0,HOBO +U30 +Weather +,2013-04-26 20:23:00,
2013-04-26 16:24:00,60.6,43.6,30.28,SSE,149,1.8,6.0,53,0.00,,,-99.99,708.0,HOBO +U30 +Weather +,2013-04-26 20:24:00,
2013-04-26 16:25:00,59.8,43.2,30.28,SW,227,4.3,7.6,54,0.00,,,-99.99,709.0,HOBO +U30 +Weather +,2013-04-26 20:25:00,
2013-04-26 16:26:00,59.7,44.1,30.28,SW,215,0.9,3.4,56,0.00,,,-99.99,708.0,HOBO +U30 +Weather +,2013-04-26 20:26:00,
2013-04-26 16:27:00,60.4,44.2,30.28,SSW,202,0.0,1.8,55,0.00,,,-99.99,707.0,HOBO +U30 +Weather +,2013-04-26 20:27:00,
2013-04-26 16:28:00,60.3,43.4,30.28,South,175,0.9,6.7,53,0.00,,,-99.99,708.0,HOBO +U30 +Weather +,2013-04-26 20:28:00,
2013-04-26 16:29:00,60.0,43.6,30.28,SE,126,0.0,0.9,54,0.00,,,-99.99,706.0,HOBO +U30 +Weather +,2013-04-26 20:29:00,
2013-04-26 16:30:00,60.3,43.9,30.28,SSE,161,0.0,0.9,54,0.00,,,-99.99,706.0,HOBO +U30 +Weather +,2013-04-26 20:30:00,
2013-04-26 16:31:00,60.3,43.4,30.28,SE,139,2.5,7.6,53,0.00,,,-99.99,706.0,HOBO +U30 +Weather +,2013-04-26 20:31:00,
2013-04-26 16:32:00,59.9,43.5,30.28,SE,129,1.8,5.1,54,0.00,,,-99.99,704.0,HOBO +U30 +Weather +,2013-04-26 20:32:00,
2013-04-26 16:33:00,59.9,44.0,30.28,SE,138,0.9,2.5,55,0.00,,,-99.99,703.0,HOBO +U30 +Weather +,2013-04-26 20:33:00,
2013-04-26 16:34:00,60.0,43.9,30.28,SE,132,2.5,4.3,55,0.00,,,-99.99,702.0,HOBO +U30 +Weather +,2013-04-26 20:34:00,
2013-04-26 16:35:00,59.9,43.8,30.28,SE,140,3.4,7.6,55,0.00,,,-99.99,701.0,HOBO +U30 +Weather +,2013-04-26 20:35:00,
2013-04-26 16:36:00,60.4,44.6,30.28,SSE,149,0.0,4.3,55,0.00,,,-99.99,694.0,HOBO +U30 +Weather +,2013-04-26 20:36:00,
2013-04-26 16:37:00,60.9,44.3,30.27,SE,124,0.9,4.3,54,0.00,,,-99.99,698.0,HOBO +U30 +Weather +,2013-04-26 20:37:00,
2013-04-26 16:38:00,59.9,42.8,30.28,SSE,150,5.1,7.6,53,0.00,,,-99.99,698.0,HOBO +U30 +Weather +,2013-04-26 20:38:00,
2013-04-26 16:39:00,59.4,42.7,30.27,SSE,154,1.8,4.3,53,0.00,,,-99.99,698.0,HOBO +U30 +Weather +,2013-04-26 20:39:00,
2013-04-26 16:40:00,59.4,43.4,30.28,SSE,149,0.0,2.5,55,0.00,,,-99.99,697.0,HOBO +U30 +Weather +,2013-04-26 20:40:00,
2013-04-26 16:41:00,59.8,43.9,30.28,SE,142,0.9,4.3,55,0.00,,,-99.99,697.0,HOBO +U30 +Weather +,2013-04-26 20:41:00,
2013-04-26 16:42:00,60.4,44.3,30.28,SSE,163,0.0,0.0,55,0.00,,,-99.99,694.0,HOBO +U30 +Weather +,2013-04-26 20:42:00,
2013-04-26 16:43:00,60.4,43.6,30.28,SE,133,1.8,5.1,53,0.00,,,-99.99,691.0,HOBO +U30 +Weather +,2013-04-26 20:43:00,
2013-04-26 16:44:00,60.3,43.3,30.28,SSE,159,0.0,2.5,53,0.00,,,-99.99,688.0,HOBO +U30 +Weather +,2013-04-26 20:44:00,
2013-04-26 16:45:00,59.9,43.1,30.28,SE,128,1.8,5.1,53,0.00,,,-99.99,686.0,HOBO +U30 +Weather +,2013-04-26 20:45:00,
2013-04-26 16:46:00,59.8,43.6,30.28,ESE,107,1.8,8.5,54,0.00,,,-99.99,682.0,HOBO +U30 +Weather +,2013-04-26 20:46:00,
2013-04-26 16:47:00,59.8,43.5,30.28,East,79,1.8,3.4,54,0.00,,,-99.99,678.0,HOBO +U30 +Weather +,2013-04-26 20:47:00,
2013-04-26 16:48:00,59.4,43.0,30.28,ENE,66,3.4,7.6,54,0.00,,,-99.99,677.0,HOBO +U30 +Weather +,2013-04-26 20:48:00,
2013-04-26 16:49:00,59.2,43.3,30.27,ESE,114,2.5,5.1,55,0.00,,,-99.99,678.0,HOBO +U30 +Weather +,2013-04-26 20:49:00,
2013-04-26 16:50:00,59.1,42.8,30.27,SE,131,3.4,6.0,54,0.00,,,-99.99,676.0,HOBO +U30 +Weather +,2013-04-26 20:50:00,
2013-04-26 16:51:00,58.8,42.6,30.28,SE,146,3.4,9.4,54,0.00,,,-99.99,674.0,HOBO +U30 +Weather +,2013-04-26 20:51:00,
2013-04-26 16:52:00,58.7,42.5,30.28,SSE,157,2.5,5.1,54,0.00,,,-99.99,674.0,HOBO +U30 +Weather +,2013-04-26 20:52:00,
2013-04-26 16:53:00,58.9,42.7,30.28,South,170,2.5,4.3,54,0.00,,,-99.99,671.0,HOBO +U30 +Weather +,2013-04-26 20:53:00,
2013-04-26 16:54:00,59.2,43.0,30.28,SSE,166,0.0,2.5,54,0.00,,,-99.99,669.0,HOBO +U30 +Weather +,2013-04-26 20:54:00,
2013-04-26 16:55:00,59.3,42.7,30.28,SE,133,1.8,6.0,54,0.00,,,-99.99,668.0,HOBO +U30 +Weather +,2013-04-26 20:55:00,
2013-04-26 16:56:00,59.1,42.4,30.28,SE,135,0.0,6.0,53,0.00,,,-99.99,664.0,HOBO +U30 +Weather +,2013-04-26 20:56:00,
2013-04-26 16:57:00,59.2,43.1,30.28,SSE,152,0.0,0.9,55,0.00,,,-99.99,663.0,HOBO +U30 +Weather +,2013-04-26 20:57:00,
2013-04-26 16:58:00,59.4,42.9,30.27,ESE,102,0.0,0.9,54,0.00,,,-99.99,667.0,HOBO +U30 +Weather +,2013-04-26 20:58:00,
2013-04-26 16:59:00,59.4,43.0,30.28,NE,48,0.9,3.4,54,0.00,,,-99.99,664.0,HOBO +U30 +Weather +,2013-04-26 20:59:00,
2013-04-26 17:00:00,59.7,43.5,30.27,NNE,13,0.0,3.4,55,0.00,,,-99.99,663.0,HOBO +U30 +Weather +,2013-04-26 21:00:00,
2013-04-26 17:01:00,60.1,43.3,30.28,South,180,0.9,6.0,53,0.00,,,-99.99,663.0,HOBO +U30 +Weather +,2013-04-26 21:01:00,
2013-04-26 17:02:00,59.7,42.5,30.28,SSE,167,5.1,7.6,52,0.00,,,-99.99,659.0,HOBO +U30 +Weather +,2013-04-26 21:02:00,
2013-04-26 17:03:00,59.6,42.9,30.28,South,177,0.9,6.7,53,0.00,,,-99.99,657.0,HOBO +U30 +Weather +,2013-04-26 21:03:00,
2013-04-26 17:04:00,59.0,42.4,30.28,WSW,248,1.8,6.0,53,0.00,,,-99.99,656.0,HOBO +U30 +Weather +,2013-04-26 21:04:00,
2013-04-26 17:05:00,58.6,42.3,30.28,East,95,1.8,3.4,54,0.00,,,-99.99,652.0,HOBO +U30 +Weather +,2013-04-26 21:05:00,
2013-04-26 17:06:00,58.1,42.4,30.27,NE,42,3.4,6.7,55,0.00,,,-99.99,652.0,HOBO +U30 +Weather +,2013-04-26 21:06:00,
2013-04-26 17:07:00,57.8,41.9,30.29,SE,129,6.0,10.3,55,0.00,,,-99.99,648.0,HOBO +U30 +Weather +,2013-04-26 21:07:00,
2013-04-26 17:08:00,57.6,41.8,30.28,SE,138,3.4,6.7,55,0.00,,,-99.99,647.0,HOBO +U30 +Weather +,2013-04-26 21:08:00,
2013-04-26 17:09:00,57.7,42.1,30.28,SSE,153,0.9,2.5,55,0.00,,,-99.99,646.0,HOBO +U30 +Weather +,2013-04-26 21:09:00,
2013-04-26 17:10:00,58.1,42.4,30.28,West,279,0.0,0.0,55,0.00,,,-99.99,642.0,HOBO +U30 +Weather +,2013-04-26 21:10:00,
2013-04-26 17:11:00,58.4,42.4,30.28,West,279,0.0,0.9,55,0.00,,,-99.99,641.0,HOBO +U30 +Weather +,2013-04-26 21:11:00,
2013-04-26 17:12:00,58.6,42.6,30.28,North,6,1.8,7.6,55,0.00,,,-99.99,639.0,HOBO +U30 +Weather +,2013-04-26 21:12:00,
2013-04-26 17:13:00,58.7,42.4,30.28,NW,324,3.4,6.0,54,0.00,,,-99.99,637.0,HOBO +U30 +Weather +,2013-04-26 21:13:00,
2013-04-26 17:14:00,58.7,40.8,30.28,WSW,237,0.9,3.4,51,0.00,,,-99.99,633.0,HOBO +U30 +Weather +,2013-04-26 21:14:00,
2013-04-26 17:15:00,59.1,42.0,30.28,WSW,241,0.0,0.0,53,0.00,,,-99.99,629.0,HOBO +U30 +Weather +,2013-04-26 21:15:00,
2013-04-26 17:16:00,59.0,42.3,30.29,SE,143,0.0,3.4,53,0.00,,,-99.99,626.0,HOBO +U30 +Weather +,2013-04-26 21:16:00,
2013-04-26 17:17:00,59.0,42.4,30.29,NE,49,0.0,5.1,53,0.00,,,-99.99,622.0,HOBO +U30 +Weather +,2013-04-26 21:17:00,
2013-04-26 17:18:00,58.4,41.8,30.29,SW,223,3.4,7.6,53,0.00,,,-99.99,619.0,HOBO +U30 +Weather +,2013-04-26 21:18:00,
2013-04-26 17:19:00,58.4,42.7,30.28,South,187,0.0,3.4,55,0.00,,,-99.99,613.0,HOBO +U30 +Weather +,2013-04-26 21:19:00,
2013-04-26 17:20:00,58.5,42.3,30.28,South,174,1.8,6.0,54,0.00,,,-99.99,612.0,HOBO +U30 +Weather +,2013-04-26 21:20:00,
2013-04-26 17:21:00,58.5,42.6,30.29,SSE,150,0.0,4.3,55,0.00,,,-99.99,611.0,HOBO +U30 +Weather +,2013-04-26 21:21:00,
2013-04-26 17:22:00,58.1,41.8,30.29,SSW,209,0.0,4.3,54,0.00,,,-99.99,609.0,HOBO +U30 +Weather +,2013-04-26 21:22:00,
2013-04-26 17:23:00,57.5,42.0,30.29,SW,232,1.8,4.3,56,0.00,,,-99.99,611.0,HOBO +U30 +Weather +,2013-04-26 21:23:00,
2013-04-26 17:24:00,57.6,42.4,30.29,WSW,247,0.0,1.8,56,0.00,,,-99.99,606.0,HOBO +U30 +Weather +,2013-04-26 21:24:00,
2013-04-26 17:25:00,57.9,42.6,30.29,SSE,153,0.0,2.5,56,0.00,,,-99.99,603.0,HOBO +U30 +Weather +,2013-04-26 21:25:00,
2013-04-26 17:26:00,58.0,42.8,30.29,SSE,159,0.0,2.5,56,0.00,,,-99.99,601.0,HOBO +U30 +Weather +,2013-04-26 21:26:00,
2013-04-26 17:27:00,58.3,43.4,30.29,SE,129,0.0,0.0,57,0.00,,,-99.99,598.0,HOBO +U30 +Weather +,2013-04-26 21:27:00,
2013-04-26 17:28:00,58.2,43.1,30.29,SE,124,0.9,3.4,57,0.00,,,-99.99,596.0,HOBO +U30 +Weather +,2013-04-26 21:28:00,
2013-04-26 17:29:00,57.8,42.7,30.29,SE,139,1.8,5.1,57,0.00,,,-99.99,594.0,HOBO +U30 +Weather +,2013-04-26 21:29:00,
2013-04-26 17:30:00,57.7,42.9,30.29,South,180,0.0,3.4,57,0.00,,,-99.99,593.0,HOBO +U30 +Weather +,2013-04-26 21:30:00,
2013-04-26 17:31:00,57.8,42.7,30.29,NW,326,0.9,3.4,56,0.00,,,-99.99,587.0,HOBO +U30 +Weather +,2013-04-26 21:31:00,
2013-04-26 17:32:00,57.5,42.6,30.29,NNE,24,2.5,5.1,57,0.00,,,-99.99,587.0,HOBO +U30 +Weather +,2013-04-26 21:32:00,
2013-04-26 17:33:00,57.4,41.9,30.29,North,355,0.9,6.0,56,0.00,,,-99.99,586.0,HOBO +U30 +Weather +,2013-04-26 21:33:00,
2013-04-26 17:34:00,57.8,42.4,30.29,North,7,0.0,0.0,56,0.00,,,-99.99,581.0,HOBO +U30 +Weather +,2013-04-26 21:34:00,
2013-04-26 17:35:00,58.1,43.1,30.29,North,355,0.0,0.0,57,0.00,,,-99.99,577.0,HOBO +U30 +Weather +,2013-04-26 21:35:00,
2013-04-26 17:36:00,58.4,41.5,30.29,WSW,246,0.0,5.1,53,0.00,,,-99.99,574.0,HOBO +U30 +Weather +,2013-04-26 21:36:00,
2013-04-26 17:37:00,58.5,41.3,30.30,WNW,298,1.8,6.0,52,0.00,,,-99.99,576.0,HOBO +U30 +Weather +,2013-04-26 21:37:00,
2013-04-26 17:38:00,58.7,41.3,30.29,WSW,253,0.0,0.9,52,0.00,,,-99.99,574.0,HOBO +U30 +Weather +,2013-04-26 21:38:00,
2013-04-26 17:39:00,58.6,41.4,30.29,SSE,168,2.5,5.1,52,0.00,,,-99.99,569.0,HOBO +U30 +Weather +,2013-04-26 21:39:00,
2013-04-26 17:40:00,58.5,40.9,30.29,SW,218,0.0,1.8,51,0.00,,,-99.99,566.0,HOBO +U30 +Weather +,2013-04-26 21:40:00,
2013-04-26 17:41:00,58.8,41.7,30.29,WSW,240,0.0,0.0,52,0.00,,,-99.99,566.0,HOBO +U30 +Weather +,2013-04-26 21:41:00,
2013-04-26 17:42:00,59.0,41.3,30.29,SW,230,0.0,2.5,51,0.00,,,-99.99,562.0,HOBO +U30 +Weather +,2013-04-26 21:42:00,
2013-04-26 17:43:00,58.9,41.1,30.29,WSW,253,0.0,2.5,51,0.00,,,-99.99,559.0,HOBO +U30 +Weather +,2013-04-26 21:43:00,
2013-04-26 17:44:00,58.9,40.9,30.29,WSW,244,1.8,4.3,51,0.00,,,-99.99,557.0,HOBO +U30 +Weather +,2013-04-26 21:44:00,
2013-04-26 17:45:00,58.6,40.8,30.29,West,265,0.9,2.5,51,0.00,,,-99.99,553.0,HOBO +U30 +Weather +,2013-04-26 21:45:00,
2013-04-26 17:46:00,58.6,40.6,30.29,WSW,244,0.0,0.0,51,0.00,,,-99.99,552.0,HOBO +U30 +Weather +,2013-04-26 21:46:00,
2013-04-26 17:47:00,58.5,41.0,30.29,SW,215,0.0,0.9,52,0.00,,,-99.99,551.0,HOBO +U30 +Weather +,2013-04-26 21:47:00,
2013-04-26 17:48:00,58.5,40.4,30.29,SW,215,0.0,0.0,50,0.00,,,-99.99,547.0,HOBO +U30 +Weather +,2013-04-26 21:48:00,
2013-04-26 17:49:00,58.4,40.1,30.29,SSW,205,0.0,0.0,50,0.00,,,-99.99,543.0,HOBO +U30 +Weather +,2013-04-26 21:49:00,
2013-04-26 17:50:00,58.2,40.3,30.29,SW,220,0.0,3.4,51,0.00,,,-99.99,541.0,HOBO +U30 +Weather +,2013-04-26 21:50:00,
2013-04-26 17:51:00,58.2,40.5,30.29,SSE,163,0.0,0.9,51,0.00,,,-99.99,536.0,HOBO +U30 +Weather +,2013-04-26 21:51:00,
2013-04-26 17:52:00,58.2,40.8,30.29,SW,232,0.0,0.9,52,0.00,,,-99.99,532.0,HOBO +U30 +Weather +,2013-04-26 21:52:00,
2013-04-26 17:53:00,58.1,41.0,30.29,WNW,300,0.9,3.4,52,0.00,,,-99.99,527.0,HOBO +U30 +Weather +,2013-04-26 21:53:00,
2013-04-26 17:54:00,57.9,40.6,30.30,WSW,251,0.9,6.0,52,0.00,,,-99.99,521.0,HOBO +U30 +Weather +,2013-04-26 21:54:00,
2013-04-26 17:55:00,57.8,40.6,30.30,WSW,248,0.0,3.4,52,0.00,,,-99.99,517.0,HOBO +U30 +Weather +,2013-04-26 21:55:00,
2013-04-26 17:56:00,57.7,40.7,30.30,WSW,253,0.0,3.4,53,0.00,,,-99.99,513.0,HOBO +U30 +Weather +,2013-04-26 21:56:00,
2013-04-26 17:57:00,57.6,40.7,30.30,SW,236,0.9,4.3,53,0.00,,,-99.99,508.0,HOBO +U30 +Weather +,2013-04-26 21:57:00,
2013-04-26 17:58:00,57.5,40.5,30.29,WSW,241,0.0,1.8,53,0.00,,,-99.99,506.0,HOBO +U30 +Weather +,2013-04-26 21:58:00,
2013-04-26 17:59:00,57.2,40.4,30.29,West,275,1.8,5.1,53,0.00,,,-99.99,502.0,HOBO +U30 +Weather +,2013-04-26 21:59:00,
2013-04-26 18:00:00,57.2,40.9,30.30,West,264,0.0,2.5,54,0.00,,,-99.99,499.0,HOBO +U30 +Weather +,2013-04-26 22:00:00,
2013-04-26 18:01:00,57.1,40.8,30.30,West,272,1.8,5.1,54,0.00,,,-99.99,496.0,HOBO +U30 +Weather +,2013-04-26 22:01:00,
2013-04-26 18:02:00,56.6,40.5,30.30,WSW,248,1.8,4.3,54,0.00,,,-99.99,492.0,HOBO +U30 +Weather +,2013-04-26 22:02:00,
2013-04-26 18:03:00,56.7,40.8,30.30,WSW,254,0.0,0.0,55,0.00,,,-99.99,486.0,HOBO +U30 +Weather +,2013-04-26 22:03:00,
2013-04-26 18:04:00,57.0,40.6,30.30,WSW,257,0.0,1.8,54,0.00,,,-99.99,482.0,HOBO +U30 +Weather +,2013-04-26 22:04:00,
2013-04-26 18:05:00,57.0,40.4,30.30,WSW,248,0.0,0.0,53,0.00,,,-99.99,479.0,HOBO +U30 +Weather +,2013-04-26 22:05:00,
2013-04-26 18:06:00,56.9,40.6,30.30,SW,233,0.0,0.9,54,0.00,,,-99.99,477.0,HOBO +U30 +Weather +,2013-04-26 22:06:00,
2013-04-26 18:07:00,57.0,40.7,30.30,SSW,209,0.0,1.8,54,0.00,,,-99.99,473.0,HOBO +U30 +Weather +,2013-04-26 22:07:00,
2013-04-26 18:08:00,56.9,40.5,30.30,SW,226,0.0,3.4,54,0.00,,,-99.99,467.0,HOBO +U30 +Weather +,2013-04-26 22:08:00,
2013-04-26 18:09:00,56.9,40.5,30.30,SW,220,0.9,4.3,54,0.00,,,-99.99,462.0,HOBO +U30 +Weather +,2013-04-26 22:09:00,
2013-04-26 18:10:00,56.8,40.5,30.30,SW,220,0.0,1.8,54,0.00,,,-99.99,457.0,HOBO +U30 +Weather +,2013-04-26 22:10:00,
2013-04-26 18:11:00,56.6,40.3,30.30,SW,223,1.8,4.3,54,0.00,,,-99.99,451.0,HOBO +U30 +Weather +,2013-04-26 22:11:00,
2013-04-26 18:12:00,56.5,40.3,30.30,SW,216,0.9,4.3,54,0.00,,,-99.99,443.0,HOBO +U30 +Weather +,2013-04-26 22:12:00,
2013-04-26 18:13:00,56.6,40.9,30.30,SW,218,0.0,0.9,55,0.00,,,-99.99,437.0,HOBO +U30 +Weather +,2013-04-26 22:13:00,
2013-04-26 18:14:00,56.4,40.7,30.30,WNW,282,1.8,5.1,55,0.00,,,-99.99,432.0,HOBO +U30 +Weather +,2013-04-26 22:14:00,
2013-04-26 18:15:00,56.3,40.8,30.30,West,272,0.0,1.8,56,0.00,,,-99.99,428.0,HOBO +U30 +Weather +,2013-04-26 22:15:00,
2013-04-26 18:16:00,56.2,40.8,30.30,West,274,0.0,1.8,56,0.00,,,-99.99,422.0,HOBO +U30 +Weather +,2013-04-26 22:16:00,
2013-04-26 18:17:00,56.4,41.0,30.30,WNW,291,0.0,0.9,56,0.00,,,-99.99,416.0,HOBO +U30 +Weather +,2013-04-26 22:17:00,
2013-04-26 18:18:00,56.6,41.2,30.30,WNW,289,0.0,0.0,56,0.00,,,-99.99,411.0,HOBO +U30 +Weather +,2013-04-26 22:18:00,
2013-04-26 18:19:00,56.5,40.8,30.31,West,263,0.0,2.5,55,0.00,,,-99.99,408.0,HOBO +U30 +Weather +,2013-04-26 22:19:00,
2013-04-26 18:20:00,56.4,41.1,30.31,WSW,258,0.0,1.8,56,0.00,,,-99.99,406.0,HOBO +U30 +Weather +,2013-04-26 22:20:00,
2013-04-26 18:21:00,56.3,40.8,30.30,West,267,0.9,3.4,55,0.00,,,-99.99,403.0,HOBO +U30 +Weather +,2013-04-26 22:21:00,
2013-04-26 18:22:00,55.9,40.7,30.30,West,270,0.9,3.4,56,0.00,,,-99.99,397.0,HOBO +U30 +Weather +,2013-04-26 22:22:00,
2013-04-26 18:23:00,55.7,40.6,30.30,West,272,0.9,3.4,56,0.00,,,-99.99,392.0,HOBO +U30 +Weather +,2013-04-26 22:23:00,
2013-04-26 18:24:00,55.7,40.9,30.30,West,263,0.0,0.9,57,0.00,,,-99.99,388.0,HOBO +U30 +Weather +,2013-04-26 22:24:00,
2013-04-26 18:25:00,55.6,40.8,30.30,WNW,299,0.0,1.8,57,0.00,,,-99.99,382.0,HOBO +U30 +Weather +,2013-04-26 22:25:00,
2013-04-26 18:26:00,55.5,41.1,30.30,WNW,300,0.0,1.8,58,0.00,,,-99.99,367.0,HOBO +U30 +Weather +,2013-04-26 22:26:00,
2013-04-26 18:27:00,55.5,40.6,30.30,WNW,286,0.9,3.4,57,0.00,,,-99.99,314.0,HOBO +U30 +Weather +,2013-04-26 22:27:00,
2013-04-26 18:28:00,55.5,40.8,30.30,WSW,251,1.8,4.3,57,0.00,,,-99.99,133.0,HOBO +U30 +Weather +,2013-04-26 22:28:00,
2013-04-26 18:29:00,55.4,40.8,30.30,West,275,0.0,2.5,57,0.00,,,-99.99,124.0,HOBO +U30 +Weather +,2013-04-26 22:29:00,
2013-04-26 18:30:00,55.3,41.0,30.30,WSW,248,0.0,0.9,58,0.00,,,-99.99,146.0,HOBO +U30 +Weather +,2013-04-26 22:30:00,
2013-04-26 18:31:00,55.3,41.0,30.30,WSW,237,0.0,2.5,58,0.00,,,-99.99,213.0,HOBO +U30 +Weather +,2013-04-26 22:31:00,
2013-04-26 18:32:00,55.1,41.0,30.30,West,267,0.9,2.5,58,0.00,,,-99.99,241.0,HOBO +U30 +Weather +,2013-04-26 22:32:00,
2013-04-26 18:33:00,55.0,40.9,30.30,SW,223,0.9,3.4,58,0.00,,,-99.99,201.0,HOBO +U30 +Weather +,2013-04-26 22:33:00,
2013-04-26 18:34:00,55.0,40.9,30.31,SW,230,0.0,0.9,58,0.00,,,-99.99,137.0,HOBO +U30 +Weather +,2013-04-26 22:34:00,
2013-04-26 18:35:00,54.9,41.1,30.30,WNW,285,0.0,0.0,59,0.00,,,-99.99,199.0,HOBO +U30 +Weather +,2013-04-26 22:35:00,
2013-04-26 18:36:00,54.9,41.2,30.31,West,263,0.0,0.0,59,0.00,,,-99.99,208.0,HOBO +U30 +Weather +,2013-04-26 22:36:00,
2013-04-26 18:37:00,54.8,41.1,30.31,West,264,0.0,0.9,59,0.00,,,-99.99,158.0,HOBO +U30 +Weather +,2013-04-26 22:37:00,
2013-04-26 18:38:00,54.7,41.1,30.31,SW,225,0.0,0.9,59,0.00,,,-99.99,112.0,HOBO +U30 +Weather +,2013-04-26 22:38:00,
2013-04-26 18:39:00,54.6,41.0,30.30,WSW,247,0.0,2.5,59,0.00,,,-99.99,79.0,HOBO +U30 +Weather +,2013-04-26 22:39:00,
2013-04-26 18:40:00,54.5,40.9,30.31,WSW,239,1.8,4.3,60,0.00,,,-99.99,72.0,HOBO +U30 +Weather +,2013-04-26 22:40:00,
2013-04-26 18:41:00,54.4,41.0,30.31,West,264,0.9,3.4,60,0.00,,,-99.99,74.0,HOBO +U30 +Weather +,2013-04-26 22:41:00,
2013-04-26 18:42:00,54.2,40.9,30.31,West,275,0.9,3.4,60,0.00,,,-99.99,82.0,HOBO +U30 +Weather +,2013-04-26 22:42:00,
2013-04-26 18:43:00,54.1,40.9,30.31,West,279,0.0,1.8,60,0.00,,,-99.99,108.0,HOBO +U30 +Weather +,2013-04-26 22:43:00,
2013-04-26 18:44:00,54.0,41.0,30.31,West,277,0.0,0.9,61,0.00,,,-99.99,103.0,HOBO +U30 +Weather +,2013-04-26 22:44:00,
2013-04-26 18:45:00,54.0,41.0,30.31,West,274,0.0,0.9,61,0.00,,,-99.99,73.0,HOBO +U30 +Weather +,2013-04-26 22:45:00,
2013-04-26 18:46:00,53.9,41.0,30.32,West,274,0.0,0.0,61,0.00,,,-99.99,73.0,HOBO +U30 +Weather +,2013-04-26 22:46:00,
2013-04-26 18:47:00,53.9,40.8,30.31,West,278,0.0,3.4,61,0.00,,,-99.99,74.0,HOBO +U30 +Weather +,2013-04-26 22:47:00,
2013-04-26 18:48:00,53.9,41.0,30.32,WNW,292,0.0,2.5,61,0.00,,,-99.99,71.0,HOBO +U30 +Weather +,2013-04-26 22:48:00,
2013-04-26 18:49:00,54.0,41.1,30.32,WNW,286,0.0,0.0,61,0.00,,,-99.99,69.0,HOBO +U30 +Weather +,2013-04-26 22:49:00,
2013-04-26 18:50:00,53.9,41.0,30.31,WNW,295,0.0,1.8,61,0.00,,,-99.99,73.0,HOBO +U30 +Weather +,2013-04-26 22:50:00,
2013-04-26 18:51:00,53.7,41.0,30.32,WNW,293,0.0,2.5,61,0.00,,,-99.99,71.0,HOBO +U30 +Weather +,2013-04-26 22:51:00,
2013-04-26 18:52:00,53.7,40.9,30.31,West,268,0.0,2.5,61,0.00,,,-99.99,63.0,HOBO +U30 +Weather +,2013-04-26 22:52:00,
2013-04-26 18:53:00,53.6,40.7,30.32,West,265,1.8,5.1,61,0.00,,,-99.99,59.0,HOBO +U30 +Weather +,2013-04-26 22:53:00,
2013-04-26 18:54:00,53.6,40.8,30.31,West,271,0.0,2.5,61,0.00,,,-99.99,57.0,HOBO +U30 +Weather +,2013-04-26 22:54:00,
2013-04-26 18:55:00,53.5,40.9,30.32,WSW,246,0.0,2.5,62,0.00,,,-99.99,56.0,HOBO +U30 +Weather +,2013-04-26 22:55:00,
2013-04-26 18:56:00,53.5,40.9,30.32,West,260,0.0,1.8,62,0.00,,,-99.99,54.0,HOBO +U30 +Weather +,2013-04-26 22:56:00,
2013-04-26 18:57:00,53.4,40.8,30.32,West,270,0.9,3.4,62,0.00,,,-99.99,53.0,HOBO +U30 +Weather +,2013-04-26 22:57:00,
2013-04-26 18:58:00,53.3,40.9,30.31,West,271,0.0,3.4,62,0.00,,,-99.99,52.0,HOBO +U30 +Weather +,2013-04-26 22:58:00,
2013-04-26 18:59:00,53.2,40.7,30.32,West,261,0.0,2.5,62,0.00,,,-99.99,51.0,HOBO +U30 +Weather +,2013-04-26 22:59:00,
2013-04-26 19:00:00,53.0,40.7,30.33,West,281,0.9,2.5,62,0.00,,,-99.99,49.0,HOBO +U30 +Weather +,2013-04-26 23:00:00,
2013-04-26 19:01:00,52.9,40.7,30.32,WNW,293,1.8,4.3,63,0.00,,,-99.99,47.0,HOBO +U30 +Weather +,2013-04-26 23:01:00,
2013-04-26 19:02:00,52.8,40.8,30.32,WNW,282,0.0,2.5,63,0.00,,,-99.99,46.0,HOBO +U30 +Weather +,2013-04-26 23:02:00,
2013-04-26 19:03:00,52.7,40.8,30.32,WSW,257,0.9,4.3,63,0.00,,,-99.99,44.0,HOBO +U30 +Weather +,2013-04-26 23:03:00,
2013-04-26 19:04:00,52.7,40.8,30.32,WSW,237,0.9,2.5,63,0.00,,,-99.99,42.0,HOBO +U30 +Weather +,2013-04-26 23:04:00,
2013-04-26 19:05:00,52.6,40.9,30.32,WSW,256,0.0,0.9,64,0.00,,,-99.99,41.0,HOBO +U30 +Weather +,2013-04-26 23:05:00,
2013-04-26 19:06:00,52.6,40.8,30.32,WSW,256,0.0,0.0,64,0.00,,,-99.99,39.0,HOBO +U30 +Weather +,2013-04-26 23:06:00,
2013-04-26 19:07:00,52.6,40.7,30.32,SW,229,0.0,0.0,63,0.00,,,-99.99,37.0,HOBO +U30 +Weather +,2013-04-26 23:07:00,
2013-04-26 19:08:00,52.5,40.6,30.32,SW,229,0.0,2.5,63,0.00,,,-99.99,36.0,HOBO +U30 +Weather +,2013-04-26 23:08:00,
2013-04-26 19:09:00,52.4,40.7,30.32,WSW,241,0.0,1.8,64,0.00,,,-99.99,34.0,HOBO +U30 +Weather +,2013-04-26 23:09:00,
2013-04-26 19:10:00,52.3,40.7,30.32,SW,234,0.0,0.9,64,0.00,,,-99.99,33.0,HOBO +U30 +Weather +,2013-04-26 23:10:00,
2013-04-26 19:11:00,52.2,40.6,30.32,WSW,240,0.0,2.5,64,0.00,,,-99.99,32.0,HOBO +U30 +Weather +,2013-04-26 23:11:00,
2013-04-26 19:12:00,52.0,40.6,30.32,WSW,250,0.0,0.0,65,0.00,,,-99.99,29.0,HOBO +U30 +Weather +,2013-04-26 23:12:00,
2013-04-26 19:13:00,51.9,40.7,30.32,WSW,250,0.0,0.0,65,0.00,,,-99.99,29.0,HOBO +U30 +Weather +,2013-04-26 23:13:00,
2013-04-26 19:14:00,51.8,40.6,30.32,West,263,0.0,2.5,65,0.00,,,-99.99,28.0,HOBO +U30 +Weather +,2013-04-26 23:14:00,
2013-04-26 19:15:00,51.7,40.7,30.32,West,275,0.0,0.9,65,0.00,,,-99.99,27.0,HOBO +U30 +Weather +,2013-04-26 23:15:00,
2013-04-26 19:16:00,51.6,40.7,30.33,West,275,0.0,0.0,66,0.00,,,-99.99,26.0,HOBO +U30 +Weather +,2013-04-26 23:16:00,
2013-04-26 19:17:00,51.5,40.7,30.33,West,275,0.0,0.0,66,0.00,,,-99.99,24.0,HOBO +U30 +Weather +,2013-04-26 23:17:00,
2013-04-26 19:18:00,51.5,40.7,30.33,West,272,0.0,1.8,66,0.00,,,-99.99,23.0,HOBO +U30 +Weather +,2013-04-26 23:18:00,
2013-04-26 19:19:00,51.5,40.6,30.32,SW,230,1.8,5.1,66,0.00,,,-99.99,22.0,HOBO +U30 +Weather +,2013-04-26 23:19:00,
2013-04-26 19:20:00,51.5,40.5,30.33,SW,219,0.0,0.0,66,0.00,,,-99.99,21.0,HOBO +U30 +Weather +,2013-04-26 23:20:00,
2013-04-26 19:21:00,51.4,40.5,30.33,SW,234,0.0,0.9,66,0.00,,,-99.99,19.0,HOBO +U30 +Weather +,2013-04-26 23:21:00,
2013-04-26 19:22:00,51.2,40.5,30.33,West,263,0.9,2.5,66,0.00,,,-99.99,18.0,HOBO +U30 +Weather +,2013-04-26 23:22:00,
2013-04-26 19:23:00,51.2,40.3,30.33,West,271,0.0,1.8,66,0.00,,,-99.99,17.0,HOBO +U30 +Weather +,2013-04-26 23:23:00,
2013-04-26 19:24:00,51.1,40.3,30.33,West,272,0.0,2.5,66,0.00,,,-99.99,16.0,HOBO +U30 +Weather +,2013-04-26 23:24:00,
2013-04-26 19:25:00,50.9,40.3,30.33,West,277,0.0,2.5,66,0.00,,,-99.99,14.0,HOBO +U30 +Weather +,2013-04-26 23:25:00,
2013-04-26 19:26:00,50.8,40.3,30.33,West,275,0.0,0.0,66,0.00,,,-99.99,13.0,HOBO +U30 +Weather +,2013-04-26 23:26:00,
2013-04-26 19:27:00,50.8,40.2,30.33,West,275,0.0,0.0,66,0.00,,,-99.99,12.0,HOBO +U30 +Weather +,2013-04-26 23:27:00,
2013-04-26 19:28:00,50.6,39.8,30.33,West,274,0.0,0.9,66,0.00,,,-99.99,11.0,HOBO +U30 +Weather +,2013-04-26 23:28:00,
2013-04-26 19:29:00,50.6,39.7,30.33,West,270,0.0,1.8,66,0.00,,,-99.99,11.0,HOBO +U30 +Weather +,2013-04-26 23:29:00,
2013-04-26 19:30:00,50.5,39.7,30.33,West,270,0.0,0.0,66,0.00,,,-99.99,9.0,HOBO +U30 +Weather +,2013-04-26 23:30:00,
2013-04-26 19:31:00,50.4,39.7,30.33,West,270,0.0,0.0,66,0.00,,,-99.99,8.0,HOBO +U30 +Weather +,2013-04-26 23:31:00,
2013-04-26 19:32:00,50.3,39.6,30.33,West,264,0.0,2.5,66,0.00,,,-99.99,7.0,HOBO +U30 +Weather +,2013-04-26 23:32:00,
2013-04-26 19:33:00,50.3,39.7,30.33,SW,226,0.0,2.5,66,0.00,,,-99.99,7.0,HOBO +U30 +Weather +,2013-04-26 23:33:00,
2013-04-26 19:34:00,50.2,39.6,30.33,SW,226,0.0,0.0,66,0.00,,,-99.99,6.0,HOBO +U30 +Weather +,2013-04-26 23:34:00,
2013-04-26 19:35:00,50.1,39.5,30.33,SW,226,0.0,0.0,66,0.00,,,-99.99,6.0,HOBO +U30 +Weather +,2013-04-26 23:35:00,
2013-04-26 19:36:00,50.0,39.5,30.33,SW,226,0.0,0.0,67,0.00,,,-99.99,4.0,HOBO +U30 +Weather +,2013-04-26 23:36:00,
2013-04-26 19:37:00,50.0,39.4,30.33,WSW,244,0.0,0.9,66,0.00,,,-99.99,3.0,HOBO +U30 +Weather +,2013-04-26 23:37:00,
2013-04-26 19:48:00,49.3,39.0,30.33,WSW,248,0.0,0.0,67,0.00,,,-99.99,1.0,HOBO +U30 +Weather +,2013-04-26 23:48:00,
2013-04-26 19:49:00,49.0,38.9,30.33,WSW,248,0.0,0.0,68,0.00,,,-99.99,1.0,HOBO +U30 +Weather +,2013-04-26 23:49:00,
2013-04-26 19:50:00,48.6,38.9,30.33,WSW,248,0.0,0.0,68,0.00,,,-99.99,1.0,HOBO +U30 +Weather +,2013-04-26 23:50:00,
2013-04-26 19:51:00,48.3,38.8,30.33,WSW,248,0.0,0.0,69,0.00,,,-99.99,1.0,HOBO +U30 +Weather +,2013-04-26 23:51:00,
2013-04-26 19:52:00,48.3,38.8,30.33,WSW,248,0.0,0.0,69,0.00,,,-99.99,1.0,HOBO +U30 +Weather +,2013-04-26 23:52:00,
2013-04-26 19:53:00,48.3,38.9,30.34,WSW,248,0.0,0.0,69,0.00,,,-99.99,1.0,HOBO +U30 +Weather +,2013-04-26 23:53:00,
2013-04-26 19:54:00,48.2,38.7,30.33,WSW,248,0.0,0.0,69,0.00,,,-99.99,1.0,HOBO +U30 +Weather +,2013-04-26 23:54:00,
2013-04-26 19:55:00,48.0,38.6,30.33,WSW,248,0.0,0.0,69,0.00,,,-99.99,1.0,HOBO +U30 +Weather +,2013-04-26 23:55:00,
2013-04-26 19:56:00,47.6,38.4,30.33,WSW,248,0.0,0.0,70,0.00,,,-99.99,1.0,HOBO +U30 +Weather +,2013-04-26 23:56:00,
2013-04-26 19:57:00,47.6,38.7,30.33,WSW,248,0.0,0.0,71,0.00,,,-99.99,1.0,HOBO +U30 +Weather +,2013-04-26 23:57:00,
2013-04-26 19:58:00,47.6,38.8,30.33,WSW,248,0.0,0.0,71,0.00,,,-99.99,1.0,HOBO +U30 +Weather +,2013-04-26 23:58:00,
2013-04-26 19:59:00,47.3,38.6,30.32,WSW,248,0.0,0.0,71,0.00,,,-99.99,1.0,HOBO +U30 +Weather +,2013-04-26 23:59:00,
2013-04-26 20:00:00,47.1,38.6,30.33,WSW,248,0.0,0.0,72,0.00,,,-99.99,1.0,HOBO +U30 +Weather +,2013-04-27 00:00:00,
2013-04-26 20:01:00,46.8,38.6,30.33,WSW,248,0.0,0.0,72,0.00,,,-99.99,1.0,HOBO +U30 +Weather +,2013-04-27 00:01:00,
2013-04-26 20:02:00,46.6,38.6,30.33,WSW,248,0.0,0.0,73,0.00,,,-99.99,1.0,HOBO +U30 +Weather +,2013-04-27 00:02:00,
2013-04-26 20:03:00,46.4,38.7,30.34,WSW,248,0.0,0.0,74,0.00,,,-99.99,1.0,HOBO +U30 +Weather +,2013-04-27 00:03:00,
2013-04-26 20:04:00,46.2,38.6,30.33,WSW,248,0.0,0.0,74,0.00,,,-99.99,1.0,HOBO +U30 +Weather +,2013-04-27 00:04:00,
2013-04-26 20:05:00,46.0,38.6,30.34,WSW,248,0.0,0.0,75,0.00,,,-99.99,1.0,HOBO +U30 +Weather +,2013-04-27 00:05:00,
2013-04-26 20:06:00,45.8,38.5,30.33,WSW,248,0.0,0.0,75,0.00,,,-99.99,1.0,HOBO +U30 +Weather +,2013-04-27 00:06:00,
2013-04-26 20:07:00,45.6,38.4,30.33,WSW,248,0.0,0.0,75,0.00,,,-99.99,1.0,HOBO +U30 +Weather +,2013-04-27 00:07:00,
2013-04-26 20:08:00,45.4,38.2,30.33,WSW,248,0.0,0.0,75,0.00,,,-99.99,1.0,HOBO +U30 +Weather +,2013-04-27 00:08:00,
2013-04-26 20:09:00,45.3,38.2,30.34,WSW,248,0.0,0.0,76,0.00,,,-99.99,1.0,HOBO +U30 +Weather +,2013-04-27 00:09:00,
2013-04-26 20:10:00,45.1,38.2,30.34,WSW,248,0.0,0.0,76,0.00,,,-99.99,1.0,HOBO +U30 +Weather +,2013-04-27 00:10:00,
2013-04-26 20:11:00,45.0,38.1,30.34,WSW,248,0.0,0.0,76,0.00,,,-99.99,1.0,HOBO +U30 +Weather +,2013-04-27 00:11:00,
2013-04-26 20:12:00,44.9,38.1,30.33,WSW,248,0.0,0.0,76,0.00,,,-99.99,1.0,HOBO +U30 +Weather +,2013-04-27 00:12:00,
2013-04-26 20:13:00,44.8,38.1,30.33,WSW,248,0.0,0.0,77,0.00,,,-99.99,1.0,HOBO +U30 +Weather +,2013-04-27 00:13:00,
2013-04-26 20:14:00,44.7,38.1,30.34,WSW,248,0.0,0.0,77,0.00,,,-99.99,1.0,HOBO +U30 +Weather +,2013-04-27 00:14:00,
2013-04-26 20:15:00,44.6,38.1,30.34,WSW,248,0.0,0.0,77,0.00,,,-99.99,1.0,HOBO +U30 +Weather +,2013-04-27 00:15:00,
2013-04-26 20:16:00,44.5,37.9,30.34,WSW,248,0.0,0.0,77,0.00,,,-99.99,1.0,HOBO +U30 +Weather +,2013-04-27 00:16:00,
2013-04-26 20:17:00,44.4,38.0,30.34,WSW,248,0.0,0.0,77,0.00,,,-99.99,1.0,HOBO +U30 +Weather +,2013-04-27 00:17:00,
2013-04-26 20:19:00,44.5,38.1,30.34,WSW,248,0.0,0.0,78,0.00,,,-99.99,1.0,HOBO +U30 +Weather +,2013-04-27 00:19:00,
2013-04-26 20:20:00,44.4,38.0,30.34,WSW,248,0.0,0.0,78,0.00,,,-99.99,1.0,HOBO +U30 +Weather +,2013-04-27 00:20:00,
2013-04-26 20:21:00,44.3,38.1,30.34,WSW,248,0.0,0.0,78,0.00,,,-99.99,1.0,HOBO +U30 +Weather +,2013-04-27 00:21:00,
2013-04-26 20:22:00,44.3,38.1,30.34,WSW,248,0.0,0.0,78,0.00,,,-99.99,1.0,HOBO +U30 +Weather +,2013-04-27 00:22:00,
2013-04-26 20:23:00,44.1,38.0,30.34,WSW,248,0.0,0.0,78,0.00,,,-99.99,1.0,HOBO +U30 +Weather +,2013-04-27 00:23:00,
2013-04-26 20:24:00,44.1,38.1,30.35,WSW,248,0.0,0.0,79,0.00,,,-99.99,1.0,HOBO +U30 +Weather +,2013-04-27 00:24:00,
2013-04-26 20:25:00,44.0,38.0,30.34,WSW,248,0.0,0.0,79,0.00,,,-99.99,1.0,HOBO +U30 +Weather +,2013-04-27 00:25:00,
2013-04-26 20:26:00,44.2,38.2,30.34,WSW,248,0.0,0.0,79,0.00,,,-99.99,1.0,HOBO +U30 +Weather +,2013-04-27 00:26:00,
2013-04-26 20:27:00,44.3,38.2,30.35,WSW,248,0.0,0.0,79,0.00,,,-99.99,1.0,HOBO +U30 +Weather +,2013-04-27 00:27:00,
2013-04-26 20:28:00,44.5,38.5,30.34,SW,233,0.0,0.0,79,0.00,,,-99.99,1.0,HOBO +U30 +Weather +,2013-04-27 00:28:00,
2013-04-26 20:29:00,44.8,38.8,30.34,SSW,204,0.0,0.0,79,0.00,,,-99.99,1.0,HOBO +U30 +Weather +,2013-04-27 00:29:00,
2013-04-26 20:30:00,44.9,38.9,30.34,SSW,204,0.0,0.0,79,0.00,,,-99.99,1.0,HOBO +U30 +Weather +,2013-04-27 00:30:00,
2013-04-26 20:31:00,44.9,39.0,30.34,SSW,199,0.0,0.0,79,0.00,,,-99.99,1.0,HOBO +U30 +Weather +,2013-04-27 00:31:00,
2013-04-26 20:32:00,44.9,39.0,30.34,South,188,0.0,0.0,79,0.00,,,-99.99,1.0,HOBO +U30 +Weather +,2013-04-27 00:32:00,
2013-04-26 20:33:00,44.7,38.7,30.35,South,188,0.0,0.0,79,0.00,,,-99.99,1.0,HOBO +U30 +Weather +,2013-04-27 00:33:00,
2013-04-26 20:34:00,44.5,38.6,30.34,South,188,0.0,0.0,79,0.00,,,-99.99,1.0,HOBO +U30 +Weather +,2013-04-27 00:34:00,
2013-04-26 20:35:00,44.3,38.5,30.34,South,188,0.0,0.0,79,0.00,,,-99.99,1.0,HOBO +U30 +Weather +,2013-04-27 00:35:00,
2013-04-26 20:36:00,44.2,38.5,30.35,South,188,0.0,0.0,80,0.00,,,-99.99,1.0,HOBO +U30 +Weather +,2013-04-27 00:36:00,
2013-04-26 20:37:00,44.2,38.5,30.34,South,188,0.0,0.0,80,0.00,,,-99.99,1.0,HOBO +U30 +Weather +,2013-04-27 00:37:00,
2013-04-26 20:38:00,44.1,38.6,30.35,South,188,0.0,0.0,80,0.00,,,-99.99,1.0,HOBO +U30 +Weather +,2013-04-27 00:38:00,
2013-04-26 20:39:00,44.2,38.5,30.34,South,188,0.0,0.0,80,0.00,,,-99.99,1.0,HOBO +U30 +Weather +,2013-04-27 00:39:00,
2013-04-26 20:40:00,44.1,38.5,30.34,South,188,0.0,0.0,80,0.00,,,-99.99,1.0,HOBO +U30 +Weather +,2013-04-27 00:40:00,
2013-04-26 20:41:00,44.2,38.5,30.34,South,188,0.0,0.0,80,0.00,,,-99.99,1.0,HOBO +U30 +Weather +,2013-04-27 00:41:00,
2013-04-26 20:42:00,44.3,38.7,30.35,South,188,0.0,0.0,80,0.00,,,-99.99,1.0,HOBO +U30 +Weather +,2013-04-27 00:42:00,
2013-04-26 20:43:00,44.3,38.8,30.34,South,188,0.0,0.0,80,0.00,,,-99.99,1.0,HOBO +U30 +Weather +,2013-04-27 00:43:00,
2013-04-26 20:44:00,44.3,38.6,30.34,South,188,0.0,0.0,80,0.00,,,-99.99,1.0,HOBO +U30 +Weather +,2013-04-27 00:44:00,
2013-04-26 20:45:00,44.1,38.4,30.34,South,188,0.0,0.0,80,0.00,,,-99.99,1.0,HOBO +U30 +Weather +,2013-04-27 00:45:00,
2013-04-26 20:46:00,44.1,38.7,30.34,South,188,0.0,0.0,80,0.00,,,-99.99,1.0,HOBO +U30 +Weather +,2013-04-27 00:46:00,
2013-04-26 20:47:00,44.1,38.8,30.35,South,188,0.0,0.0,81,0.00,,,-99.99,1.0,HOBO +U30 +Weather +,2013-04-27 00:47:00,
2013-04-26 20:48:00,44.0,38.6,30.34,South,188,0.0,0.0,81,0.00,,,-99.99,1.0,HOBO +U30 +Weather +,2013-04-27 00:48:00,
2013-04-26 20:49:00,43.8,38.4,30.35,South,188,0.0,0.0,81,0.00,,,-99.99,1.0,HOBO +U30 +Weather +,2013-04-27 00:49:00,
2013-04-26 20:50:00,43.8,38.6,30.35,South,188,0.0,0.0,81,0.00,,,-99.99,1.0,HOBO +U30 +Weather +,2013-04-27 00:50:00,
2013-04-26 20:51:00,43.8,38.6,30.35,South,188,0.0,0.0,81,0.00,,,-99.99,1.0,HOBO +U30 +Weather +,2013-04-27 00:51:00,
2013-04-26 20:52:00,43.8,38.7,30.35,South,188,0.0,0.0,82,0.00,,,-99.99,1.0,HOBO +U30 +Weather +,2013-04-27 00:52:00,
2013-04-26 20:53:00,43.8,38.8,30.34,South,188,0.0,0.0,82,0.00,,,-99.99,1.0,HOBO +U30 +Weather +,2013-04-27 00:53:00,
2013-04-26 20:54:00,43.8,38.8,30.35,South,188,0.0,0.0,82,0.00,,,-99.99,1.0,HOBO +U30 +Weather +,2013-04-27 00:54:00,
2013-04-26 20:55:00,43.8,38.8,30.34,South,188,0.0,0.0,82,0.00,,,-99.99,1.0,HOBO +U30 +Weather +,2013-04-27 00:55:00,
2013-04-26 20:56:00,43.6,38.6,30.35,South,188,0.0,0.0,82,0.00,,,-99.99,1.0,HOBO +U30 +Weather +,2013-04-27 00:56:00,
2013-04-26 20:57:00,43.5,38.6,30.35,South,188,0.0,0.0,82,0.00,,,-99.99,1.0,HOBO +U30 +Weather +,2013-04-27 00:57:00,
2013-04-26 20:58:00,43.4,38.5,30.35,South,188,0.0,0.0,82,0.00,,,-99.99,1.0,HOBO +U30 +Weather +,2013-04-27 00:58:00,
2013-04-26 20:59:00,43.3,38.5,30.35,South,188,0.0,0.0,82,0.00,,,-99.99,1.0,HOBO +U30 +Weather +,2013-04-27 00:59:00,
2013-04-26 21:00:00,43.2,38.4,30.35,South,188,0.0,0.0,83,0.00,,,-99.99,1.0,HOBO +U30 +Weather +,2013-04-27 01:00:00,
2013-04-26 21:01:00,43.0,38.2,30.35,South,188,0.0,0.0,82,0.00,,,-99.99,1.0,HOBO +U30 +Weather +,2013-04-27 01:01:00,
2013-04-26 21:02:00,42.9,38.2,30.35,South,188,0.0,0.0,83,0.00,,,-99.99,1.0,HOBO +U30 +Weather +,2013-04-27 01:02:00,
2013-04-26 21:03:00,42.7,38.0,30.34,South,188,0.0,0.0,83,0.00,,,-99.99,1.0,HOBO +U30 +Weather +,2013-04-27 01:03:00,
2013-04-26 21:04:00,42.5,38.0,30.35,South,188,0.0,0.0,83,0.00,,,-99.99,1.0,HOBO +U30 +Weather +,2013-04-27 01:04:00,
2013-04-26 21:05:00,42.3,37.8,30.35,South,188,0.0,0.0,83,0.00,,,-99.99,1.0,HOBO +U30 +Weather +,2013-04-27 01:05:00,
2013-04-26 21:06:00,42.2,37.8,30.35,South,188,0.0,0.0,84,0.00,,,-99.99,1.0,HOBO +U30 +Weather +,2013-04-27 01:06:00,
2013-04-26 21:07:00,42.1,37.7,30.35,South,188,0.0,0.0,84,0.00,,,-99.99,1.0,HOBO +U30 +Weather +,2013-04-27 01:07:00,
2013-04-26 21:08:00,42.0,37.6,30.35,South,188,0.0,0.0,84,0.00,,,-99.99,1.0,HOBO +U30 +Weather +,2013-04-27 01:08:00,
2013-04-26 21:09:00,42.1,37.8,30.35,South,188,0.0,0.0,84,0.00,,,-99.99,1.0,HOBO +U30 +Weather +,2013-04-27 01:09:00,
2013-04-26 21:10:00,42.2,38.0,30.34,South,188,0.0,0.0,84,0.00,,,-99.99,1.0,HOBO +U30 +Weather +,2013-04-27 01:10:00,
2013-04-26 21:11:00,42.3,38.2,30.34,South,188,0.0,0.0,85,0.00,,,-99.99,1.0,HOBO +U30 +Weather +,2013-04-27 01:11:00,
2013-04-26 21:12:00,42.2,38.1,30.34,South,188,0.0,0.0,85,0.00,,,-99.99,1.0,HOBO +U30 +Weather +,2013-04-27 01:12:00,
2013-04-26 21:13:00,42.2,37.9,30.35,South,188,0.0,0.0,84,0.00,,,-99.99,1.0,HOBO +U30 +Weather +,2013-04-27 01:13:00,
2013-04-26 21:14:00,42.0,37.7,30.34,South,188,0.0,0.0,84,0.00,,,-99.99,1.0,HOBO +U30 +Weather +,2013-04-27 01:14:00,
2013-04-26 21:15:00,41.9,37.7,30.35,South,188,0.0,0.0,84,0.00,,,-99.99,1.0,HOBO +U30 +Weather +,2013-04-27 01:15:00,
2013-04-26 21:16:00,41.7,37.6,30.35,South,188,0.0,0.0,85,0.00,,,-99.99,1.0,HOBO +U30 +Weather +,2013-04-27 01:16:00,
2013-04-26 21:17:00,41.6,37.6,30.35,South,188,0.0,0.0,85,0.00,,,-99.99,1.0,HOBO +U30 +Weather +,2013-04-27 01:17:00,
2013-04-26 21:18:00,41.6,37.6,30.34,South,188,0.0,0.0,85,0.00,,,-99.99,1.0,HOBO +U30 +Weather +,2013-04-27 01:18:00,
2013-04-26 21:19:00,41.5,37.5,30.34,South,188,0.0,0.0,85,0.00,,,-99.99,1.0,HOBO +U30 +Weather +,2013-04-27 01:19:00,
2013-04-26 21:20:00,41.5,37.6,30.34,South,188,0.0,0.0,86,0.00,,,-99.99,1.0,HOBO +U30 +Weather +,2013-04-27 01:20:00,
2013-04-26 21:21:00,41.4,37.6,30.34,South,188,0.0,0.0,86,0.00,,,-99.99,1.0,HOBO +U30 +Weather +,2013-04-27 01:21:00,
2013-04-26 21:22:00,41.5,37.8,30.34,South,188,0.0,0.0,86,0.00,,,-99.99,1.0,HOBO +U30 +Weather +,2013-04-27 01:22:00,
2013-04-26 21:23:00,41.4,37.7,30.34,South,188,0.0,0.0,86,0.00,,,-99.99,1.0,HOBO +U30 +Weather +,2013-04-27 01:23:00,
2013-04-26 21:24:00,41.3,37.7,30.34,South,188,0.0,0.0,86,0.00,,,-99.99,1.0,HOBO +U30 +Weather +,2013-04-27 01:24:00,
2013-04-26 21:25:00,41.2,37.5,30.34,South,188,0.0,0.0,86,0.00,,,-99.99,1.0,HOBO +U30 +Weather +,2013-04-27 01:25:00,
2013-04-26 21:26:00,41.1,37.5,30.34,South,188,0.0,0.0,86,0.00,,,-99.99,1.0,HOBO +U30 +Weather +,2013-04-27 01:26:00,
2013-04-26 21:27:00,41.1,37.6,30.34,South,188,0.0,0.0,87,0.00,,,-99.99,1.0,HOBO +U30 +Weather +,2013-04-27 01:27:00,
2013-04-26 21:28:00,41.0,37.6,30.34,South,188,0.0,0.0,87,0.00,,,-99.99,1.0,HOBO +U30 +Weather +,2013-04-27 01:28:00,
2013-04-26 21:29:00,41.1,37.7,30.34,South,188,0.0,0.0,87,0.00,,,-99.99,1.0,HOBO +U30 +Weather +,2013-04-27 01:29:00,
2013-04-26 21:30:00,41.0,37.7,30.35,South,188,0.0,0.0,87,0.00,,,-99.99,1.0,HOBO +U30 +Weather +,2013-04-27 01:30:00,
2013-04-26 21:31:00,41.6,38.7,30.34,South,188,0.0,0.0,89,0.00,,,-99.99,1.0,HOBO +U30 +Weather +,2013-04-27 01:31:00,
2013-04-26 21:32:00,41.7,38.5,30.35,South,188,0.0,0.0,88,0.00,,,-99.99,1.0,HOBO +U30 +Weather +,2013-04-27 01:32:00,
2013-04-26 21:33:00,41.6,38.3,30.34,South,188,0.0,0.0,87,0.00,,,-99.99,1.0,HOBO +U30 +Weather +,2013-04-27 01:33:00,
2013-04-26 21:34:00,41.8,38.5,30.34,South,188,0.0,0.0,88,0.00,,,-99.99,1.0,HOBO +U30 +Weather +,2013-04-27 01:34:00,
2013-04-26 21:35:00,41.8,38.5,30.34,South,188,0.0,0.0,87,0.00,,,-99.99,1.0,HOBO +U30 +Weather +,2013-04-27 01:35:00,
2013-04-26 21:36:00,41.6,38.3,30.34,South,188,0.0,0.0,87,0.00,,,-99.99,1.0,HOBO +U30 +Weather +,2013-04-27 01:36:00,
2013-04-26 21:37:00,41.6,38.3,30.34,South,188,0.0,0.0,88,0.00,,,-99.99,1.0,HOBO +U30 +Weather +,2013-04-27 01:37:00,
2013-04-26 21:38:00,41.6,38.3,30.34,South,188,0.0,0.0,88,0.00,,,-99.99,1.0,HOBO +U30 +Weather +,2013-04-27 01:38:00,
2013-04-26 21:39:00,41.5,38.3,30.34,South,188,0.0,0.0,88,0.00,,,-99.99,1.0,HOBO +U30 +Weather +,2013-04-27 01:39:00,
2013-04-26 21:40:00,41.6,38.4,30.34,South,188,0.0,0.0,88,0.00,,,-99.99,1.0,HOBO +U30 +Weather +,2013-04-27 01:40:00,
2013-04-26 21:41:00,41.6,38.6,30.34,South,188,0.0,0.0,88,0.00,,,-99.99,1.0,HOBO +U30 +Weather +,2013-04-27 01:41:00,
2013-04-26 21:42:00,41.9,38.9,30.34,South,188,0.0,0.0,89,0.00,,,-99.99,1.0,HOBO +U30 +Weather +,2013-04-27 01:42:00,
2013-04-26 21:43:00,41.8,38.8,30.34,South,188,0.0,0.0,88,0.00,,,-99.99,1.0,HOBO +U30 +Weather +,2013-04-27 01:43:00,
2013-04-26 21:44:00,41.7,38.7,30.34,South,188,0.0,0.0,88,0.00,,,-99.99,1.0,HOBO +U30 +Weather +,2013-04-27 01:44:00,
2013-04-26 21:45:00,41.6,38.6,30.34,South,188,0.0,0.0,88,0.00,,,-99.99,1.0,HOBO +U30 +Weather +,2013-04-27 01:45:00,
2013-04-26 21:46:00,41.8,38.9,30.34,South,188,0.0,0.0,89,0.00,,,-99.99,1.0,HOBO +U30 +Weather +,2013-04-27 01:46:00,
2013-04-26 21:47:00,41.8,38.9,30.34,South,188,0.0,0.0,89,0.00,,,-99.99,1.0,HOBO +U30 +Weather +,2013-04-27 01:47:00,
2013-04-26 21:48:00,42.0,39.2,30.34,South,188,0.0,0.0,89,0.00,,,-99.99,1.0,HOBO +U30 +Weather +,2013-04-27 01:48:00,
2013-04-26 21:49:00,42.1,39.3,30.34,South,188,0.0,0.0,89,0.00,,,-99.99,1.0,HOBO +U30 +Weather +,2013-04-27 01:49:00,
2013-04-26 21:50:00,42.1,39.1,30.34,South,188,0.0,0.0,89,0.00,,,-99.99,1.0,HOBO +U30 +Weather +,2013-04-27 01:50:00,
2013-04-26 21:51:00,42.0,39.0,30.34,South,188,0.0,0.0,89,0.00,,,-99.99,1.0,HOBO +U30 +Weather +,2013-04-27 01:51:00,
2013-04-26 21:52:00,41.9,38.9,30.34,South,188,0.0,0.0,89,0.00,,,-99.99,1.0,HOBO +U30 +Weather +,2013-04-27 01:52:00,
2013-04-26 21:53:00,42.0,39.3,30.34,South,188,0.0,0.0,90,0.00,,,-99.99,1.0,HOBO +U30 +Weather +,2013-04-27 01:53:00,
2013-04-26 21:54:00,42.1,39.3,30.34,South,188,0.0,0.0,89,0.00,,,-99.99,1.0,HOBO +U30 +Weather +,2013-04-27 01:54:00,
2013-04-26 21:55:00,42.1,39.3,30.33,South,188,0.0,0.9,89,0.00,,,-99.99,1.0,HOBO +U30 +Weather +,2013-04-27 01:55:00,
2013-04-26 21:56:00,42.2,39.4,30.34,South,188,0.0,0.0,89,0.00,,,-99.99,1.0,HOBO +U30 +Weather +,2013-04-27 01:56:00,
2013-04-26 21:57:00,42.2,39.5,30.33,South,191,0.0,0.0,89,0.00,,,-99.99,1.0,HOBO +U30 +Weather +,2013-04-27 01:57:00,
2013-04-26 21:58:00,42.9,40.6,30.33,WSW,246,0.0,0.0,91,0.00,,,-99.99,1.0,HOBO +U30 +Weather +,2013-04-27 01:58:00,
2013-04-26 21:59:00,43.6,41.3,30.34,SW,234,0.0,0.0,91,0.00,,,-99.99,1.0,HOBO +U30 +Weather +,2013-04-27 01:59:00,
2013-04-26 22:00:00,43.8,41.1,30.34,SW,232,0.0,0.0,90,0.00,,,-99.99,1.0,HOBO +U30 +Weather +,2013-04-27 02:00:00,
2013-04-26 22:01:00,43.9,41.2,30.34,SW,232,0.0,0.0,90,0.00,,,-99.99,1.0,HOBO +U30 +Weather +,2013-04-27 02:01:00,
2013-04-26 22:02:00,44.2,41.5,30.34,SW,232,0.0,0.0,89,0.00,,,-99.99,1.0,HOBO +U30 +Weather +,2013-04-27 02:02:00,
2013-04-26 22:03:00,44.4,41.6,30.34,SW,222,0.0,0.0,89,0.00,,,-99.99,1.0,HOBO +U30 +Weather +,2013-04-27 02:03:00,
2013-04-26 22:04:00,44.5,41.5,30.34,SW,220,0.0,0.0,89,0.00,,,-99.99,1.0,HOBO +U30 +Weather +,2013-04-27 02:04:00,
2013-04-26 22:05:00,44.6,41.5,30.34,SW,220,0.0,0.0,88,0.00,,,-99.99,1.0,HOBO +U30 +Weather +,2013-04-27 02:05:00,
2013-04-26 22:06:00,44.6,41.6,30.34,SSW,194,0.0,0.9,88,0.00,,,-99.99,1.0,HOBO +U30 +Weather +,2013-04-27 02:06:00,
2013-04-26 22:07:00,44.8,41.8,30.34,SW,234,0.0,0.0,88,0.00,,,-99.99,1.0,HOBO +U30 +Weather +,2013-04-27 02:07:00,
2013-04-26 22:08:00,44.9,41.7,30.34,SSW,208,0.0,0.0,88,0.00,,,-99.99,1.0,HOBO +U30 +Weather +,2013-04-27 02:08:00,
2013-04-26 22:09:00,45.0,41.9,30.34,SSW,205,0.0,1.8,88,0.00,,,-99.99,1.0,HOBO +U30 +Weather +,2013-04-27 02:09:00,
2013-04-26 22:10:00,45.1,41.9,30.34,SW,226,0.0,0.9,88,0.00,,,-99.99,1.0,HOBO +U30 +Weather +,2013-04-27 02:10:00,
2013-04-26 22:11:00,45.0,41.7,30.34,SW,222,0.0,0.0,88,0.00,,,-99.99,1.0,HOBO +U30 +Weather +,2013-04-27 02:11:00,
2013-04-26 22:12:00,45.0,41.8,30.34,SSW,206,0.0,2.5,88,0.00,,,-99.99,1.0,HOBO +U30 +Weather +,2013-04-27 02:12:00,
2013-04-26 22:13:00,45.1,42.0,30.34,SSW,208,0.0,0.0,88,0.00,,,-99.99,1.0,HOBO +U30 +Weather +,2013-04-27 02:13:00,
2013-04-26 22:14:00,45.1,41.9,30.34,SW,216,0.0,0.0,88,0.00,,,-99.99,1.0,HOBO +U30 +Weather +,2013-04-27 02:14:00,
2013-04-26 22:15:00,44.9,41.6,30.34,WNW,285,0.0,0.9,88,0.00,,,-99.99,1.0,HOBO +U30 +Weather +,2013-04-27 02:15:00,
2013-04-26 22:16:00,44.7,41.4,30.34,WNW,291,0.0,0.0,87,0.00,,,-99.99,1.0,HOBO +U30 +Weather +,2013-04-27 02:16:00,
2013-04-26 22:17:00,44.6,41.3,30.34,WNW,291,0.0,0.0,88,0.00,,,-99.99,1.0,HOBO +U30 +Weather +,2013-04-27 02:17:00,
2013-04-26 22:18:00,44.3,41.0,30.33,WNW,291,0.0,0.0,88,0.00,,,-99.99,1.0,HOBO +U30 +Weather +,2013-04-27 02:18:00,
2013-04-26 22:19:00,44.1,40.8,30.34,WNW,291,0.0,0.0,88,0.00,,,-99.99,1.0,HOBO +U30 +Weather +,2013-04-27 02:19:00,
2013-04-26 22:20:00,44.2,41.1,30.34,SW,225,0.0,0.0,88,0.00,,,-99.99,1.0,HOBO +U30 +Weather +,2013-04-27 02:20:00,
2013-04-26 22:21:00,44.3,41.1,30.34,SW,215,0.0,0.0,88,0.00,,,-99.99,1.0,HOBO +U30 +Weather +,2013-04-27 02:21:00,
2013-04-26 22:22:00,44.2,41.0,30.34,West,270,0.0,2.5,88,0.00,,,-99.99,1.0,HOBO +U30 +Weather +,2013-04-27 02:22:00,
2013-04-26 22:23:00,44.2,41.0,30.34,SW,234,0.0,0.0,88,0.00,,,-99.99,1.0,HOBO +U30 +Weather +,2013-04-27 02:23:00,
2013-04-26 22:24:00,44.2,41.0,30.34,SW,226,0.0,0.0,88,0.00,,,-99.99,1.0,HOBO +U30 +Weather +,2013-04-27 02:24:00,
2013-04-26 22:25:00,44.3,41.1,30.34,SSW,209,0.0,0.0,88,0.00,,,-99.99,1.0,HOBO +U30 +Weather +,2013-04-27 02:25:00,
2013-04-26 22:26:00,44.1,40.9,30.34,SSW,208,0.0,0.0,88,0.00,,,-99.99,1.0,HOBO +U30 +Weather +,2013-04-27 02:26:00,
2013-04-26 22:27:00,44.0,40.7,30.34,SSW,208,0.0,0.0,88,0.00,,,-99.99,1.0,HOBO +U30 +Weather +,2013-04-27 02:27:00,
2013-04-26 22:28:00,43.9,40.8,30.33,SSW,208,0.0,0.9,88,0.00,,,-99.99,1.0,HOBO +U30 +Weather +,2013-04-27 02:28:00,
2013-04-26 22:29:00,44.0,40.9,30.34,SSW,211,0.0,0.0,88,0.00,,,-99.99,1.0,HOBO +U30 +Weather +,2013-04-27 02:29:00,
2013-04-26 22:30:00,44.0,40.9,30.34,SSW,211,0.0,0.0,88,0.00,,,-99.99,1.0,HOBO +U30 +Weather +,2013-04-27 02:30:00,
2013-04-26 22:31:00,43.9,40.7,30.34,SW,218,0.0,0.0,88,0.00,,,-99.99,1.0,HOBO +U30 +Weather +,2013-04-27 02:31:00,
2013-04-26 22:32:00,43.9,40.7,30.34,SW,219,0.0,0.0,88,0.00,,,-99.99,1.0,HOBO +U30 +Weather +,2013-04-27 02:32:00,
2013-04-26 22:33:00,43.6,40.5,30.33,SW,219,0.0,0.0,88,0.00,,,-99.99,1.0,HOBO +U30 +Weather +,2013-04-27 02:33:00,
2013-04-26 22:34:00,43.7,40.6,30.34,SW,218,0.0,0.0,89,0.00,,,-99.99,1.0,HOBO +U30 +Weather +,2013-04-27 02:34:00,
2013-04-26 22:35:00,43.8,40.8,30.34,SW,216,0.0,0.0,89,0.00,,,-99.99,1.0,HOBO +U30 +Weather +,2013-04-27 02:35:00,
2013-04-26 22:36:00,43.8,40.8,30.34,SW,216,0.0,0.0,89,0.00,,,-99.99,1.0,HOBO +U30 +Weather +,2013-04-27 02:36:00,
2013-04-26 22:37:00,43.8,40.8,30.34,SW,216,0.0,0.0,89,0.00,,,-99.99,1.0,HOBO +U30 +Weather +,2013-04-27 02:37:00,
2013-04-26 22:38:00,43.9,41.0,30.34,SW,218,0.0,0.9,89,0.00,,,-99.99,1.0,HOBO +U30 +Weather +,2013-04-27 02:38:00,
2013-04-26 22:39:00,43.8,40.7,30.34,SW,218,0.0,0.0,88,0.00,,,-99.99,1.0,HOBO +U30 +Weather +,2013-04-27 02:39:00,
2013-04-26 22:40:00,43.6,40.5,30.35,SW,218,0.0,0.0,88,0.00,,,-99.99,1.0,HOBO +U30 +Weather +,2013-04-27 02:40:00,
2013-04-26 22:41:00,43.6,40.6,30.34,SW,218,0.0,0.0,89,0.00,,,-99.99,1.0,HOBO +U30 +Weather +,2013-04-27 02:41:00,
2013-04-26 22:42:00,43.7,40.9,30.34,SW,218,0.0,0.0,89,0.00,,,-99.99,1.0,HOBO +U30 +Weather +,2013-04-27 02:42:00,
2013-04-26 22:43:00,43.9,41.1,30.34,SW,218,0.0,0.0,89,0.00,,,-99.99,1.0,HOBO +U30 +Weather +,2013-04-27 02:43:00,
2013-04-26 22:44:00,43.9,41.0,30.34,SW,218,0.0,0.0,89,0.00,,,-99.99,1.0,HOBO +U30 +Weather +,2013-04-27 02:44:00,
2013-04-26 22:45:00,43.9,41.1,30.34,SSW,194,0.0,0.0,89,0.00,,,-99.99,1.0,HOBO +U30 +Weather +,2013-04-27 02:45:00,
2013-04-26 22:46:00,44.3,41.6,30.34,SW,222,0.0,2.5,90,0.00,,,-99.99,1.0,HOBO +U30 +Weather +,2013-04-27 02:46:00,
2013-04-26 22:47:00,44.6,41.9,30.34,SSW,206,0.9,4.3,90,0.00,,,-99.99,1.0,HOBO +U30 +Weather +,2013-04-27 02:47:00,
2013-04-26 22:48:00,44.7,41.8,30.34,SSW,198,0.0,0.0,89,0.00,,,-99.99,1.0,HOBO +U30 +Weather +,2013-04-27 02:48:00,
2013-04-26 22:49:00,44.4,41.4,30.34,SSW,198,0.0,0.0,88,0.00,,,-99.99,1.0,HOBO +U30 +Weather +,2013-04-27 02:49:00,
2013-04-26 22:50:00,44.2,41.1,30.34,SSW,198,0.0,0.0,88,0.00,,,-99.99,1.0,HOBO +U30 +Weather +,2013-04-27 02:50:00,
2013-04-26 22:51:00,44.0,41.0,30.34,SSW,198,0.0,0.0,88,0.00,,,-99.99,1.0,HOBO +U30 +Weather +,2013-04-27 02:51:00,
2013-04-26 22:52:00,44.0,41.0,30.34,SSW,198,0.0,0.0,89,0.00,,,-99.99,1.0,HOBO +U30 +Weather +,2013-04-27 02:52:00,
2013-04-26 22:53:00,44.3,41.6,30.34,SSW,212,0.0,0.9,90,0.00,,,-99.99,1.0,HOBO +U30 +Weather +,2013-04-27 02:53:00,
2013-04-26 22:54:00,44.5,41.7,30.34,SSW,213,0.0,0.0,89,0.00,,,-99.99,1.0,HOBO +U30 +Weather +,2013-04-27 02:54:00,
2013-04-26 22:55:00,44.5,41.6,30.34,SSW,213,0.0,0.0,89,0.00,,,-99.99,1.0,HOBO +U30 +Weather +,2013-04-27 02:55:00,
2013-04-26 22:56:00,44.3,41.1,30.34,SSW,213,0.0,0.0,88,0.00,,,-99.99,1.0,HOBO +U30 +Weather +,2013-04-27 02:56:00,
2013-04-26 22:57:00,44.1,41.0,30.34,SSW,213,0.0,0.0,88,0.00,,,-99.99,1.0,HOBO +U30 +Weather +,2013-04-27 02:57:00,
2013-04-26 22:58:00,43.8,40.8,30.34,SSW,213,0.0,0.0,88,0.00,,,-99.99,1.0,HOBO +U30 +Weather +,2013-04-27 02:58:00,
2013-04-26 22:59:00,44.0,41.3,30.34,SW,223,0.0,0.9,90,0.00,,,-99.99,1.0,HOBO +U30 +Weather +,2013-04-27 02:59:00,
2013-04-26 23:00:00,44.2,41.4,30.34,SW,225,0.0,0.0,89,0.00,,,-99.99,1.0,HOBO +U30 +Weather +,2013-04-27 03:00:00,
2013-04-26 23:01:00,44.3,41.6,30.34,WSW,243,0.0,2.5,89,0.00,,,-99.99,1.0,HOBO +U30 +Weather +,2013-04-27 03:01:00,
2013-04-26 23:02:00,44.3,41.4,30.34,WSW,247,0.0,0.0,89,0.00,,,-99.99,1.0,HOBO +U30 +Weather +,2013-04-27 03:02:00,
2013-04-26 23:03:00,44.2,41.1,30.34,WSW,247,0.0,0.0,89,0.00,,,-99.99,1.0,HOBO +U30 +Weather +,2013-04-27 03:03:00,
2013-04-26 23:04:00,44.2,41.4,30.34,WSW,246,0.0,0.0,89,0.00,,,-99.99,1.0,HOBO +U30 +Weather +,2013-04-27 03:04:00,
2013-04-26 23:05:00,44.3,41.4,30.34,WSW,243,0.0,0.0,89,0.00,,,-99.99,1.0,HOBO +U30 +Weather +,2013-04-27 03:05:00,
2013-04-26 23:06:00,44.3,41.6,30.34,SW,234,0.0,1.8,89,0.00,,,-99.99,1.0,HOBO +U30 +Weather +,2013-04-27 03:06:00,
2013-04-26 23:07:00,44.6,41.8,30.34,WSW,241,0.0,2.5,89,0.00,,,-99.99,1.0,HOBO +U30 +Weather +,2013-04-27 03:07:00,
2013-04-26 23:08:00,44.6,41.8,30.34,WSW,248,0.0,0.0,89,0.00,,,-99.99,1.0,HOBO +U30 +Weather +,2013-04-27 03:08:00,
2013-04-26 23:09:00,44.6,41.7,30.33,SW,229,0.0,0.0,89,0.00,,,-99.99,1.0,HOBO +U30 +Weather +,2013-04-27 03:09:00,
2013-04-26 23:10:00,44.6,41.7,30.33,SW,236,0.0,0.9,89,0.00,,,-99.99,1.0,HOBO +U30 +Weather +,2013-04-27 03:10:00,
2013-04-26 23:11:00,44.2,41.0,30.33,WNW,303,0.0,0.0,88,0.00,,,-99.99,1.0,HOBO +U30 +Weather +,2013-04-27 03:11:00,
2013-04-26 23:12:00,44.0,40.9,30.34,WNW,300,0.0,0.0,88,0.00,,,-99.99,1.0,HOBO +U30 +Weather +,2013-04-27 03:12:00,
2013-04-26 23:13:00,44.0,41.3,30.34,SW,232,0.0,0.0,89,0.00,,,-99.99,1.0,HOBO +U30 +Weather +,2013-04-27 03:13:00,
2013-04-26 23:14:00,44.3,41.5,30.34,SW,230,0.0,0.9,90,0.00,,,-99.99,1.0,HOBO +U30 +Weather +,2013-04-27 03:14:00,
2013-04-26 23:15:00,44.4,41.7,30.34,SW,232,0.0,2.5,90,0.00,,,-99.99,1.0,HOBO +U30 +Weather +,2013-04-27 03:15:00,
2013-04-26 23:16:00,44.5,41.7,30.34,SW,222,0.0,0.0,89,0.00,,,-99.99,1.0,HOBO +U30 +Weather +,2013-04-27 03:16:00,
2013-04-26 23:17:00,44.6,41.8,30.33,SSW,213,0.0,0.0,89,0.00,,,-99.99,1.0,HOBO +U30 +Weather +,2013-04-27 03:17:00,
2013-04-26 23:18:00,44.6,41.8,30.34,SW,227,0.0,1.8,89,0.00,,,-99.99,1.0,HOBO +U30 +Weather +,2013-04-27 03:18:00,
2013-04-26 23:19:00,44.7,41.9,30.34,SW,232,0.0,3.4,89,0.00,,,-99.99,1.0,HOBO +U30 +Weather +,2013-04-27 03:19:00,
2013-04-26 23:20:00,44.7,41.9,30.34,SW,216,0.9,3.4,89,0.00,,,-99.99,1.0,HOBO +U30 +Weather +,2013-04-27 03:20:00,
2013-04-26 23:21:00,44.7,41.9,30.34,SW,232,0.0,2.5,90,0.00,,,-99.99,1.0,HOBO +U30 +Weather +,2013-04-27 03:21:00,
2013-04-26 23:22:00,44.7,42.0,30.34,SW,227,0.9,3.4,90,0.00,,,-99.99,1.0,HOBO +U30 +Weather +,2013-04-27 03:22:00,
2013-04-26 23:23:00,44.7,42.0,30.34,SSW,213,0.0,1.8,90,0.00,,,-99.99,1.0,HOBO +U30 +Weather +,2013-04-27 03:23:00,
2013-04-26 23:24:00,44.7,41.9,30.34,SSW,211,0.0,0.0,90,0.00,,,-99.99,1.0,HOBO +U30 +Weather +,2013-04-27 03:24:00,
2013-04-26 23:25:00,44.6,41.9,30.34,SW,222,0.0,1.8,90,0.00,,,-99.99,1.0,HOBO +U30 +Weather +,2013-04-27 03:25:00,
2013-04-26 23:26:00,44.7,42.0,30.34,SSW,212,0.0,0.0,90,0.00,,,-99.99,1.0,HOBO +U30 +Weather +,2013-04-27 03:26:00,
2013-04-26 23:27:00,44.6,42.0,30.34,SSW,211,0.0,0.0,90,0.00,,,-99.99,1.0,HOBO +U30 +Weather +,2013-04-27 03:27:00,
2013-04-26 23:28:00,44.6,42.0,30.34,SW,227,0.0,2.5,90,0.00,,,-99.99,1.0,HOBO +U30 +Weather +,2013-04-27 03:28:00,
2013-04-26 23:29:00,44.6,42.0,30.34,WSW,244,0.0,0.0,90,0.00,,,-99.99,1.0,HOBO +U30 +Weather +,2013-04-27 03:29:00,
2013-04-26 23:30:00,44.5,41.9,30.34,WSW,237,0.0,1.8,90,0.00,,,-99.99,1.0,HOBO +U30 +Weather +,2013-04-27 03:30:00,
2013-04-26 23:31:00,44.5,42.0,30.33,SSW,209,0.0,0.0,90,0.00,,,-99.99,1.0,HOBO +U30 +Weather +,2013-04-27 03:31:00,
2013-04-26 23:32:00,44.4,41.9,30.34,SSW,201,0.0,0.0,90,0.00,,,-99.99,1.0,HOBO +U30 +Weather +,2013-04-27 03:32:00,
2013-04-26 23:33:00,44.4,42.0,30.34,SW,215,0.0,0.9,90,0.00,,,-99.99,1.0,HOBO +U30 +Weather +,2013-04-27 03:33:00,
2013-04-26 23:34:00,44.4,42.0,30.34,SW,223,0.0,1.8,91,0.00,,,-99.99,1.0,HOBO +U30 +Weather +,2013-04-27 03:34:00,
2013-04-26 23:35:00,44.5,42.1,30.34,SW,225,0.0,0.0,91,0.00,,,-99.99,1.0,HOBO +U30 +Weather +,2013-04-27 03:35:00,
2013-04-26 23:36:00,44.6,42.2,30.33,SSW,213,0.0,0.0,91,0.00,,,-99.99,1.0,HOBO +U30 +Weather +,2013-04-27 03:36:00,
2013-04-26 23:37:00,44.5,42.1,30.34,SSW,211,0.0,0.9,91,0.00,,,-99.99,1.0,HOBO +U30 +Weather +,2013-04-27 03:37:00,
2013-04-26 23:38:00,44.5,42.0,30.34,SSW,205,0.0,0.0,91,0.00,,,-99.99,1.0,HOBO +U30 +Weather +,2013-04-27 03:38:00,
2013-04-26 23:39:00,44.5,42.1,30.34,SW,230,0.0,1.8,91,0.00,,,-99.99,1.0,HOBO +U30 +Weather +,2013-04-27 03:39:00,
2013-04-26 23:40:00,44.4,42.1,30.35,SW,223,0.0,0.0,91,0.00,,,-99.99,1.0,HOBO +U30 +Weather +,2013-04-27 03:40:00,
2013-04-26 23:41:00,44.4,42.1,30.34,SW,220,0.0,0.0,91,0.00,,,-99.99,1.0,HOBO +U30 +Weather +,2013-04-27 03:41:00,
2013-04-26 23:42:00,44.4,42.0,30.34,SW,219,0.0,0.0,91,0.00,,,-99.99,1.0,HOBO +U30 +Weather +,2013-04-27 03:42:00,
2013-04-26 23:43:00,44.3,41.9,30.34,SW,220,0.0,0.0,91,0.00,,,-99.99,1.0,HOBO +U30 +Weather +,2013-04-27 03:43:00,
2013-04-26 23:44:00,44.2,41.8,30.34,SW,220,0.0,0.0,91,0.00,,,-99.99,1.0,HOBO +U30 +Weather +,2013-04-27 03:44:00,
2013-04-26 23:45:00,44.1,41.7,30.34,SW,220,0.0,0.0,91,0.00,,,-99.99,1.0,HOBO +U30 +Weather +,2013-04-27 03:45:00,
2013-04-26 23:46:00,44.0,41.6,30.34,SW,220,0.0,0.0,91,0.00,,,-99.99,1.0,HOBO +U30 +Weather +,2013-04-27 03:46:00,
2013-04-26 23:47:00,43.8,41.3,30.34,SW,220,0.0,0.0,91,0.00,,,-99.99,1.0,HOBO +U30 +Weather +,2013-04-27 03:47:00,
2013-04-26 23:48:00,43.6,41.2,30.34,SW,220,0.0,0.0,91,0.00,,,-99.99,1.0,HOBO +U30 +Weather +,2013-04-27 03:48:00,
2013-04-26 23:49:00,43.3,40.9,30.34,SW,220,0.0,0.0,91,0.00,,,-99.99,1.0,HOBO +U30 +Weather +,2013-04-27 03:49:00,
2013-04-26 23:50:00,43.0,40.7,30.34,SW,220,0.0,0.0,91,0.00,,,-99.99,1.0,HOBO +U30 +Weather +,2013-04-27 03:50:00,
2013-04-26 23:51:00,43.3,41.1,30.34,SW,220,0.0,0.0,92,0.00,,,-99.99,1.0,HOBO +U30 +Weather +,2013-04-27 03:51:00,
2013-04-26 23:52:00,43.2,41.0,30.34,SW,220,0.0,0.0,91,0.00,,,-99.99,1.0,HOBO +U30 +Weather +,2013-04-27 03:52:00,
2013-04-26 23:53:00,42.9,40.7,30.34,SW,220,0.0,0.0,91,0.00,,,-99.99,1.0,HOBO +U30 +Weather +,2013-04-27 03:53:00,
2013-04-26 23:54:00,42.7,40.4,30.34,SW,220,0.0,0.0,91,0.00,,,-99.99,1.0,HOBO +U30 +Weather +,2013-04-27 03:54:00,
2013-04-26 23:55:00,42.4,40.3,30.34,SW,219,0.0,0.0,91,0.00,,,-99.99,1.0,HOBO +U30 +Weather +,2013-04-27 03:55:00,
2013-04-26 23:56:00,42.2,40.2,30.34,SW,219,0.0,0.0,92,0.00,,,-99.99,1.0,HOBO +U30 +Weather +,2013-04-27 03:56:00,
2013-04-26 23:57:00,42.1,40.1,30.34,SW,219,0.0,0.0,92,0.00,,,-99.99,1.0,HOBO +U30 +Weather +,2013-04-27 03:57:00,
2013-04-26 23:58:00,41.9,39.9,30.35,SW,219,0.0,0.0,92,0.00,,,-99.99,1.0,HOBO +U30 +Weather +,2013-04-27 03:58:00,
2013-04-26 23:59:00,41.8,39.9,30.34,SW,219,0.0,0.0,92,0.00,,,-99.99,1.0,HOBO +U30 +Weather +,2013-04-27 03:59:00,